PWSweather.com
Personal Weather Stations
Station Observations
KNJEWING3
Ewing, NJ 08638

Ewing, NJ 08638

Lat: 40.25193, Lon: -74.77511

Elevation: 106

Station Type: Oregon Scientific WMR968 / SRS100 Solar Radiation Shield. Rain Data At www.cocorahs.org (NJ-MC-11)

Latest ConditionsUpdated 6:46:55 PM EST Saturday, Dec 3, 2016
Currently Today's Max Today's Min Today's Average
Temperature 46.1°F7.8°C 51.7°F10.9°C 41.1°F5.1°C 45.8°F7.7°C
Dew Point 23.2°F-4.9°C 27.6°F-2.4°C 19.8°F-6.8°C 23.2°F-4.9°C
Winds 4.3 mph N6.9 kmh N 19.1 mph NNW30.7 kmh NNW - 6.7 mph 10.8 kmh
Wind Gusts 8.1 mph13.0 kmh 20.9 mph33.6 kmh - -
Humidity 40% 42% 39% 41%
Pressure 30.24 in1024.0 mb 30.24 in1024.0 mb 30.06 in1017.9 mb -
Hour Temp Dew Point Humidity Winds Wind Gusts Pressure Precip Precip Rate Daily Precip Total
06:46 PM 46.1°F7.8°C 23.2°F-4.9°C 40% 3.8 mph N6.1 kmh N 8.1 mph13.0 kmh 30.24 in1024.0 mb 0.00 in0.0 mm 0.00 in0.0 mm 0.00 in0.0 mm
06:45 PM 46.1°F7.8°C 23.2°F-4.9°C 40% Calm Calm 8.1 mph13.0 kmh 30.24 in1024.0 mb 0.00 in0.0 mm 0.00 in0.0 mm 0.00 in0.0 mm
06:43 PM 46.1°F7.8°C 23.2°F-4.9°C 40% 7.5 mph N12.1 kmh N 8.1 mph13.0 kmh 30.24 in1024.0 mb 0.00 in0.0 mm 0.00 in0.0 mm 0.00 in0.0 mm
06:42 PM 46.1°F7.8°C 23.2°F-4.9°C 40% 4.8 mph NW7.7 kmh NW 8.1 mph13.0 kmh 30.24 in1024.0 mb 0.00 in0.0 mm 0.00 in0.0 mm 0.00 in0.0 mm
06:41 PM 46.1°F7.8°C 23.2°F-4.9°C 40% 4.8 mph NW7.7 kmh NW 9.1 mph14.6 kmh 30.24 in1024.0 mb 0.00 in0.0 mm 0.00 in0.0 mm 0.00 in0.0 mm
06:40 PM 46.1°F7.8°C 23.2°F-4.9°C 40% 4.8 mph WSW7.7 kmh WSW 9.7 mph15.6 kmh 30.24 in1024.0 mb 0.00 in0.0 mm 0.00 in0.0 mm 0.00 in0.0 mm
06:39 PM 46.1°F7.8°C 23.2°F-4.9°C 40% 3.8 mph N6.1 kmh N 9.7 mph15.6 kmh 30.24 in1024.0 mb 0.00 in0.0 mm 0.00 in0.0 mm 0.00 in0.0 mm
06:38 PM 46.1°F7.8°C 23.2°F-4.9°C 40% 7.5 mph NW12.1 kmh NW 9.7 mph15.6 kmh 30.24 in1024.0 mb 0.00 in0.0 mm 0.00 in0.0 mm 0.00 in0.0 mm
06:36 PM 46.1°F7.8°C 23.2°F-4.9°C 40% 5.9 mph NNW9.5 kmh NNW 9.7 mph15.6 kmh 30.24 in1024.0 mb 0.00 in0.0 mm 0.00 in0.0 mm 0.00 in0.0 mm
06:35 PM 46.1°F7.8°C 23.2°F-4.9°C 40% 4.8 mph NNW7.7 kmh NNW 9.7 mph15.6 kmh 30.24 in1024.0 mb 0.00 in0.0 mm 0.00 in0.0 mm 0.00 in0.0 mm
06:33 PM 46.1°F7.8°C 23.2°F-4.9°C 40% 6.4 mph NNW10.3 kmh NNW 9.7 mph15.6 kmh 30.24 in1024.0 mb 0.00 in0.0 mm 0.00 in0.0 mm 0.00 in0.0 mm
06:32 PM 46.1°F7.8°C 23.2°F-4.9°C 40% Calm Calm 10.5 mph16.9 kmh 30.24 in1024.0 mb 0.00 in0.0 mm 0.00 in0.0 mm 0.00 in0.0 mm
06:31 PM 46.1°F7.8°C 23.2°F-4.9°C 40% Calm Calm 10.5 mph16.9 kmh 30.24 in1024.0 mb 0.00 in0.0 mm 0.00 in0.0 mm 0.00 in0.0 mm
06:29 PM 46.1°F7.8°C 23.2°F-4.9°C 40% 4.8 mph N7.7 kmh N 10.5 mph16.9 kmh 30.24 in1024.0 mb 0.00 in0.0 mm 0.00 in0.0 mm 0.00 in0.0 mm
06:28 PM 46.1°F7.8°C 23.2°F-4.9°C 40% 3.2 mph NW5.1 kmh NW 10.5 mph16.9 kmh 30.24 in1024.0 mb 0.00 in0.0 mm 0.00 in0.0 mm 0.00 in0.0 mm
06:27 PM 46.1°F7.8°C 23.2°F-4.9°C 40% 3.2 mph NNW5.1 kmh NNW 10.5 mph16.9 kmh 30.24 in1024.0 mb 0.00 in0.0 mm 0.00 in0.0 mm 0.00 in0.0 mm
06:25 PM 46.1°F7.8°C 23.2°F-4.9°C 40% 6.4 mph NNW10.3 kmh NNW 9.9 mph15.9 kmh 30.21 in1023.0 mb 0.00 in0.0 mm 0.00 in0.0 mm 0.00 in0.0 mm
06:24 PM 46.1°F7.8°C 23.2°F-4.9°C 40% 7.5 mph N12.1 kmh N 9.7 mph15.6 kmh 30.21 in1023.0 mb 0.00 in0.0 mm 0.00 in0.0 mm 0.00 in0.0 mm
06:22 PM 46.3°F7.9°C 23.3°F-4.8°C 40% 9.1 mph NNW14.6 kmh NNW 9.7 mph15.6 kmh 30.21 in1023.0 mb 0.00 in0.0 mm 0.00 in0.0 mm 0.00 in0.0 mm
06:21 PM 46.3°F7.9°C 23.3°F-4.8°C 40% 3.8 mph WNW6.1 kmh WNW 12.6 mph20.3 kmh 30.21 in1023.0 mb 0.00 in0.0 mm 0.00 in0.0 mm 0.00 in0.0 mm
06:20 PM 46.3°F7.9°C 23.3°F-4.8°C 40% 7.0 mph N11.3 kmh N 12.6 mph20.3 kmh 30.21 in1023.0 mb 0.00 in0.0 mm 0.00 in0.0 mm 0.00 in0.0 mm
06:19 PM 46.3°F7.9°C 23.3°F-4.8°C 40% 4.8 mph N7.7 kmh N 12.6 mph20.3 kmh 30.21 in1023.0 mb 0.00 in0.0 mm 0.00 in0.0 mm 0.00 in0.0 mm
06:17 PM 46.3°F7.9°C 23.3°F-4.8°C 40% Calm Calm 12.6 mph20.3 kmh 30.21 in1023.0 mb 0.00 in0.0 mm 0.00 in0.0 mm 0.00 in0.0 mm
06:16 PM 46.3°F7.9°C 23.3°F-4.8°C 40% 3.2 mph N5.1 kmh N 12.6 mph20.3 kmh 30.21 in1023.0 mb 0.00 in0.0 mm 0.00 in0.0 mm 0.00 in0.0 mm
06:14 PM 46.3°F7.9°C 23.3°F-4.8°C 40% 2.7 mph NE4.3 kmh NE 14.8 mph23.8 kmh 30.21 in1023.0 mb 0.00 in0.0 mm 0.00 in0.0 mm 0.00 in0.0 mm
06:13 PM 46.3°F7.9°C 23.3°F-4.8°C 40% 3.2 mph NW5.1 kmh NW 14.8 mph23.8 kmh 30.21 in1023.0 mb 0.00 in0.0 mm 0.00 in0.0 mm 0.00 in0.0 mm
06:11 PM 46.3°F7.9°C 23.3°F-4.8°C 40% 7.5 mph NW12.1 kmh NW 14.8 mph23.8 kmh 30.21 in1023.0 mb 0.00 in0.0 mm 0.00 in0.0 mm 0.00 in0.0 mm
06:10 PM 46.5°F8.1°C 23.5°F-4.7°C 40% 10.5 mph N16.9 kmh N 14.8 mph23.8 kmh 30.21 in1023.0 mb 0.00 in0.0 mm 0.00 in0.0 mm 0.00 in0.0 mm
06:08 PM 46.5°F8.1°C 23.5°F-4.7°C 40% 4.8 mph N7.7 kmh N 14.8 mph23.8 kmh 30.21 in1023.0 mb 0.00 in0.0 mm 0.00 in0.0 mm 0.00 in0.0 mm
06:07 PM 46.5°F8.1°C 23.5°F-4.7°C 40% 14.8 mph NNW23.8 kmh NNW 14.8 mph23.8 kmh 30.21 in1023.0 mb 0.00 in0.0 mm 0.00 in0.0 mm 0.00 in0.0 mm
06:05 PM 46.5°F8.1°C 23.5°F-4.7°C 40% 9.9 mph NNW15.9 kmh NNW 11.5 mph18.5 kmh 30.21 in1023.0 mb 0.00 in0.0 mm 0.00 in0.0 mm 0.00 in0.0 mm
06:04 PM 46.5°F8.1°C 23.5°F-4.7°C 40% 3.2 mph N5.1 kmh N 11.5 mph18.5 kmh 30.21 in1023.0 mb 0.00 in0.0 mm 0.00 in0.0 mm 0.00 in0.0 mm
06:03 PM 46.5°F8.1°C 23.5°F-4.7°C 40% 2.7 mph NNW4.3 kmh NNW 11.5 mph18.5 kmh 30.21 in1023.0 mb 0.00 in0.0 mm 0.00 in0.0 mm 0.00 in0.0 mm
06:01 PM 46.7°F8.2°C 23.6°F-4.7°C 40% 9.9 mph 15.9 kmh 11.5 mph18.5 kmh 30.21 in1023.0 mb 0.00 in0.0 mm 0.00 in0.0 mm 0.00 in0.0 mm
06:00 PM 46.7°F8.2°C 23.6°F-4.7°C 40% 7.0 mph N11.3 kmh N 11.5 mph18.5 kmh 30.21 in1023.0 mb 0.00 in0.0 mm 0.00 in0.0 mm 0.00 in0.0 mm
05:59 PM 46.7°F8.2°C 23.6°F-4.7°C 40% 7.0 mph NNW11.3 kmh NNW 11.5 mph18.5 kmh 30.21 in1023.0 mb 0.00 in0.0 mm 0.00 in0.0 mm 0.00 in0.0 mm
05:57 PM 46.7°F8.2°C 23.6°F-4.7°C 40% 4.3 mph WNW6.9 kmh WNW 13.2 mph21.2 kmh 30.21 in1023.0 mb 0.00 in0.0 mm 0.00 in0.0 mm 0.00 in0.0 mm
05:56 PM 46.7°F8.2°C 23.6°F-4.7°C 40% 7.5 mph NW12.1 kmh NW 13.2 mph21.2 kmh 30.24 in1024.0 mb 0.00 in0.0 mm 0.00 in0.0 mm 0.00 in0.0 mm
05:55 PM 46.7°F8.2°C 23.6°F-4.7°C 40% 7.0 mph NW11.3 kmh NW 13.2 mph21.2 kmh 30.24 in1024.0 mb 0.00 in0.0 mm 0.00 in0.0 mm 0.00 in0.0 mm
05:54 PM 46.7°F8.2°C 23.6°F-4.7°C 40% 7.5 mph NW12.1 kmh NW 13.2 mph21.2 kmh 30.24 in1024.0 mb 0.00 in0.0 mm 0.00 in0.0 mm 0.00 in0.0 mm
05:53 PM 46.7°F8.2°C 23.6°F-4.7°C 40% 3.8 mph NNW6.1 kmh NNW 13.2 mph21.2 kmh 30.24 in1024.0 mb 0.00 in0.0 mm 0.00 in0.0 mm 0.00 in0.0 mm
05:52 PM 46.7°F8.2°C 23.6°F-4.7°C 40% 6.4 mph NNW10.3 kmh NNW 13.2 mph21.2 kmh 30.24 in1024.0 mb 0.00 in0.0 mm 0.00 in0.0 mm 0.00 in0.0 mm
05:50 PM 46.7°F8.2°C 23.6°F-4.7°C 40% 9.7 mph NNW15.6 kmh NNW 13.2 mph21.2 kmh 30.24 in1024.0 mb 0.00 in0.0 mm 0.00 in0.0 mm 0.00 in0.0 mm
05:49 PM 46.7°F8.2°C 23.6°F-4.7°C 40% 12.1 mph NNW19.5 kmh NNW 12.1 mph19.5 kmh 30.24 in1024.0 mb 0.00 in0.0 mm 0.00 in0.0 mm 0.00 in0.0 mm
05:47 PM 46.8°F8.2°C 23.8°F-4.6°C 40% 6.4 mph NW10.3 kmh NW 15.8 mph25.4 kmh 30.24 in1024.0 mb 0.00 in0.0 mm 0.00 in0.0 mm 0.00 in0.0 mm
05:46 PM 46.7°F8.2°C 23.6°F-4.7°C 40% 9.9 mph NW15.9 kmh NW 15.8 mph25.4 kmh 30.24 in1024.0 mb 0.00 in0.0 mm 0.00 in0.0 mm 0.00 in0.0 mm
05:44 PM 46.7°F8.2°C 23.6°F-4.7°C 40% 7.5 mph NW12.1 kmh NW 15.8 mph25.4 kmh 30.24 in1024.0 mb 0.00 in0.0 mm 0.00 in0.0 mm 0.00 in0.0 mm
05:43 PM 46.7°F8.2°C 23.6°F-4.7°C 40% 3.8 mph N6.1 kmh N 15.8 mph25.4 kmh 30.24 in1024.0 mb 0.00 in0.0 mm 0.00 in0.0 mm 0.00 in0.0 mm
05:42 PM 46.7°F8.2°C 23.6°F-4.7°C 40% 10.5 mph NNW16.9 kmh NNW 15.8 mph25.4 kmh 30.24 in1024.0 mb 0.00 in0.0 mm 0.00 in0.0 mm 0.00 in0.0 mm
05:40 PM 46.7°F8.2°C 23.6°F-4.7°C 40% 11.0 mph N17.7 kmh N 15.8 mph25.4 kmh 30.24 in1024.0 mb 0.00 in0.0 mm 0.00 in0.0 mm 0.00 in0.0 mm
05:39 PM 46.7°F8.2°C 23.6°F-4.7°C 40% 7.5 mph NNW12.1 kmh NNW 12.6 mph20.3 kmh 30.24 in1024.0 mb 0.00 in0.0 mm 0.00 in0.0 mm 0.00 in0.0 mm
05:38 PM 46.7°F8.2°C 23.6°F-4.7°C 40% 9.1 mph N14.6 kmh N 12.6 mph20.3 kmh 30.24 in1024.0 mb 0.00 in0.0 mm 0.00 in0.0 mm 0.00 in0.0 mm
05:36 PM 46.7°F8.2°C 23.6°F-4.7°C 40% 7.0 mph NNW11.3 kmh NNW 15.8 mph25.4 kmh 30.24 in1024.0 mb 0.00 in0.0 mm 0.00 in0.0 mm 0.00 in0.0 mm
05:35 PM 46.7°F8.2°C 23.6°F-4.7°C 40% 7.0 mph NNW11.3 kmh NNW 15.8 mph25.4 kmh 30.24 in1024.0 mb 0.00 in0.0 mm 0.00 in0.0 mm 0.00 in0.0 mm
05:34 PM 46.7°F8.2°C 23.6°F-4.7°C 40% 7.0 mph NW11.3 kmh NW 15.8 mph25.4 kmh 30.24 in1024.0 mb 0.00 in0.0 mm 0.00 in0.0 mm 0.00 in0.0 mm
05:32 PM 46.7°F8.2°C 23.6°F-4.7°C 40% 7.5 mph N12.1 kmh N 15.8 mph25.4 kmh 30.24 in1024.0 mb 0.00 in0.0 mm 0.00 in0.0 mm 0.00 in0.0 mm
05:30 PM 46.7°F8.2°C 23.6°F-4.7°C 40% 9.7 mph NNE15.6 kmh NNE 9.7 mph15.6 kmh 30.24 in1024.0 mb 0.00 in0.0 mm 0.00 in0.0 mm 0.00 in0.0 mm
05:28 PM 46.8°F8.2°C 23.8°F-4.6°C 40% 5.9 mph NW9.5 kmh NW 9.7 mph15.6 kmh 30.24 in1024.0 mb 0.00 in0.0 mm 0.00 in0.0 mm 0.00 in0.0 mm
05:26 PM 46.8°F8.2°C 23.8°F-4.6°C 40% 7.0 mph NW11.3 kmh NW 12.6 mph20.3 kmh 30.21 in1023.0 mb 0.00 in0.0 mm 0.00 in0.0 mm 0.00 in0.0 mm
05:25 PM 46.8°F8.2°C 23.8°F-4.6°C 40% 7.5 mph NNW12.1 kmh NNW 12.6 mph20.3 kmh 30.21 in1023.0 mb 0.00 in0.0 mm 0.00 in0.0 mm 0.00 in0.0 mm
05:24 PM 46.8°F8.2°C 23.8°F-4.6°C 40% 6.4 mph NNE10.3 kmh NNE 12.6 mph20.3 kmh 30.21 in1023.0 mb 0.00 in0.0 mm 0.00 in0.0 mm 0.00 in0.0 mm
05:23 PM 46.8°F8.2°C 23.8°F-4.6°C 40% 7.0 mph N11.3 kmh N 12.6 mph20.3 kmh 30.21 in1023.0 mb 0.00 in0.0 mm 0.00 in0.0 mm 0.00 in0.0 mm
05:21 PM 46.8°F8.2°C 23.8°F-4.6°C 40% 9.7 mph N15.6 kmh N 12.6 mph20.3 kmh 30.21 in1023.0 mb 0.00 in0.0 mm 0.00 in0.0 mm 0.00 in0.0 mm
05:19 PM 46.8°F8.2°C 23.8°F-4.6°C 40% 6.4 mph NNW10.3 kmh NNW 12.6 mph20.3 kmh 30.21 in1023.0 mb 0.00 in0.0 mm 0.00 in0.0 mm 0.00 in0.0 mm
05:18 PM 46.8°F8.2°C 23.8°F-4.6°C 40% 9.9 mph NNW15.9 kmh NNW 12.6 mph20.3 kmh 30.21 in1023.0 mb 0.00 in0.0 mm 0.00 in0.0 mm 0.00 in0.0 mm
05:16 PM 46.8°F8.2°C 23.8°F-4.6°C 40% 12.6 mph NW20.3 kmh NW 12.6 mph20.3 kmh 30.21 in1023.0 mb 0.00 in0.0 mm 0.00 in0.0 mm 0.00 in0.0 mm
05:14 PM 46.8°F8.2°C 23.8°F-4.6°C 40% 9.1 mph W14.6 kmh W 9.7 mph15.6 kmh 30.21 in1023.0 mb 0.00 in0.0 mm 0.00 in0.0 mm 0.00 in0.0 mm
05:12 PM 46.8°F8.2°C 23.8°F-4.6°C 40% 2.7 mph N4.3 kmh N 9.7 mph15.6 kmh 30.21 in1023.0 mb 0.00 in0.0 mm 0.00 in0.0 mm 0.00 in0.0 mm
05:11 PM 46.8°F8.2°C 23.8°F-4.6°C 40% 4.3 mph NW6.9 kmh NW 9.7 mph15.6 kmh 30.21 in1023.0 mb 0.00 in0.0 mm 0.00 in0.0 mm 0.00 in0.0 mm
05:10 PM 47.0°F8.3°C 24.0°F-4.4°C 40% 9.7 mph NNW15.6 kmh NNW 9.7 mph15.6 kmh 30.21 in1023.0 mb 0.00 in0.0 mm 0.00 in0.0 mm 0.00 in0.0 mm
05:08 PM 47.0°F8.3°C 24.0°F-4.4°C 40% 7.0 mph N11.3 kmh N 8.6 mph13.8 kmh 30.21 in1023.0 mb 0.00 in0.0 mm 0.00 in0.0 mm 0.00 in0.0 mm
05:07 PM 47.0°F8.3°C 24.0°F-4.4°C 40% 4.8 mph NNW7.7 kmh NNW 9.1 mph14.6 kmh 30.21 in1023.0 mb 0.00 in0.0 mm 0.00 in0.0 mm 0.00 in0.0 mm
05:05 PM 47.0°F8.3°C 24.0°F-4.4°C 40% 7.0 mph NNW11.3 kmh NNW 9.1 mph14.6 kmh 30.21 in1023.0 mb 0.00 in0.0 mm 0.00 in0.0 mm 0.00 in0.0 mm
05:04 PM 47.2°F8.4°C 24.1°F-4.4°C 40% 3.8 mph W6.1 kmh W 9.9 mph15.9 kmh 30.21 in1023.0 mb 0.00 in0.0 mm 0.00 in0.0 mm 0.00 in0.0 mm
05:03 PM 47.2°F8.4°C 24.1°F-4.4°C 40% 3.2 mph NNW5.1 kmh NNW 9.9 mph15.9 kmh 30.21 in1023.0 mb 0.00 in0.0 mm 0.00 in0.0 mm 0.00 in0.0 mm
05:02 PM 47.2°F8.4°C 24.1°F-4.4°C 40% 3.8 mph N6.1 kmh N 9.9 mph15.9 kmh 30.21 in1023.0 mb 0.00 in0.0 mm 0.00 in0.0 mm 0.00 in0.0 mm
05:00 PM 47.4°F8.6°C 24.3°F-4.3°C 40% 7.5 mph N12.1 kmh N 13.2 mph21.2 kmh 30.21 in1023.0 mb 0.00 in0.0 mm 0.00 in0.0 mm 0.00 in0.0 mm
04:58 PM 47.4°F8.6°C 24.3°F-4.3°C 40% 7.5 mph NNW12.1 kmh NNW 13.2 mph21.2 kmh 30.21 in1023.0 mb 0.00 in0.0 mm 0.00 in0.0 mm 0.00 in0.0 mm
04:57 PM 47.6°F8.7°C 24.5°F-4.2°C 40% 5.9 mph N9.5 kmh N 13.2 mph21.2 kmh 30.21 in1023.0 mb 0.00 in0.0 mm 0.00 in0.0 mm 0.00 in0.0 mm
04:55 PM 47.6°F8.7°C 24.5°F-4.2°C 40% 7.5 mph NNW12.1 kmh NNW 20.4 mph32.8 kmh 30.21 in1023.0 mb 0.00 in0.0 mm 0.00 in0.0 mm 0.00 in0.0 mm
04:54 PM 47.6°F8.7°C 24.5°F-4.2°C 40% 4.8 mph NW7.7 kmh NW 20.4 mph32.8 kmh 30.21 in1023.0 mb 0.00 in0.0 mm 0.00 in0.0 mm 0.00 in0.0 mm
04:53 PM 47.7°F8.7°C 24.6°F-4.1°C 40% 6.4 mph NNW10.3 kmh NNW 20.4 mph32.8 kmh 30.21 in1023.0 mb 0.00 in0.0 mm 0.00 in0.0 mm 0.00 in0.0 mm
04:52 PM 47.7°F8.7°C 24.6°F-4.1°C 40% 9.9 mph NW15.9 kmh NW 20.4 mph32.8 kmh 30.21 in1023.0 mb 0.00 in0.0 mm 0.00 in0.0 mm 0.00 in0.0 mm
04:50 PM 47.7°F8.7°C 24.6°F-4.1°C 40% 6.4 mph N10.3 kmh N 20.4 mph32.8 kmh 30.21 in1023.0 mb 0.00 in0.0 mm 0.00 in0.0 mm 0.00 in0.0 mm
04:49 PM 47.7°F8.7°C 24.6°F-4.1°C 40% 9.7 mph NNW15.6 kmh NNW 18.5 mph29.8 kmh 30.21 in1023.0 mb 0.00 in0.0 mm 0.00 in0.0 mm 0.00 in0.0 mm
04:47 PM 47.9°F8.8°C 24.8°F-4.0°C 40% 6.4 mph NNW10.3 kmh NNW 18.5 mph29.8 kmh 30.21 in1023.0 mb 0.00 in0.0 mm 0.00 in0.0 mm 0.00 in0.0 mm
04:46 PM 47.9°F8.8°C 24.8°F-4.0°C 40% 9.7 mph NNW15.6 kmh NNW 18.5 mph29.8 kmh 30.21 in1023.0 mb 0.00 in0.0 mm 0.00 in0.0 mm 0.00 in0.0 mm
04:45 PM 47.9°F8.8°C 24.8°F-4.0°C 40% 7.0 mph NNW11.3 kmh NNW 18.5 mph29.8 kmh 30.21 in1023.0 mb 0.00 in0.0 mm 0.00 in0.0 mm 0.00 in0.0 mm
04:44 PM 47.9°F8.8°C 24.8°F-4.0°C 40% 9.7 mph NNW15.6 kmh NNW 13.7 mph22.0 kmh 30.21 in1023.0 mb 0.00 in0.0 mm 0.00 in0.0 mm 0.00 in0.0 mm
04:43 PM 48.1°F8.9°C 24.9°F-3.9°C 40% 4.8 mph NNW7.7 kmh NNW 13.7 mph22.0 kmh 30.21 in1023.0 mb 0.00 in0.0 mm 0.00 in0.0 mm 0.00 in0.0 mm
04:41 PM 48.1°F8.9°C 24.9°F-3.9°C 40% 9.9 mph NW15.9 kmh NW 15.3 mph24.6 kmh 30.21 in1023.0 mb 0.00 in0.0 mm 0.00 in0.0 mm 0.00 in0.0 mm
04:39 PM 48.1°F8.9°C 24.9°F-3.9°C 40% 9.9 mph NW15.9 kmh NW 15.3 mph24.6 kmh 30.21 in1023.0 mb 0.00 in0.0 mm 0.00 in0.0 mm 0.00 in0.0 mm
04:38 PM 48.3°F9.1°C 25.1°F-3.8°C 40% 12.1 mph NNW19.5 kmh NNW 15.3 mph24.6 kmh 30.21 in1023.0 mb 0.00 in0.0 mm 0.00 in0.0 mm 0.00 in0.0 mm
04:36 PM 48.3°F9.1°C 25.1°F-3.8°C 40% 7.0 mph NNW11.3 kmh NNW 15.3 mph24.6 kmh 30.21 in1023.0 mb 0.00 in0.0 mm 0.00 in0.0 mm 0.00 in0.0 mm
04:35 PM 48.3°F9.1°C 25.1°F-3.8°C 40% 6.4 mph NW10.3 kmh NW 15.3 mph24.6 kmh 30.21 in1023.0 mb 0.00 in0.0 mm 0.00 in0.0 mm 0.00 in0.0 mm
04:33 PM 48.5°F9.2°C 25.3°F-3.7°C 40% 12.6 mph W20.3 kmh W 14.2 mph22.9 kmh 30.21 in1023.0 mb 0.00 in0.0 mm 0.00 in0.0 mm 0.00 in0.0 mm
04:32 PM 48.5°F9.2°C 25.3°F-3.7°C 40% 5.4 mph NNW8.7 kmh NNW 14.2 mph22.9 kmh 30.21 in1023.0 mb 0.00 in0.0 mm 0.00 in0.0 mm 0.00 in0.0 mm
04:31 PM 48.5°F9.2°C 25.3°F-3.7°C 40% 5.4 mph N8.7 kmh N 14.2 mph22.9 kmh 30.21 in1023.0 mb 0.00 in0.0 mm 0.00 in0.0 mm 0.00 in0.0 mm
04:29 PM 48.5°F9.2°C 25.3°F-3.7°C 40% 7.5 mph N12.1 kmh N 12.1 mph19.5 kmh 30.21 in1023.0 mb 0.00 in0.0 mm 0.00 in0.0 mm 0.00 in0.0 mm
04:28 PM 48.6°F9.2°C 25.4°F-3.7°C 40% 7.5 mph NW12.1 kmh NW 12.1 mph19.5 kmh 30.21 in1023.0 mb 0.00 in0.0 mm 0.00 in0.0 mm 0.00 in0.0 mm
04:26 PM 48.6°F9.2°C 25.4°F-3.7°C 40% 9.9 mph NW15.9 kmh NW 12.1 mph19.5 kmh 30.21 in1023.0 mb 0.00 in0.0 mm 0.00 in0.0 mm 0.00 in0.0 mm
04:25 PM 48.6°F9.2°C 25.4°F-3.7°C 40% 7.0 mph WNW11.3 kmh WNW 10.5 mph16.9 kmh 30.21 in1023.0 mb 0.00 in0.0 mm 0.00 in0.0 mm 0.00 in0.0 mm
04:24 PM 48.8°F9.3°C 25.6°F-3.6°C 40% 7.0 mph NNE11.3 kmh NNE 10.5 mph16.9 kmh 30.21 in1023.0 mb 0.00 in0.0 mm 0.00 in0.0 mm 0.00 in0.0 mm
04:22 PM 48.8°F9.3°C 25.6°F-3.6°C 40% 4.8 mph WNW7.7 kmh WNW 10.5 mph16.9 kmh 30.21 in1023.0 mb 0.00 in0.0 mm 0.00 in0.0 mm 0.00 in0.0 mm
04:21 PM 48.8°F9.3°C 25.6°F-3.6°C 40% 4.8 mph NNW7.7 kmh NNW 10.5 mph16.9 kmh 30.21 in1023.0 mb 0.00 in0.0 mm 0.00 in0.0 mm 0.00 in0.0 mm
04:20 PM 49.0°F9.4°C 25.8°F-3.4°C 40% 5.9 mph W9.5 kmh W 12.6 mph20.3 kmh 30.21 in1023.0 mb 0.00 in0.0 mm 0.00 in0.0 mm 0.00 in0.0 mm
04:18 PM 49.0°F9.4°C 25.8°F-3.4°C 40% 9.1 mph NW14.6 kmh NW 13.7 mph22.0 kmh 30.21 in1023.0 mb 0.00 in0.0 mm 0.00 in0.0 mm 0.00 in0.0 mm
04:16 PM 49.0°F9.4°C 25.8°F-3.4°C 40% 7.5 mph NW12.1 kmh NW 13.7 mph22.0 kmh 30.21 in1023.0 mb 0.00 in0.0 mm 0.00 in0.0 mm 0.00 in0.0 mm
04:15 PM 49.2°F9.6°C 25.9°F-3.4°C 40% 6.4 mph NW10.3 kmh NW 13.7 mph22.0 kmh 30.21 in1023.0 mb 0.00 in0.0 mm 0.00 in0.0 mm 0.00 in0.0 mm
04:14 PM 49.2°F9.6°C 25.9°F-3.4°C 40% 7.5 mph NNW12.1 kmh NNW 13.7 mph22.0 kmh 30.21 in1023.0 mb 0.00 in0.0 mm 0.00 in0.0 mm 0.00 in0.0 mm
04:13 PM 49.2°F9.6°C 25.9°F-3.4°C 40% 12.6 mph NNW20.3 kmh NNW 13.7 mph22.0 kmh 30.21 in1023.0 mb 0.00 in0.0 mm 0.00 in0.0 mm 0.00 in0.0 mm
04:12 PM 49.2°F9.6°C 25.9°F-3.4°C 40% 7.5 mph NW12.1 kmh NW 13.2 mph21.2 kmh 30.21 in1023.0 mb 0.00 in0.0 mm 0.00 in0.0 mm 0.00 in0.0 mm
04:11 PM 49.4°F9.7°C 26.1°F-3.3°C 40% 12.1 mph NW19.5 kmh NW 13.2 mph21.2 kmh 30.18 in1022.0 mb 0.00 in0.0 mm 0.00 in0.0 mm 0.00 in0.0 mm
04:09 PM 49.4°F9.7°C 26.1°F-3.3°C 40% 9.7 mph WNW15.6 kmh WNW 12.6 mph20.3 kmh 30.18 in1022.0 mb 0.00 in0.0 mm 0.00 in0.0 mm 0.00 in0.0 mm
04:08 PM 49.4°F9.7°C 26.1°F-3.3°C 40% 4.8 mph NNW7.7 kmh NNW 12.6 mph20.3 kmh 30.18 in1022.0 mb 0.00 in0.0 mm 0.00 in0.0 mm 0.00 in0.0 mm
04:07 PM 49.4°F9.7°C 26.1°F-3.3°C 40% 4.3 mph NNW6.9 kmh NNW 12.6 mph20.3 kmh 30.18 in1022.0 mb 0.00 in0.0 mm 0.00 in0.0 mm 0.00 in0.0 mm
04:05 PM 49.4°F9.7°C 26.1°F-3.3°C 40% 4.3 mph NW6.9 kmh NW 13.2 mph21.2 kmh 30.18 in1022.0 mb 0.00 in0.0 mm 0.00 in0.0 mm 0.00 in0.0 mm
04:04 PM 49.4°F9.7°C 26.1°F-3.3°C 40% 9.9 mph NNW15.9 kmh NNW 13.2 mph21.2 kmh 30.18 in1022.0 mb 0.00 in0.0 mm 0.00 in0.0 mm 0.00 in0.0 mm
04:02 PM 49.5°F9.7°C 26.2°F-3.2°C 40% 7.5 mph NW12.1 kmh NW 13.2 mph21.2 kmh 30.18 in1022.0 mb 0.00 in0.0 mm 0.00 in0.0 mm 0.00 in0.0 mm
04:01 PM 49.5°F9.7°C 26.2°F-3.2°C 40% 7.5 mph NNW12.1 kmh NNW 15.8 mph25.4 kmh 30.18 in1022.0 mb 0.00 in0.0 mm 0.00 in0.0 mm 0.00 in0.0 mm
03:59 PM 49.4°F9.7°C 26.1°F-3.3°C 40% 7.5 mph NNW12.1 kmh NNW 15.8 mph25.4 kmh 30.18 in1022.0 mb 0.00 in0.0 mm 0.00 in0.0 mm 0.00 in0.0 mm
03:58 PM 49.4°F9.7°C 26.1°F-3.3°C 40% 13.2 mph NW21.2 kmh NW 15.8 mph25.4 kmh 30.18 in1022.0 mb 0.00 in0.0 mm 0.00 in0.0 mm 0.00 in0.0 mm
03:57 PM 49.4°F9.7°C 26.1°F-3.3°C 40% 6.4 mph NNW10.3 kmh NNW 15.8 mph25.4 kmh 30.18 in1022.0 mb 0.00 in0.0 mm 0.00 in0.0 mm 0.00 in0.0 mm
03:56 PM 49.4°F9.7°C 26.1°F-3.3°C 40% 7.0 mph SW11.3 kmh SW 15.8 mph25.4 kmh 30.18 in1022.0 mb 0.00 in0.0 mm 0.00 in0.0 mm 0.00 in0.0 mm
03:55 PM 49.4°F9.7°C 26.1°F-3.3°C 40% 15.8 mph N25.4 kmh N 15.8 mph25.4 kmh 30.18 in1022.0 mb 0.00 in0.0 mm 0.00 in0.0 mm 0.00 in0.0 mm
03:54 PM 49.4°F9.7°C 26.1°F-3.3°C 40% 9.7 mph NNW15.6 kmh NNW 9.9 mph15.9 kmh 30.18 in1022.0 mb 0.00 in0.0 mm 0.00 in0.0 mm 0.00 in0.0 mm
03:52 PM 49.4°F9.7°C 26.1°F-3.3°C 40% 7.0 mph NW11.3 kmh NW 9.1 mph14.6 kmh 30.18 in1022.0 mb 0.00 in0.0 mm 0.00 in0.0 mm 0.00 in0.0 mm
03:51 PM 49.4°F9.7°C 26.1°F-3.3°C 40% 3.8 mph NW6.1 kmh NW 6.4 mph10.3 kmh 30.18 in1022.0 mb 0.00 in0.0 mm 0.00 in0.0 mm 0.00 in0.0 mm
03:50 PM 49.4°F9.7°C 26.1°F-3.3°C 40% 3.2 mph NNW5.1 kmh NNW 6.4 mph10.3 kmh 30.18 in1022.0 mb 0.00 in0.0 mm 0.00 in0.0 mm 0.00 in0.0 mm
03:48 PM 49.4°F9.7°C 26.1°F-3.3°C 40% 4.3 mph NW6.9 kmh NW 9.1 mph14.6 kmh 30.18 in1022.0 mb 0.00 in0.0 mm 0.00 in0.0 mm 0.00 in0.0 mm
03:47 PM 49.4°F9.7°C 26.1°F-3.3°C 40% 3.2 mph NNW5.1 kmh NNW 9.1 mph14.6 kmh 30.18 in1022.0 mb 0.00 in0.0 mm 0.00 in0.0 mm 0.00 in0.0 mm
03:45 PM 49.4°F9.7°C 26.1°F-3.3°C 40% 3.8 mph NNW6.1 kmh NNW 9.7 mph15.6 kmh 30.18 in1022.0 mb 0.00 in0.0 mm 0.00 in0.0 mm 0.00 in0.0 mm
03:44 PM 49.5°F9.7°C 26.2°F-3.2°C 40% 5.9 mph NNW9.5 kmh NNW 10.5 mph16.9 kmh 30.18 in1022.0 mb 0.00 in0.0 mm 0.00 in0.0 mm 0.00 in0.0 mm
03:43 PM 49.5°F9.7°C 26.2°F-3.2°C 40% 3.2 mph NW5.1 kmh NW 10.5 mph16.9 kmh 30.18 in1022.0 mb 0.00 in0.0 mm 0.00 in0.0 mm 0.00 in0.0 mm
03:41 PM 49.5°F9.7°C 26.2°F-3.2°C 40% 3.8 mph NNW6.1 kmh NNW 10.5 mph16.9 kmh 30.18 in1022.0 mb 0.00 in0.0 mm 0.00 in0.0 mm 0.00 in0.0 mm
03:40 PM 49.5°F9.7°C 26.2°F-3.2°C 40% 6.4 mph NNW10.3 kmh NNW 10.5 mph16.9 kmh 30.18 in1022.0 mb 0.00 in0.0 mm 0.00 in0.0 mm 0.00 in0.0 mm
03:38 PM 49.5°F9.7°C 26.2°F-3.2°C 40% 9.7 mph N15.6 kmh N 10.5 mph16.9 kmh 30.18 in1022.0 mb 0.00 in0.0 mm 0.00 in0.0 mm 0.00 in0.0 mm
03:37 PM 49.5°F9.7°C 26.2°F-3.2°C 40% 3.8 mph NNW6.1 kmh NNW 9.7 mph15.6 kmh 30.18 in1022.0 mb 0.00 in0.0 mm 0.00 in0.0 mm 0.00 in0.0 mm
03:36 PM 49.7°F9.8°C 26.4°F-3.1°C 40% 4.3 mph NNW6.9 kmh NNW 9.7 mph15.6 kmh 30.18 in1022.0 mb 0.00 in0.0 mm 0.00 in0.0 mm 0.00 in0.0 mm
03:35 PM 49.7°F9.8°C 26.4°F-3.1°C 40% 6.4 mph N10.3 kmh N 10.5 mph16.9 kmh 30.18 in1022.0 mb 0.00 in0.0 mm 0.00 in0.0 mm 0.00 in0.0 mm
03:34 PM 49.7°F9.8°C 26.4°F-3.1°C 40% 9.7 mph NNW15.6 kmh NNW 10.5 mph16.9 kmh 30.18 in1022.0 mb 0.00 in0.0 mm 0.00 in0.0 mm 0.00 in0.0 mm
03:33 PM 49.7°F9.8°C 26.4°F-3.1°C 40% 6.4 mph NW10.3 kmh NW 10.5 mph16.9 kmh 30.18 in1022.0 mb 0.00 in0.0 mm 0.00 in0.0 mm 0.00 in0.0 mm
03:31 PM 49.7°F9.8°C 26.4°F-3.1°C 40% 6.4 mph NNW10.3 kmh NNW 10.5 mph16.9 kmh 30.18 in1022.0 mb 0.00 in0.0 mm 0.00 in0.0 mm 0.00 in0.0 mm
03:30 PM 49.7°F9.8°C 26.4°F-3.1°C 40% 3.8 mph N6.1 kmh N 12.6 mph20.3 kmh 30.18 in1022.0 mb 0.00 in0.0 mm 0.00 in0.0 mm 0.00 in0.0 mm
03:29 PM 49.7°F9.8°C 26.4°F-3.1°C 40% 6.4 mph NNW10.3 kmh NNW 12.6 mph20.3 kmh 30.18 in1022.0 mb 0.00 in0.0 mm 0.00 in0.0 mm 0.00 in0.0 mm
03:28 PM 49.7°F9.8°C 26.4°F-3.1°C 40% 9.7 mph NW15.6 kmh NW 12.6 mph20.3 kmh 30.18 in1022.0 mb 0.00 in0.0 mm 0.00 in0.0 mm 0.00 in0.0 mm
03:27 PM 49.9°F9.9°C 26.6°F-3.0°C 40% 5.9 mph NNW9.5 kmh NNW 12.6 mph20.3 kmh 30.18 in1022.0 mb 0.00 in0.0 mm 0.00 in0.0 mm 0.00 in0.0 mm
03:26 PM 49.9°F9.9°C 26.6°F-3.0°C 40% 9.7 mph NNW15.6 kmh NNW 12.6 mph20.3 kmh 30.18 in1022.0 mb 0.00 in0.0 mm 0.00 in0.0 mm 0.00 in0.0 mm
03:24 PM 49.9°F9.9°C 26.6°F-3.0°C 40% 7.0 mph N11.3 kmh N 12.6 mph20.3 kmh 30.18 in1022.0 mb 0.00 in0.0 mm 0.00 in0.0 mm 0.00 in0.0 mm
03:23 PM 49.9°F9.9°C 26.6°F-3.0°C 40% 9.9 mph N15.9 kmh N 9.9 mph15.9 kmh 30.18 in1022.0 mb 0.00 in0.0 mm 0.00 in0.0 mm 0.00 in0.0 mm
03:22 PM 49.9°F9.9°C 26.6°F-3.0°C 40% 6.4 mph N10.3 kmh N 9.9 mph15.9 kmh 30.18 in1022.0 mb 0.00 in0.0 mm 0.00 in0.0 mm 0.00 in0.0 mm
03:21 PM 49.9°F9.9°C 26.6°F-3.0°C 40% 3.8 mph NNW6.1 kmh NNW 9.9 mph15.9 kmh 30.18 in1022.0 mb 0.00 in0.0 mm 0.00 in0.0 mm 0.00 in0.0 mm
03:19 PM 49.9°F9.9°C 26.6°F-3.0°C 40% 3.2 mph WNW5.1 kmh WNW 9.9 mph15.9 kmh 30.18 in1022.0 mb 0.00 in0.0 mm 0.00 in0.0 mm 0.00 in0.0 mm
03:18 PM 49.9°F9.9°C 26.6°F-3.0°C 40% 8.6 mph NW13.8 kmh NW 9.9 mph15.9 kmh 30.18 in1022.0 mb 0.00 in0.0 mm 0.00 in0.0 mm 0.00 in0.0 mm
03:17 PM 49.9°F9.9°C 26.6°F-3.0°C 40% 4.8 mph NNW7.7 kmh NNW 12.1 mph19.5 kmh 30.18 in1022.0 mb 0.00 in0.0 mm 0.00 in0.0 mm 0.00 in0.0 mm
03:15 PM 50.1°F10.1°C 26.7°F-2.9°C 40% 3.8 mph NNW6.1 kmh NNW 12.1 mph19.5 kmh 30.18 in1022.0 mb 0.00 in0.0 mm 0.00 in0.0 mm 0.00 in0.0 mm
03:13 PM 50.1°F10.1°C 26.7°F-2.9°C 40% 9.1 mph NNE14.6 kmh NNE 12.1 mph19.5 kmh 30.18 in1022.0 mb 0.00 in0.0 mm 0.00 in0.0 mm 0.00 in0.0 mm
03:12 PM 49.9°F9.9°C 26.6°F-3.0°C 40% 3.8 mph WNW6.1 kmh WNW 15.3 mph24.6 kmh 30.18 in1022.0 mb 0.00 in0.0 mm 0.00 in0.0 mm 0.00 in0.0 mm
03:11 PM 49.9°F9.9°C 26.6°F-3.0°C 40% 7.0 mph NNW11.3 kmh NNW 15.3 mph24.6 kmh 30.15 in1021.0 mb 0.00 in0.0 mm 0.00 in0.0 mm 0.00 in0.0 mm
03:10 PM 49.9°F9.9°C 26.6°F-3.0°C 40% 7.0 mph WNW11.3 kmh WNW 15.3 mph24.6 kmh 30.15 in1021.0 mb 0.00 in0.0 mm 0.00 in0.0 mm 0.00 in0.0 mm
03:08 PM 49.9°F9.9°C 26.6°F-3.0°C 40% 4.8 mph NNW7.7 kmh NNW 15.3 mph24.6 kmh 30.15 in1021.0 mb 0.00 in0.0 mm 0.00 in0.0 mm 0.00 in0.0 mm
03:06 PM 49.9°F9.9°C 26.6°F-3.0°C 40% 15.3 mph NNW24.6 kmh NNW 15.3 mph24.6 kmh 30.15 in1021.0 mb 0.00 in0.0 mm 0.00 in0.0 mm 0.00 in0.0 mm
03:05 PM 49.9°F9.9°C 26.6°F-3.0°C 40% 9.9 mph N15.9 kmh N 14.8 mph23.8 kmh 30.15 in1021.0 mb 0.00 in0.0 mm 0.00 in0.0 mm 0.00 in0.0 mm
03:04 PM 49.9°F9.9°C 26.6°F-3.0°C 40% 12.6 mph NNW20.3 kmh NNW 15.8 mph25.4 kmh 30.15 in1021.0 mb 0.00 in0.0 mm 0.00 in0.0 mm 0.00 in0.0 mm
03:03 PM 49.9°F9.9°C 26.6°F-3.0°C 40% 7.0 mph N11.3 kmh N 15.8 mph25.4 kmh 30.15 in1021.0 mb 0.00 in0.0 mm 0.00 in0.0 mm 0.00 in0.0 mm
03:01 PM 50.1°F10.1°C 26.7°F-2.9°C 40% 9.7 mph NNW15.6 kmh NNW 15.8 mph25.4 kmh 30.15 in1021.0 mb 0.00 in0.0 mm 0.00 in0.0 mm 0.00 in0.0 mm
03:00 PM 50.1°F10.1°C 26.7°F-2.9°C 40% 7.5 mph N12.1 kmh N 15.8 mph25.4 kmh 30.15 in1021.0 mb 0.00 in0.0 mm 0.00 in0.0 mm 0.00 in0.0 mm
02:58 PM 50.1°F10.1°C 26.7°F-2.9°C 40% 9.9 mph NW15.9 kmh NW 15.8 mph25.4 kmh 30.15 in1021.0 mb 0.00 in0.0 mm 0.00 in0.0 mm 0.00 in0.0 mm
02:57 PM 50.3°F10.2°C 26.9°F-2.8°C 40% 15.8 mph W25.4 kmh W 15.8 mph25.4 kmh 30.15 in1021.0 mb 0.00 in0.0 mm 0.00 in0.0 mm 0.00 in0.0 mm
02:55 PM 50.3°F10.2°C 26.9°F-2.8°C 40% 9.1 mph NNW14.6 kmh NNW 15.3 mph24.6 kmh 30.15 in1021.0 mb 0.00 in0.0 mm 0.00 in0.0 mm 0.00 in0.0 mm
02:54 PM 50.3°F10.2°C 26.9°F-2.8°C 40% 5.9 mph SW9.5 kmh SW 9.9 mph15.9 kmh 30.15 in1021.0 mb 0.00 in0.0 mm 0.00 in0.0 mm 0.00 in0.0 mm
02:53 PM 50.3°F10.2°C 26.9°F-2.8°C 40% 4.8 mph W7.7 kmh W 9.9 mph15.9 kmh 30.15 in1021.0 mb 0.00 in0.0 mm 0.00 in0.0 mm 0.00 in0.0 mm
02:51 PM 50.4°F10.2°C 27.0°F-2.8°C 40% 6.4 mph WNW10.3 kmh WNW 9.9 mph15.9 kmh 30.15 in1021.0 mb 0.00 in0.0 mm 0.00 in0.0 mm 0.00 in0.0 mm
02:50 PM 50.4°F10.2°C 27.0°F-2.8°C 40% 3.8 mph WSW6.1 kmh WSW 9.9 mph15.9 kmh 30.15 in1021.0 mb 0.00 in0.0 mm 0.00 in0.0 mm 0.00 in0.0 mm
02:48 PM 50.4°F10.2°C 27.0°F-2.8°C 40% 5.9 mph NW9.5 kmh NW 15.3 mph24.6 kmh 30.15 in1021.0 mb 0.00 in0.0 mm 0.00 in0.0 mm 0.00 in0.0 mm
02:47 PM 50.4°F10.2°C 27.0°F-2.8°C 40% 7.5 mph NNW12.1 kmh NNW 15.3 mph24.6 kmh 30.15 in1021.0 mb 0.00 in0.0 mm 0.00 in0.0 mm 0.00 in0.0 mm
02:45 PM 50.4°F10.2°C 27.0°F-2.8°C 40% 4.8 mph W7.7 kmh W 15.3 mph24.6 kmh 30.15 in1021.0 mb 0.00 in0.0 mm 0.00 in0.0 mm 0.00 in0.0 mm
02:44 PM 50.6°F10.3°C 27.2°F-2.7°C 40% 4.8 mph NW7.7 kmh NW 15.3 mph24.6 kmh 30.15 in1021.0 mb 0.00 in0.0 mm 0.00 in0.0 mm 0.00 in0.0 mm
02:43 PM 50.6°F10.3°C 27.2°F-2.7°C 40% 6.4 mph NW10.3 kmh NW 15.3 mph24.6 kmh 30.15 in1021.0 mb 0.00 in0.0 mm 0.00 in0.0 mm 0.00 in0.0 mm
02:42 PM 50.8°F10.4°C 26.8°F-2.9°C 39% 7.0 mph N11.3 kmh N 15.3 mph24.6 kmh 30.12 in1020.0 mb 0.00 in0.0 mm 0.00 in0.0 mm 0.00 in0.0 mm
02:40 PM 51.0°F10.6°C 26.9°F-2.8°C 39% 3.8 mph NW6.1 kmh NW 14.8 mph23.8 kmh 30.12 in1020.0 mb 0.00 in0.0 mm 0.00 in0.0 mm 0.00 in0.0 mm
02:39 PM 51.0°F10.6°C 26.9°F-2.8°C 39% 7.0 mph N11.3 kmh N 14.8 mph23.8 kmh 30.12 in1020.0 mb 0.00 in0.0 mm 0.00 in0.0 mm 0.00 in0.0 mm
02:37 PM 51.2°F10.7°C 27.1°F-2.7°C 39% 6.4 mph NNW10.3 kmh NNW 13.2 mph21.2 kmh 30.12 in1020.0 mb 0.00 in0.0 mm 0.00 in0.0 mm 0.00 in0.0 mm
02:36 PM 51.3°F10.7°C 27.2°F-2.7°C 39% 6.4 mph NNE10.3 kmh NNE 12.1 mph19.5 kmh 30.12 in1020.0 mb 0.00 in0.0 mm 0.00 in0.0 mm 0.00 in0.0 mm
02:35 PM 51.3°F10.7°C 27.2°F-2.7°C 39% 6.4 mph NW10.3 kmh NW 12.1 mph19.5 kmh 30.12 in1020.0 mb 0.00 in0.0 mm 0.00 in0.0 mm 0.00 in0.0 mm
02:34 PM 51.5°F10.8°C 27.4°F-2.6°C 39% 7.0 mph NNW11.3 kmh NNW 12.1 mph19.5 kmh 30.12 in1020.0 mb 0.00 in0.0 mm 0.00 in0.0 mm 0.00 in0.0 mm
02:33 PM 51.5°F10.8°C 27.4°F-2.6°C 39% 9.1 mph NNE14.6 kmh NNE 10.5 mph16.9 kmh 30.12 in1020.0 mb 0.00 in0.0 mm 0.00 in0.0 mm 0.00 in0.0 mm
02:32 PM 51.7°F10.9°C 27.6°F-2.4°C 39% 9.1 mph NW14.6 kmh NW 10.5 mph16.9 kmh 30.12 in1020.0 mb 0.00 in0.0 mm 0.00 in0.0 mm 0.00 in0.0 mm
02:30 PM 51.7°F10.9°C 27.6°F-2.4°C 39% 6.4 mph NNE10.3 kmh NNE 10.5 mph16.9 kmh 30.12 in1020.0 mb 0.00 in0.0 mm 0.00 in0.0 mm 0.00 in0.0 mm
02:29 PM 51.7°F10.9°C 27.6°F-2.4°C 39% 4.3 mph NNW6.9 kmh NNW 10.5 mph16.9 kmh 30.12 in1020.0 mb 0.00 in0.0 mm 0.00 in0.0 mm 0.00 in0.0 mm
02:28 PM 51.5°F10.8°C 27.4°F-2.6°C 39% 7.0 mph N11.3 kmh N 10.5 mph16.9 kmh 30.12 in1020.0 mb 0.00 in0.0 mm 0.00 in0.0 mm 0.00 in0.0 mm
02:27 PM 51.3°F10.7°C 27.2°F-2.7°C 39% 5.9 mph N9.5 kmh N 10.5 mph16.9 kmh 30.15 in1021.0 mb 0.00 in0.0 mm 0.00 in0.0 mm 0.00 in0.0 mm
02:26 PM 51.2°F10.7°C 27.1°F-2.7°C 39% 6.4 mph NNW10.3 kmh NNW 10.5 mph16.9 kmh 30.15 in1021.0 mb 0.00 in0.0 mm 0.00 in0.0 mm 0.00 in0.0 mm
02:25 PM 51.2°F10.7°C 27.1°F-2.7°C 39% 9.7 mph NNW15.6 kmh NNW 14.8 mph23.8 kmh 30.15 in1021.0 mb 0.00 in0.0 mm 0.00 in0.0 mm 0.00 in0.0 mm
02:23 PM 50.8°F10.4°C 26.8°F-2.9°C 39% 7.0 mph NW11.3 kmh NW 14.8 mph23.8 kmh 30.15 in1021.0 mb 0.00 in0.0 mm 0.00 in0.0 mm 0.00 in0.0 mm
02:22 PM 50.8°F10.4°C 26.8°F-2.9°C 39% 6.4 mph NW10.3 kmh NW 14.8 mph23.8 kmh 30.15 in1021.0 mb 0.00 in0.0 mm 0.00 in0.0 mm 0.00 in0.0 mm
02:21 PM 50.8°F10.4°C 26.8°F-2.9°C 39% 4.8 mph N7.7 kmh N 14.8 mph23.8 kmh 30.15 in1021.0 mb 0.00 in0.0 mm 0.00 in0.0 mm 0.00 in0.0 mm
02:20 PM 50.8°F10.4°C 26.8°F-2.9°C 39% 5.9 mph NW9.5 kmh NW 14.8 mph23.8 kmh 30.15 in1021.0 mb 0.00 in0.0 mm 0.00 in0.0 mm 0.00 in0.0 mm
02:19 PM 51.0°F10.6°C 26.9°F-2.8°C 39% 5.4 mph NNW8.7 kmh NNW 14.8 mph23.8 kmh 30.15 in1021.0 mb 0.00 in0.0 mm 0.00 in0.0 mm 0.00 in0.0 mm
02:18 PM 51.0°F10.6°C 26.9°F-2.8°C 39% 9.1 mph WSW14.6 kmh WSW 14.8 mph23.8 kmh 30.15 in1021.0 mb 0.00 in0.0 mm 0.00 in0.0 mm 0.00 in0.0 mm
02:17 PM 51.2°F10.7°C 27.1°F-2.7°C 39% 9.9 mph NW15.9 kmh NW 9.9 mph15.9 kmh 30.15 in1021.0 mb 0.00 in0.0 mm 0.00 in0.0 mm 0.00 in0.0 mm
02:16 PM 51.2°F10.7°C 27.1°F-2.7°C 39% 5.9 mph NW9.5 kmh NW 13.2 mph21.2 kmh 30.15 in1021.0 mb 0.00 in0.0 mm 0.00 in0.0 mm 0.00 in0.0 mm
02:15 PM 51.2°F10.7°C 27.1°F-2.7°C 39% 9.9 mph N15.9 kmh N 13.2 mph21.2 kmh 30.15 in1021.0 mb 0.00 in0.0 mm 0.00 in0.0 mm 0.00 in0.0 mm
02:14 PM 51.0°F10.6°C 26.9°F-2.8°C 39% 4.8 mph NNW7.7 kmh NNW 13.2 mph21.2 kmh 30.15 in1021.0 mb 0.00 in0.0 mm 0.00 in0.0 mm 0.00 in0.0 mm
02:13 PM 51.0°F10.6°C 26.9°F-2.8°C 39% 7.5 mph W12.1 kmh W 13.2 mph21.2 kmh 30.15 in1021.0 mb 0.00 in0.0 mm 0.00 in0.0 mm 0.00 in0.0 mm
02:12 PM 51.0°F10.6°C 26.9°F-2.8°C 39% 4.8 mph NNW7.7 kmh NNW 13.2 mph21.2 kmh 30.15 in1021.0 mb 0.00 in0.0 mm 0.00 in0.0 mm 0.00 in0.0 mm
02:11 PM 50.8°F10.4°C 26.8°F-2.9°C 39% 7.0 mph NW11.3 kmh NW 13.2 mph21.2 kmh 30.15 in1021.0 mb 0.00 in0.0 mm 0.00 in0.0 mm 0.00 in0.0 mm
02:10 PM 50.8°F10.4°C 26.8°F-2.9°C 39% 7.0 mph NNW11.3 kmh NNW 13.2 mph21.2 kmh 30.15 in1021.0 mb 0.00 in0.0 mm 0.00 in0.0 mm 0.00 in0.0 mm
02:09 PM 50.8°F10.4°C 26.8°F-2.9°C 39% 7.0 mph NW11.3 kmh NW 13.2 mph21.2 kmh 30.15 in1021.0 mb 0.00 in0.0 mm 0.00 in0.0 mm 0.00 in0.0 mm
02:08 PM 51.0°F10.6°C 26.9°F-2.8°C 39% 6.4 mph NW10.3 kmh NW 14.8 mph23.8 kmh 30.15 in1021.0 mb 0.00 in0.0 mm 0.00 in0.0 mm 0.00 in0.0 mm
02:07 PM 51.0°F10.6°C 26.9°F-2.8°C 39% 9.1 mph NW14.6 kmh NW 14.8 mph23.8 kmh 30.15 in1021.0 mb 0.00 in0.0 mm 0.00 in0.0 mm 0.00 in0.0 mm
02:06 PM 51.0°F10.6°C 26.9°F-2.8°C 39% 7.0 mph W11.3 kmh W 14.8 mph23.8 kmh 30.15 in1021.0 mb 0.00 in0.0 mm 0.00 in0.0 mm 0.00 in0.0 mm
02:05 PM 51.0°F10.6°C 26.9°F-2.8°C 39% 4.3 mph NW6.9 kmh NW 14.8 mph23.8 kmh 30.15 in1021.0 mb 0.00 in0.0 mm 0.00 in0.0 mm 0.00 in0.0 mm
02:04 PM 51.0°F10.6°C 26.9°F-2.8°C 39% 7.0 mph NW11.3 kmh NW 14.8 mph23.8 kmh 30.15 in1021.0 mb 0.00 in0.0 mm 0.00 in0.0 mm 0.00 in0.0 mm
02:02 PM 51.2°F10.7°C 27.1°F-2.7°C 39% 7.5 mph NW12.1 kmh NW 14.8 mph23.8 kmh 30.15 in1021.0 mb 0.00 in0.0 mm 0.00 in0.0 mm 0.00 in0.0 mm
02:01 PM 51.2°F10.7°C 27.1°F-2.7°C 39% 6.4 mph NW10.3 kmh NW 14.8 mph23.8 kmh 30.15 in1021.0 mb 0.00 in0.0 mm 0.00 in0.0 mm 0.00 in0.0 mm
01:59 PM 51.2°F10.7°C 27.1°F-2.7°C 39% 9.7 mph NW15.6 kmh NW 12.1 mph19.5 kmh 30.15 in1021.0 mb 0.00 in0.0 mm 0.00 in0.0 mm 0.00 in0.0 mm
01:58 PM 51.2°F10.7°C 27.1°F-2.7°C 39% 6.4 mph NW10.3 kmh NW 12.6 mph20.3 kmh 30.15 in1021.0 mb 0.00 in0.0 mm 0.00 in0.0 mm 0.00 in0.0 mm
01:57 PM 51.2°F10.7°C 27.1°F-2.7°C 39% 9.9 mph NNW15.9 kmh NNW 14.8 mph23.8 kmh 30.15 in1021.0 mb 0.00 in0.0 mm 0.00 in0.0 mm 0.00 in0.0 mm
01:55 PM 51.0°F10.6°C 26.9°F-2.8°C 39% 7.5 mph NW12.1 kmh NW 14.8 mph23.8 kmh 30.15 in1021.0 mb 0.00 in0.0 mm 0.00 in0.0 mm 0.00 in0.0 mm
01:54 PM 51.2°F10.7°C 27.1°F-2.7°C 39% 4.3 mph N6.9 kmh N 14.8 mph23.8 kmh 30.15 in1021.0 mb 0.00 in0.0 mm 0.00 in0.0 mm 0.00 in0.0 mm
01:52 PM 51.2°F10.7°C 27.1°F-2.7°C 39% 10.5 mph W16.9 kmh W 14.8 mph23.8 kmh 30.15 in1021.0 mb 0.00 in0.0 mm 0.00 in0.0 mm 0.00 in0.0 mm
01:51 PM 51.2°F10.7°C 27.1°F-2.7°C 39% 12.6 mph NW20.3 kmh NW 14.8 mph23.8 kmh 30.15 in1021.0 mb 0.00 in0.0 mm 0.00 in0.0 mm 0.00 in0.0 mm
01:49 PM 51.0°F10.6°C 26.9°F-2.8°C 39% 7.5 mph 12.1 kmh 12.6 mph20.3 kmh 30.15 in1021.0 mb 0.00 in0.0 mm 0.00 in0.0 mm 0.00 in0.0 mm
01:48 PM 50.8°F10.4°C 26.8°F-2.9°C 39% 7.5 mph N12.1 kmh N 12.6 mph20.3 kmh 30.15 in1021.0 mb 0.00 in0.0 mm 0.00 in0.0 mm 0.00 in0.0 mm
01:46 PM 50.8°F10.4°C 26.8°F-2.9°C 39% 5.9 mph NNW9.5 kmh NNW 12.6 mph20.3 kmh 30.15 in1021.0 mb 0.00 in0.0 mm 0.00 in0.0 mm 0.00 in0.0 mm
01:45 PM 50.6°F10.3°C 27.2°F-2.7°C 40% 6.4 mph NW10.3 kmh NW 12.6 mph20.3 kmh 30.15 in1021.0 mb 0.00 in0.0 mm 0.00 in0.0 mm 0.00 in0.0 mm
01:44 PM 50.6°F10.3°C 27.2°F-2.7°C 40% 10.5 mph NNW16.9 kmh NNW 19.1 mph30.7 kmh 30.15 in1021.0 mb 0.00 in0.0 mm 0.00 in0.0 mm 0.00 in0.0 mm
01:42 PM 50.4°F10.2°C 27.0°F-2.8°C 40% 9.7 mph N15.6 kmh N 19.1 mph30.7 kmh 30.15 in1021.0 mb 0.00 in0.0 mm 0.00 in0.0 mm 0.00 in0.0 mm
01:41 PM 50.4°F10.2°C 27.0°F-2.8°C 40% 6.4 mph N10.3 kmh N 19.1 mph30.7 kmh 30.15 in1021.0 mb 0.00 in0.0 mm 0.00 in0.0 mm 0.00 in0.0 mm
01:40 PM 50.3°F10.2°C 26.9°F-2.8°C 40% 8.1 mph NW13.0 kmh NW 19.1 mph30.7 kmh 30.15 in1021.0 mb 0.00 in0.0 mm 0.00 in0.0 mm 0.00 in0.0 mm
01:38 PM 50.3°F10.2°C 26.9°F-2.8°C 40% 9.7 mph NNE15.6 kmh NNE 19.1 mph30.7 kmh 30.15 in1021.0 mb 0.00 in0.0 mm 0.00 in0.0 mm 0.00 in0.0 mm
01:37 PM 50.1°F10.1°C 26.7°F-2.9°C 40% 4.3 mph NNE6.9 kmh NNE 13.2 mph21.2 kmh 30.15 in1021.0 mb 0.00 in0.0 mm 0.00 in0.0 mm 0.00 in0.0 mm
01:36 PM 50.1°F10.1°C 26.7°F-2.9°C 40% 3.8 mph WNW6.1 kmh WNW 18.0 mph29.0 kmh 30.15 in1021.0 mb 0.00 in0.0 mm 0.00 in0.0 mm 0.00 in0.0 mm
01:35 PM 49.9°F9.9°C 26.6°F-3.0°C 40% 5.9 mph NW9.5 kmh NW 18.0 mph29.0 kmh 30.15 in1021.0 mb 0.00 in0.0 mm 0.00 in0.0 mm 0.00 in0.0 mm
01:34 PM 50.1°F10.1°C 26.7°F-2.9°C 40% 7.0 mph NW11.3 kmh NW 18.0 mph29.0 kmh 30.15 in1021.0 mb 0.00 in0.0 mm 0.00 in0.0 mm 0.00 in0.0 mm
01:33 PM 50.1°F10.1°C 26.7°F-2.9°C 40% 10.5 mph NNW16.9 kmh NNW 18.0 mph29.0 kmh 30.15 in1021.0 mb 0.00 in0.0 mm 0.00 in0.0 mm 0.00 in0.0 mm
01:31 PM 50.1°F10.1°C 26.7°F-2.9°C 40% 4.8 mph W7.7 kmh W 18.0 mph29.0 kmh 30.15 in1021.0 mb 0.00 in0.0 mm 0.00 in0.0 mm 0.00 in0.0 mm
01:30 PM 50.1°F10.1°C 26.7°F-2.9°C 40% 12.6 mph N20.3 kmh N 18.0 mph29.0 kmh 30.15 in1021.0 mb 0.00 in0.0 mm 0.00 in0.0 mm 0.00 in0.0 mm
01:28 PM 50.1°F10.1°C 26.7°F-2.9°C 40% 9.9 mph NNW15.9 kmh NNW 13.7 mph22.0 kmh 30.15 in1021.0 mb 0.00 in0.0 mm 0.00 in0.0 mm 0.00 in0.0 mm
01:27 PM 50.1°F10.1°C 26.7°F-2.9°C 40% 6.4 mph N10.3 kmh N 13.7 mph22.0 kmh 30.15 in1021.0 mb 0.00 in0.0 mm 0.00 in0.0 mm 0.00 in0.0 mm
01:26 PM 50.1°F10.1°C 26.7°F-2.9°C 40% 6.4 mph NW10.3 kmh NW 13.7 mph22.0 kmh 30.15 in1021.0 mb 0.00 in0.0 mm 0.00 in0.0 mm 0.00 in0.0 mm
01:25 PM 50.3°F10.2°C 26.9°F-2.8°C 40% 7.5 mph NW12.1 kmh NW 13.7 mph22.0 kmh 30.15 in1021.0 mb 0.00 in0.0 mm 0.00 in0.0 mm 0.00 in0.0 mm
01:23 PM 50.1°F10.1°C 26.7°F-2.9°C 40% 6.4 mph N10.3 kmh N 11.0 mph17.7 kmh 30.15 in1021.0 mb 0.00 in0.0 mm 0.00 in0.0 mm 0.00 in0.0 mm
01:22 PM 50.1°F10.1°C 26.7°F-2.9°C 40% 6.4 mph NNW10.3 kmh NNW 11.0 mph17.7 kmh 30.15 in1021.0 mb 0.00 in0.0 mm 0.00 in0.0 mm 0.00 in0.0 mm
01:21 PM 50.1°F10.1°C 26.7°F-2.9°C 40% 7.5 mph WNW12.1 kmh WNW 11.0 mph17.7 kmh 30.15 in1021.0 mb 0.00 in0.0 mm 0.00 in0.0 mm 0.00 in0.0 mm
01:20 PM 50.1°F10.1°C 26.7°F-2.9°C 40% 7.5 mph W12.1 kmh W 12.1 mph19.5 kmh 30.15 in1021.0 mb 0.00 in0.0 mm 0.00 in0.0 mm 0.00 in0.0 mm
01:19 PM 50.1°F10.1°C 26.7°F-2.9°C 40% 9.9 mph WSW15.9 kmh WSW 12.1 mph19.5 kmh 30.15 in1021.0 mb 0.00 in0.0 mm 0.00 in0.0 mm 0.00 in0.0 mm
01:18 PM 50.1°F10.1°C 26.7°F-2.9°C 40% 4.8 mph NW7.7 kmh NW 12.1 mph19.5 kmh 30.15 in1021.0 mb 0.00 in0.0 mm 0.00 in0.0 mm 0.00 in0.0 mm
01:16 PM 49.9°F9.9°C 26.6°F-3.0°C 40% 7.5 mph NNW12.1 kmh NNW 12.1 mph19.5 kmh 30.15 in1021.0 mb 0.00 in0.0 mm 0.00 in0.0 mm 0.00 in0.0 mm
01:15 PM 49.7°F9.8°C 26.4°F-3.1°C 40% 9.1 mph NNW14.6 kmh NNW 12.6 mph20.3 kmh 30.15 in1021.0 mb 0.00 in0.0 mm 0.00 in0.0 mm 0.00 in0.0 mm
01:14 PM 49.7°F9.8°C 26.4°F-3.1°C 40% 4.8 mph WSW7.7 kmh WSW 12.6 mph20.3 kmh 30.15 in1021.0 mb 0.00 in0.0 mm 0.00 in0.0 mm 0.00 in0.0 mm
01:13 PM 49.5°F9.7°C 26.2°F-3.2°C 40% 9.7 mph W15.6 kmh W 15.3 mph24.6 kmh 30.15 in1021.0 mb 0.00 in0.0 mm 0.00 in0.0 mm 0.00 in0.0 mm
01:12 PM 49.5°F9.7°C 26.2°F-3.2°C 40% 7.5 mph NW12.1 kmh NW 15.3 mph24.6 kmh 30.15 in1021.0 mb 0.00 in0.0 mm 0.00 in0.0 mm 0.00 in0.0 mm
01:11 PM 49.5°F9.7°C 26.2°F-3.2°C 40% 6.4 mph WNW10.3 kmh WNW 15.3 mph24.6 kmh 30.15 in1021.0 mb 0.00 in0.0 mm 0.00 in0.0 mm 0.00 in0.0 mm
01:10 PM 49.5°F9.7°C 26.2°F-3.2°C 40% 5.9 mph WSW9.5 kmh WSW 15.3 mph24.6 kmh 30.15 in1021.0 mb 0.00 in0.0 mm 0.00 in0.0 mm 0.00 in0.0 mm
01:09 PM 49.7°F9.8°C 26.4°F-3.1°C 40% 9.1 mph NW14.6 kmh NW 15.3 mph24.6 kmh 30.15 in1021.0 mb 0.00 in0.0 mm 0.00 in0.0 mm 0.00 in0.0 mm
01:08 PM 49.7°F9.8°C 26.4°F-3.1°C 40% 12.6 mph NNW20.3 kmh NNW 15.3 mph24.6 kmh 30.15 in1021.0 mb 0.00 in0.0 mm 0.00 in0.0 mm 0.00 in0.0 mm
01:07 PM 49.7°F9.8°C 26.4°F-3.1°C 40% 9.9 mph 15.9 kmh 15.3 mph24.6 kmh 30.15 in1021.0 mb 0.00 in0.0 mm 0.00 in0.0 mm 0.00 in0.0 mm
01:06 PM 49.7°F9.8°C 26.4°F-3.1°C 40% 15.3 mph WNW24.6 kmh WNW 15.3 mph24.6 kmh 30.15 in1021.0 mb 0.00 in0.0 mm 0.00 in0.0 mm 0.00 in0.0 mm
01:05 PM 49.7°F9.8°C 26.4°F-3.1°C 40% 6.4 mph NNW10.3 kmh NNW 15.3 mph24.6 kmh 30.15 in1021.0 mb 0.00 in0.0 mm 0.00 in0.0 mm 0.00 in0.0 mm
01:04 PM 49.5°F9.7°C 26.2°F-3.2°C 40% 11.0 mph NNW17.7 kmh NNW 15.3 mph24.6 kmh 30.15 in1021.0 mb 0.00 in0.0 mm 0.00 in0.0 mm 0.00 in0.0 mm
01:02 PM 49.5°F9.7°C 26.2°F-3.2°C 40% 4.3 mph NW6.9 kmh NW 11.0 mph17.7 kmh 30.15 in1021.0 mb 0.00 in0.0 mm 0.00 in0.0 mm 0.00 in0.0 mm
01:01 PM 49.5°F9.7°C 26.2°F-3.2°C 40% 7.0 mph NNW11.3 kmh NNW 11.0 mph17.7 kmh 30.15 in1021.0 mb 0.00 in0.0 mm 0.00 in0.0 mm 0.00 in0.0 mm
01:00 PM 49.5°F9.7°C 26.2°F-3.2°C 40% 10.5 mph NNW16.9 kmh NNW 12.1 mph19.5 kmh 30.15 in1021.0 mb 0.00 in0.0 mm 0.00 in0.0 mm 0.00 in0.0 mm
12:59 PM 49.5°F9.7°C 26.2°F-3.2°C 40% 5.9 mph WNW9.5 kmh WNW 12.1 mph19.5 kmh 30.15 in1021.0 mb 0.00 in0.0 mm 0.00 in0.0 mm 0.00 in0.0 mm
12:58 PM 49.4°F9.7°C 26.1°F-3.3°C 40% 9.7 mph WNW15.6 kmh WNW 12.1 mph19.5 kmh 30.15 in1021.0 mb 0.00 in0.0 mm 0.00 in0.0 mm 0.00 in0.0 mm
12:57 PM 49.4°F9.7°C 26.1°F-3.3°C 40% 7.5 mph NW12.1 kmh NW 12.1 mph19.5 kmh 30.15 in1021.0 mb 0.00 in0.0 mm 0.00 in0.0 mm 0.00 in0.0 mm
12:55 PM 49.4°F9.7°C 26.1°F-3.3°C 40% 5.4 mph N8.7 kmh N 14.8 mph23.8 kmh 30.18 in1022.0 mb 0.00 in0.0 mm 0.00 in0.0 mm 0.00 in0.0 mm
12:54 PM 49.2°F9.6°C 25.9°F-3.4°C 40% 7.0 mph NW11.3 kmh NW 14.8 mph23.8 kmh 30.18 in1022.0 mb 0.00 in0.0 mm 0.00 in0.0 mm 0.00 in0.0 mm
12:52 PM 49.2°F9.6°C 25.9°F-3.4°C 40% 6.4 mph NW10.3 kmh NW 14.8 mph23.8 kmh 30.18 in1022.0 mb 0.00 in0.0 mm 0.00 in0.0 mm 0.00 in0.0 mm
12:51 PM 49.2°F9.6°C 25.9°F-3.4°C 40% 7.5 mph NNW12.1 kmh NNW 14.8 mph23.8 kmh 30.18 in1022.0 mb 0.00 in0.0 mm 0.00 in0.0 mm 0.00 in0.0 mm
12:50 PM 49.2°F9.6°C 25.9°F-3.4°C 40% 6.4 mph NNW10.3 kmh NNW 18.5 mph29.8 kmh 30.18 in1022.0 mb 0.00 in0.0 mm 0.00 in0.0 mm 0.00 in0.0 mm
12:48 PM 49.2°F9.6°C 25.9°F-3.4°C 40% 6.4 mph NNW10.3 kmh NNW 18.5 mph29.8 kmh 30.18 in1022.0 mb 0.00 in0.0 mm 0.00 in0.0 mm 0.00 in0.0 mm
12:47 PM 49.2°F9.6°C 25.9°F-3.4°C 40% 5.9 mph NW9.5 kmh NW 18.5 mph29.8 kmh 30.18 in1022.0 mb 0.00 in0.0 mm 0.00 in0.0 mm 0.00 in0.0 mm
12:46 PM 49.2°F9.6°C 25.9°F-3.4°C 40% 9.7 mph NNW15.6 kmh NNW 18.5 mph29.8 kmh 30.18 in1022.0 mb 0.00 in0.0 mm 0.00 in0.0 mm 0.00 in0.0 mm
12:44 PM 49.2°F9.6°C 25.9°F-3.4°C 40% 9.9 mph NW15.9 kmh NW 18.5 mph29.8 kmh 30.18 in1022.0 mb 0.00 in0.0 mm 0.00 in0.0 mm 0.00 in0.0 mm
12:43 PM 49.2°F9.6°C 25.9°F-3.4°C 40% 13.2 mph NW21.2 kmh NW 13.2 mph21.2 kmh 30.18 in1022.0 mb 0.00 in0.0 mm 0.00 in0.0 mm 0.00 in0.0 mm
12:41 PM 49.4°F9.7°C 26.1°F-3.3°C 40% 7.0 mph NNW11.3 kmh NNW 12.1 mph19.5 kmh 30.18 in1022.0 mb 0.00 in0.0 mm 0.00 in0.0 mm 0.00 in0.0 mm
12:39 PM 49.4°F9.7°C 26.1°F-3.3°C 40% 6.4 mph NNW10.3 kmh NNW 14.2 mph22.9 kmh 30.18 in1022.0 mb 0.00 in0.0 mm 0.00 in0.0 mm 0.00 in0.0 mm
12:38 PM 49.5°F9.7°C 26.2°F-3.2°C 40% 6.4 mph NNE10.3 kmh NNE 14.8 mph23.8 kmh 30.18 in1022.0 mb 0.00 in0.0 mm 0.00 in0.0 mm 0.00 in0.0 mm
12:37 PM 49.5°F9.7°C 26.2°F-3.2°C 40% 4.8 mph NNW7.7 kmh NNW 14.8 mph23.8 kmh 30.18 in1022.0 mb 0.00 in0.0 mm 0.00 in0.0 mm 0.00 in0.0 mm
12:35 PM 49.5°F9.7°C 26.2°F-3.2°C 40% 7.0 mph N11.3 kmh N 14.8 mph23.8 kmh 30.18 in1022.0 mb 0.00 in0.0 mm 0.00 in0.0 mm 0.00 in0.0 mm
12:34 PM 49.7°F9.8°C 26.4°F-3.1°C 40% 7.5 mph NNW12.1 kmh NNW 14.8 mph23.8 kmh 30.18 in1022.0 mb 0.00 in0.0 mm 0.00 in0.0 mm 0.00 in0.0 mm
12:32 PM 49.9°F9.9°C 26.6°F-3.0°C 40% 9.1 mph NW14.6 kmh NW 14.8 mph23.8 kmh 30.18 in1022.0 mb 0.00 in0.0 mm 0.00 in0.0 mm 0.00 in0.0 mm
12:31 PM 50.1°F10.1°C 26.7°F-2.9°C 40% 9.7 mph W15.6 kmh W 14.8 mph23.8 kmh 30.18 in1022.0 mb 0.00 in0.0 mm 0.00 in0.0 mm 0.00 in0.0 mm
12:30 PM 50.1°F10.1°C 26.7°F-2.9°C 40% 13.2 mph NNW21.2 kmh NNW 15.8 mph25.4 kmh 30.18 in1022.0 mb 0.00 in0.0 mm 0.00 in0.0 mm 0.00 in0.0 mm
12:28 PM 50.1°F10.1°C 26.7°F-2.9°C 40% 10.5 mph NW16.9 kmh NW 15.8 mph25.4 kmh 30.18 in1022.0 mb 0.00 in0.0 mm 0.00 in0.0 mm 0.00 in0.0 mm
12:27 PM 50.1°F10.1°C 26.7°F-2.9°C 40% 7.5 mph N12.1 kmh N 15.8 mph25.4 kmh 30.18 in1022.0 mb 0.00 in0.0 mm 0.00 in0.0 mm 0.00 in0.0 mm
12:26 PM 50.1°F10.1°C 26.7°F-2.9°C 40% 7.5 mph NW12.1 kmh NW 15.8 mph25.4 kmh 30.18 in1022.0 mb 0.00 in0.0 mm 0.00 in0.0 mm 0.00 in0.0 mm
12:24 PM 49.9°F9.9°C 26.6°F-3.0°C 40% 9.9 mph NNW15.9 kmh NNW 20.9 mph33.6 kmh 30.18 in1022.0 mb 0.00 in0.0 mm 0.00 in0.0 mm 0.00 in0.0 mm
12:23 PM 49.9°F9.9°C 26.6°F-3.0°C 40% 14.2 mph NW22.9 kmh NW 20.9 mph33.6 kmh 30.18 in1022.0 mb 0.00 in0.0 mm 0.00 in0.0 mm 0.00 in0.0 mm
12:22 PM 49.7°F9.8°C 26.4°F-3.1°C 40% 7.5 mph N12.1 kmh N 20.9 mph33.6 kmh 30.18 in1022.0 mb 0.00 in0.0 mm 0.00 in0.0 mm 0.00 in0.0 mm
12:20 PM 49.7°F9.8°C 26.4°F-3.1°C 40% 9.7 mph NNW15.6 kmh NNW 20.9 mph33.6 kmh 30.18 in1022.0 mb 0.00 in0.0 mm 0.00 in0.0 mm 0.00 in0.0 mm
12:19 PM 49.7°F9.8°C 26.4°F-3.1°C 40% 7.5 mph NNW12.1 kmh NNW 20.9 mph33.6 kmh 30.18 in1022.0 mb 0.00 in0.0 mm 0.00 in0.0 mm 0.00 in0.0 mm
12:17 PM 49.7°F9.8°C 26.4°F-3.1°C 40% 14.8 mph W23.8 kmh W 14.8 mph23.8 kmh 30.18 in1022.0 mb 0.00 in0.0 mm 0.00 in0.0 mm 0.00 in0.0 mm
12:16 PM 49.5°F9.7°C 26.2°F-3.2°C 40% 9.1 mph N14.6 kmh N 13.2 mph21.2 kmh 30.18 in1022.0 mb 0.00 in0.0 mm 0.00 in0.0 mm 0.00 in0.0 mm
12:15 PM 49.5°F9.7°C 26.2°F-3.2°C 40% 7.5 mph WNW12.1 kmh WNW 13.2 mph21.2 kmh 30.18 in1022.0 mb 0.00 in0.0 mm 0.00 in0.0 mm 0.00 in0.0 mm
12:14 PM 49.4°F9.7°C 26.1°F-3.3°C 40% 9.1 mph N14.6 kmh N 12.1 mph19.5 kmh 30.18 in1022.0 mb 0.00 in0.0 mm 0.00 in0.0 mm 0.00 in0.0 mm
12:13 PM 49.2°F9.6°C 25.9°F-3.4°C 40% 11.5 mph NW18.5 kmh NW 12.1 mph19.5 kmh 30.18 in1022.0 mb 0.00 in0.0 mm 0.00 in0.0 mm 0.00 in0.0 mm
12:12 PM 49.2°F9.6°C 25.9°F-3.4°C 40% 9.1 mph NW14.6 kmh NW 12.1 mph19.5 kmh 30.18 in1022.0 mb 0.00 in0.0 mm 0.00 in0.0 mm 0.00 in0.0 mm
12:11 PM 48.8°F9.3°C 25.6°F-3.6°C 40% 7.0 mph NW11.3 kmh NW 12.1 mph19.5 kmh 30.18 in1022.0 mb 0.00 in0.0 mm 0.00 in0.0 mm 0.00 in0.0 mm
12:10 PM 48.5°F9.2°C 25.3°F-3.7°C 40% 12.1 mph NW19.5 kmh NW 12.6 mph20.3 kmh 30.18 in1022.0 mb 0.00 in0.0 mm 0.00 in0.0 mm 0.00 in0.0 mm
12:09 PM 48.5°F9.2°C 25.3°F-3.7°C 40% 9.9 mph NE15.9 kmh NE 12.6 mph20.3 kmh 30.18 in1022.0 mb 0.00 in0.0 mm 0.00 in0.0 mm 0.00 in0.0 mm
12:07 PM 47.9°F8.8°C 24.8°F-4.0°C 40% 10.5 mph NNW16.9 kmh NNW 14.8 mph23.8 kmh 30.18 in1022.0 mb 0.00 in0.0 mm 0.00 in0.0 mm 0.00 in0.0 mm
12:06 PM 47.9°F8.8°C 24.8°F-4.0°C 40% 5.9 mph NNW9.5 kmh NNW 17.4 mph28.0 kmh 30.18 in1022.0 mb 0.00 in0.0 mm 0.00 in0.0 mm 0.00 in0.0 mm
12:05 PM 47.7°F8.7°C 24.6°F-4.1°C 40% 7.0 mph WNW11.3 kmh WNW 17.4 mph28.0 kmh 30.18 in1022.0 mb 0.00 in0.0 mm 0.00 in0.0 mm 0.00 in0.0 mm
12:03 PM 47.7°F8.7°C 24.6°F-4.1°C 40% 10.5 mph NW16.9 kmh NW 17.4 mph28.0 kmh 30.18 in1022.0 mb 0.00 in0.0 mm 0.00 in0.0 mm 0.00 in0.0 mm
12:02 PM 47.6°F8.7°C 24.5°F-4.2°C 40% 12.6 mph NW20.3 kmh NW 17.4 mph28.0 kmh 30.18 in1022.0 mb 0.00 in0.0 mm 0.00 in0.0 mm 0.00 in0.0 mm
12:01 PM 47.6°F8.7°C 24.5°F-4.2°C 40% 9.1 mph NW14.6 kmh NW 17.4 mph28.0 kmh 30.18 in1022.0 mb 0.00 in0.0 mm 0.00 in0.0 mm 0.00 in0.0 mm
12:00 PM 47.6°F8.7°C 24.5°F-4.2°C 40% 10.5 mph WSW16.9 kmh WSW 17.4 mph28.0 kmh 30.18 in1022.0 mb 0.00 in0.0 mm 0.00 in0.0 mm 0.00 in0.0 mm
11:59 AM 47.6°F8.7°C 24.5°F-4.2°C 40% 12.1 mph NNW19.5 kmh NNW 13.2 mph21.2 kmh 30.18 in1022.0 mb 0.00 in0.0 mm 0.00 in0.0 mm 0.00 in0.0 mm
11:57 AM 47.6°F8.7°C 24.5°F-4.2°C 40% 6.4 mph WSW10.3 kmh WSW 13.2 mph21.2 kmh 30.18 in1022.0 mb 0.00 in0.0 mm 0.00 in0.0 mm 0.00 in0.0 mm
11:56 AM 47.6°F8.7°C 24.5°F-4.2°C 40% 6.4 mph NNW10.3 kmh NNW 18.0 mph29.0 kmh 30.18 in1022.0 mb 0.00 in0.0 mm 0.00 in0.0 mm 0.00 in0.0 mm
11:55 AM 47.6°F8.7°C 24.5°F-4.2°C 40% 7.5 mph NNE12.1 kmh NNE 18.0 mph29.0 kmh 30.18 in1022.0 mb 0.00 in0.0 mm 0.00 in0.0 mm 0.00 in0.0 mm
11:54 AM 47.6°F8.7°C 24.5°F-4.2°C 40% 10.5 mph WNW16.9 kmh WNW 18.0 mph29.0 kmh 30.18 in1022.0 mb 0.00 in0.0 mm 0.00 in0.0 mm 0.00 in0.0 mm
11:53 AM 47.6°F8.7°C 24.5°F-4.2°C 40% 6.4 mph NW10.3 kmh NW 18.0 mph29.0 kmh 30.18 in1022.0 mb 0.00 in0.0 mm 0.00 in0.0 mm 0.00 in0.0 mm
11:52 AM 47.6°F8.7°C 24.5°F-4.2°C 40% 9.9 mph W15.9 kmh W 18.0 mph29.0 kmh 30.18 in1022.0 mb 0.00 in0.0 mm 0.00 in0.0 mm 0.00 in0.0 mm
11:51 AM 47.6°F8.7°C 24.5°F-4.2°C 40% 7.0 mph NW11.3 kmh NW 18.0 mph29.0 kmh 30.18 in1022.0 mb 0.00 in0.0 mm 0.00 in0.0 mm 0.00 in0.0 mm
11:50 AM 47.6°F8.7°C 24.5°F-4.2°C 40% 9.1 mph NW14.6 kmh NW 18.0 mph29.0 kmh 30.18 in1022.0 mb 0.00 in0.0 mm 0.00 in0.0 mm 0.00 in0.0 mm
11:49 AM 47.6°F8.7°C 24.5°F-4.2°C 40% 9.9 mph NW15.9 kmh NW 15.3 mph24.6 kmh 30.18 in1022.0 mb 0.00 in0.0 mm 0.00 in0.0 mm 0.00 in0.0 mm
11:48 AM 47.6°F8.7°C 24.5°F-4.2°C 40% 15.3 mph NW24.6 kmh NW 15.3 mph24.6 kmh 30.18 in1022.0 mb 0.00 in0.0 mm 0.00 in0.0 mm 0.00 in0.0 mm
11:47 AM 47.6°F8.7°C 24.5°F-4.2°C 40% 9.9 mph WNW15.9 kmh WNW 13.7 mph22.0 kmh 30.18 in1022.0 mb 0.00 in0.0 mm 0.00 in0.0 mm 0.00 in0.0 mm
11:46 AM 47.6°F8.7°C 24.5°F-4.2°C 40% 9.1 mph N14.6 kmh N 13.7 mph22.0 kmh 30.18 in1022.0 mb 0.00 in0.0 mm 0.00 in0.0 mm 0.00 in0.0 mm
11:45 AM 47.6°F8.7°C 24.5°F-4.2°C 40% 4.3 mph NW6.9 kmh NW 13.7 mph22.0 kmh 30.18 in1022.0 mb 0.00 in0.0 mm 0.00 in0.0 mm 0.00 in0.0 mm
11:44 AM 47.6°F8.7°C 24.5°F-4.2°C 40% 7.0 mph NW11.3 kmh NW 13.7 mph22.0 kmh 30.18 in1022.0 mb 0.00 in0.0 mm 0.00 in0.0 mm 0.00 in0.0 mm
11:43 AM 47.6°F8.7°C 24.5°F-4.2°C 40% 9.1 mph WNW14.6 kmh WNW 13.7 mph22.0 kmh 30.18 in1022.0 mb 0.00 in0.0 mm 0.00 in0.0 mm 0.00 in0.0 mm
11:42 AM 47.7°F8.7°C 24.6°F-4.1°C 40% 10.5 mph NNW16.9 kmh NNW 11.5 mph18.5 kmh 30.18 in1022.0 mb 0.00 in0.0 mm 0.00 in0.0 mm 0.00 in0.0 mm
11:41 AM 47.7°F8.7°C 24.6°F-4.1°C 40% 8.6 mph NNW13.8 kmh NNW 10.5 mph16.9 kmh 30.18 in1022.0 mb 0.00 in0.0 mm 0.00 in0.0 mm 0.00 in0.0 mm
11:40 AM 47.7°F8.7°C 24.6°F-4.1°C 40% 4.8 mph N7.7 kmh N 10.5 mph16.9 kmh 30.18 in1022.0 mb 0.00 in0.0 mm 0.00 in0.0 mm 0.00 in0.0 mm
11:39 AM 47.6°F8.7°C 24.5°F-4.2°C 40% 4.8 mph W7.7 kmh W 10.5 mph16.9 kmh 30.18 in1022.0 mb 0.00 in0.0 mm 0.00 in0.0 mm 0.00 in0.0 mm
11:38 AM 47.6°F8.7°C 24.5°F-4.2°C 40% 7.0 mph WNW11.3 kmh WNW 10.5 mph16.9 kmh 30.18 in1022.0 mb 0.00 in0.0 mm 0.00 in0.0 mm 0.00 in0.0 mm
11:37 AM 47.6°F8.7°C 24.5°F-4.2°C 40% 9.1 mph SW14.6 kmh SW 10.5 mph16.9 kmh 30.18 in1022.0 mb 0.00 in0.0 mm 0.00 in0.0 mm 0.00 in0.0 mm
11:36 AM 47.6°F8.7°C 24.5°F-4.2°C 40% 7.5 mph WNW12.1 kmh WNW 12.6 mph20.3 kmh 30.18 in1022.0 mb 0.00 in0.0 mm 0.00 in0.0 mm 0.00 in0.0 mm
11:35 AM 47.6°F8.7°C 24.5°F-4.2°C 40% 7.5 mph NNW12.1 kmh NNW 12.6 mph20.3 kmh 30.18 in1022.0 mb 0.00 in0.0 mm 0.00 in0.0 mm 0.00 in0.0 mm
11:33 AM 47.6°F8.7°C 24.5°F-4.2°C 40% 7.0 mph NNW11.3 kmh NNW 12.6 mph20.3 kmh 30.18 in1022.0 mb 0.00 in0.0 mm 0.00 in0.0 mm 0.00 in0.0 mm
11:32 AM 47.6°F8.7°C 24.5°F-4.2°C 40% 6.4 mph NNW10.3 kmh NNW 12.6 mph20.3 kmh 30.18 in1022.0 mb 0.00 in0.0 mm 0.00 in0.0 mm 0.00 in0.0 mm
11:31 AM 47.7°F8.7°C 24.6°F-4.1°C 40% 5.9 mph NW9.5 kmh NW 13.2 mph21.2 kmh 30.18 in1022.0 mb 0.00 in0.0 mm 0.00 in0.0 mm 0.00 in0.0 mm
11:30 AM 47.7°F8.7°C 24.6°F-4.1°C 40% 7.5 mph NNW12.1 kmh NNW 13.2 mph21.2 kmh 30.18 in1022.0 mb 0.00 in0.0 mm 0.00 in0.0 mm 0.00 in0.0 mm
11:29 AM 47.7°F8.7°C 24.6°F-4.1°C 40% 10.5 mph NW16.9 kmh NW 13.2 mph21.2 kmh 30.18 in1022.0 mb 0.00 in0.0 mm 0.00 in0.0 mm 0.00 in0.0 mm
11:28 AM 47.7°F8.7°C 24.6°F-4.1°C 40% 5.9 mph NNW9.5 kmh NNW 13.2 mph21.2 kmh 30.18 in1022.0 mb 0.00 in0.0 mm 0.00 in0.0 mm 0.00 in0.0 mm
11:27 AM 47.7°F8.7°C 24.6°F-4.1°C 40% 3.8 mph NW6.1 kmh NW 13.2 mph21.2 kmh 30.18 in1022.0 mb 0.00 in0.0 mm 0.00 in0.0 mm 0.00 in0.0 mm
11:25 AM 47.7°F8.7°C 24.6°F-4.1°C 40% 5.9 mph NNW9.5 kmh NNW 13.2 mph21.2 kmh 30.15 in1021.0 mb 0.00 in0.0 mm 0.00 in0.0 mm 0.00 in0.0 mm
11:24 AM 47.9°F8.8°C 24.8°F-4.0°C 40% 13.2 mph NW21.2 kmh NW 19.1 mph30.7 kmh 30.15 in1021.0 mb 0.00 in0.0 mm 0.00 in0.0 mm 0.00 in0.0 mm
11:22 AM 47.9°F8.8°C 24.8°F-4.0°C 40% 4.3 mph N6.9 kmh N 19.1 mph30.7 kmh 30.15 in1021.0 mb 0.00 in0.0 mm 0.00 in0.0 mm 0.00 in0.0 mm
11:21 AM 47.9°F8.8°C 24.8°F-4.0°C 40% 7.0 mph NW11.3 kmh NW 19.1 mph30.7 kmh 30.15 in1021.0 mb 0.00 in0.0 mm 0.00 in0.0 mm 0.00 in0.0 mm
11:19 AM 47.9°F8.8°C 24.8°F-4.0°C 40% 4.8 mph NNW7.7 kmh NNW 19.1 mph30.7 kmh 30.15 in1021.0 mb 0.00 in0.0 mm 0.00 in0.0 mm 0.00 in0.0 mm
11:18 AM 47.9°F8.8°C 24.8°F-4.0°C 40% 7.0 mph WNW11.3 kmh WNW 19.1 mph30.7 kmh 30.15 in1021.0 mb 0.00 in0.0 mm 0.00 in0.0 mm 0.00 in0.0 mm
11:17 AM 47.7°F8.7°C 24.6°F-4.1°C 40% 19.1 mph NNW30.7 kmh NNW 19.1 mph30.7 kmh 30.15 in1021.0 mb 0.00 in0.0 mm 0.00 in0.0 mm 0.00 in0.0 mm
11:16 AM 47.7°F8.7°C 24.6°F-4.1°C 40% 10.5 mph WNW16.9 kmh WNW 12.1 mph19.5 kmh 30.15 in1021.0 mb 0.00 in0.0 mm 0.00 in0.0 mm 0.00 in0.0 mm
11:14 AM 47.7°F8.7°C 24.6°F-4.1°C 40% 7.0 mph NW11.3 kmh NW 12.1 mph19.5 kmh 30.15 in1021.0 mb 0.00 in0.0 mm 0.00 in0.0 mm 0.00 in0.0 mm
11:12 AM 47.7°F8.7°C 24.6°F-4.1°C 40% 7.0 mph NW11.3 kmh NW 12.1 mph19.5 kmh 30.15 in1021.0 mb 0.00 in0.0 mm 0.00 in0.0 mm 0.00 in0.0 mm
11:11 AM 47.7°F8.7°C 24.6°F-4.1°C 40% 12.1 mph W19.5 kmh W 15.3 mph24.6 kmh 30.15 in1021.0 mb 0.00 in0.0 mm 0.00 in0.0 mm 0.00 in0.0 mm
11:10 AM 47.7°F8.7°C 24.6°F-4.1°C 40% 9.1 mph NW14.6 kmh NW 15.3 mph24.6 kmh 30.18 in1022.0 mb 0.00 in0.0 mm 0.00 in0.0 mm 0.00 in0.0 mm
11:08 AM 47.6°F8.7°C 24.5°F-4.2°C 40% 4.8 mph NNW7.7 kmh NNW 15.3 mph24.6 kmh 30.18 in1022.0 mb 0.00 in0.0 mm 0.00 in0.0 mm 0.00 in0.0 mm
11:07 AM 47.6°F8.7°C 24.5°F-4.2°C 40% 7.0 mph NW11.3 kmh NW 15.3 mph24.6 kmh 30.18 in1022.0 mb 0.00 in0.0 mm 0.00 in0.0 mm 0.00 in0.0 mm
11:06 AM 47.6°F8.7°C 24.5°F-4.2°C 40% 5.9 mph NW9.5 kmh NW 15.3 mph24.6 kmh 30.18 in1022.0 mb 0.00 in0.0 mm 0.00 in0.0 mm 0.00 in0.0 mm
11:05 AM 47.6°F8.7°C 24.5°F-4.2°C 40% 6.4 mph NNE10.3 kmh NNE 15.3 mph24.6 kmh 30.18 in1022.0 mb 0.00 in0.0 mm 0.00 in0.0 mm 0.00 in0.0 mm
11:03 AM 47.6°F8.7°C 24.5°F-4.2°C 40% 10.5 mph WNW16.9 kmh WNW 15.3 mph24.6 kmh 30.18 in1022.0 mb 0.00 in0.0 mm 0.00 in0.0 mm 0.00 in0.0 mm
11:02 AM 47.6°F8.7°C 24.5°F-4.2°C 40% 9.9 mph W15.9 kmh W 15.3 mph24.6 kmh 30.18 in1022.0 mb 0.00 in0.0 mm 0.00 in0.0 mm 0.00 in0.0 mm
11:01 AM 47.6°F8.7°C 24.5°F-4.2°C 40% 11.0 mph NE17.7 kmh NE 13.2 mph21.2 kmh 30.18 in1022.0 mb 0.00 in0.0 mm 0.00 in0.0 mm 0.00 in0.0 mm
11:00 AM 47.6°F8.7°C 24.5°F-4.2°C 40% 9.9 mph NW15.9 kmh NW 10.5 mph16.9 kmh 30.18 in1022.0 mb 0.00 in0.0 mm 0.00 in0.0 mm 0.00 in0.0 mm
10:58 AM 47.6°F8.7°C 24.5°F-4.2°C 40% 10.5 mph NW16.9 kmh NW 10.5 mph16.9 kmh 30.18 in1022.0 mb 0.00 in0.0 mm 0.00 in0.0 mm 0.00 in0.0 mm
10:57 AM 47.4°F8.6°C 24.3°F-4.3°C 40% 6.4 mph NW10.3 kmh NW 11.5 mph18.5 kmh 30.18 in1022.0 mb 0.00 in0.0 mm 0.00 in0.0 mm 0.00 in0.0 mm
10:56 AM 47.4°F8.6°C 24.3°F-4.3°C 40% 3.8 mph NNW6.1 kmh NNW 12.6 mph20.3 kmh 30.18 in1022.0 mb 0.00 in0.0 mm 0.00 in0.0 mm 0.00 in0.0 mm
10:54 AM 47.2°F8.4°C 24.1°F-4.4°C 40% 8.1 mph NNW13.0 kmh NNW 12.6 mph20.3 kmh 30.18 in1022.0 mb 0.00 in0.0 mm 0.00 in0.0 mm 0.00 in0.0 mm
10:53 AM 47.2°F8.4°C 24.1°F-4.4°C 40% 3.2 mph NW5.1 kmh NW 12.6 mph20.3 kmh 30.18 in1022.0 mb 0.00 in0.0 mm 0.00 in0.0 mm 0.00 in0.0 mm
10:52 AM 47.2°F8.4°C 24.1°F-4.4°C 40% 7.0 mph NNW11.3 kmh NNW 12.6 mph20.3 kmh 30.18 in1022.0 mb 0.00 in0.0 mm 0.00 in0.0 mm 0.00 in0.0 mm
10:51 AM 47.4°F8.6°C 24.3°F-4.3°C 40% 11.5 mph W18.5 kmh W 15.3 mph24.6 kmh 30.18 in1022.0 mb 0.00 in0.0 mm 0.00 in0.0 mm 0.00 in0.0 mm
10:50 AM 47.4°F8.6°C 24.3°F-4.3°C 40% 10.5 mph NW16.9 kmh NW 15.3 mph24.6 kmh 30.18 in1022.0 mb 0.00 in0.0 mm 0.00 in0.0 mm 0.00 in0.0 mm
10:49 AM 47.4°F8.6°C 24.3°F-4.3°C 40% 4.3 mph NW6.9 kmh NW 15.3 mph24.6 kmh 30.18 in1022.0 mb 0.00 in0.0 mm 0.00 in0.0 mm 0.00 in0.0 mm
10:48 AM 47.4°F8.6°C 24.3°F-4.3°C 40% 7.5 mph NNW12.1 kmh NNW 15.3 mph24.6 kmh 30.18 in1022.0 mb 0.00 in0.0 mm 0.00 in0.0 mm 0.00 in0.0 mm
10:47 AM 47.4°F8.6°C 24.3°F-4.3°C 40% 9.7 mph NNW15.6 kmh NNW 15.3 mph24.6 kmh 30.18 in1022.0 mb 0.00 in0.0 mm 0.00 in0.0 mm 0.00 in0.0 mm
10:46 AM 47.4°F8.6°C 24.3°F-4.3°C 40% 7.0 mph N11.3 kmh N 15.3 mph24.6 kmh 30.18 in1022.0 mb 0.00 in0.0 mm 0.00 in0.0 mm 0.00 in0.0 mm
10:45 AM 47.4°F8.6°C 24.3°F-4.3°C 40% 6.4 mph NW10.3 kmh NW 15.3 mph24.6 kmh 30.18 in1022.0 mb 0.00 in0.0 mm 0.00 in0.0 mm 0.00 in0.0 mm
10:44 AM 47.6°F8.7°C 24.5°F-4.2°C 40% 12.1 mph WNW19.5 kmh WNW 20.1 mph32.3 kmh 30.18 in1022.0 mb 0.00 in0.0 mm 0.00 in0.0 mm 0.00 in0.0 mm
10:43 AM 47.6°F8.7°C 24.5°F-4.2°C 40% 8.6 mph NNW13.8 kmh NNW 20.1 mph32.3 kmh 30.18 in1022.0 mb 0.00 in0.0 mm 0.00 in0.0 mm 0.00 in0.0 mm
10:42 AM 47.6°F8.7°C 24.5°F-4.2°C 40% 7.0 mph NNW11.3 kmh NNW 20.1 mph32.3 kmh 30.18 in1022.0 mb 0.00 in0.0 mm 0.00 in0.0 mm 0.00 in0.0 mm
10:41 AM 47.6°F8.7°C 24.5°F-4.2°C 40% 12.6 mph NW20.3 kmh NW 20.1 mph32.3 kmh 30.18 in1022.0 mb 0.00 in0.0 mm 0.00 in0.0 mm 0.00 in0.0 mm
10:40 AM 47.7°F8.7°C 24.6°F-4.1°C 40% 9.1 mph NNW14.6 kmh NNW 20.1 mph32.3 kmh 30.18 in1022.0 mb 0.00 in0.0 mm 0.00 in0.0 mm 0.00 in0.0 mm
10:39 AM 47.7°F8.7°C 24.6°F-4.1°C 40% 9.7 mph NNW15.6 kmh NNW 20.1 mph32.3 kmh 30.18 in1022.0 mb 0.00 in0.0 mm 0.00 in0.0 mm 0.00 in0.0 mm
10:37 AM 47.7°F8.7°C 24.6°F-4.1°C 40% 12.6 mph NNW20.3 kmh NNW 20.1 mph32.3 kmh 30.18 in1022.0 mb 0.00 in0.0 mm 0.00 in0.0 mm 0.00 in0.0 mm
10:35 AM 47.7°F8.7°C 24.6°F-4.1°C 40% 5.9 mph NW9.5 kmh NW 13.2 mph21.2 kmh 30.18 in1022.0 mb 0.00 in0.0 mm 0.00 in0.0 mm 0.00 in0.0 mm
10:34 AM 47.7°F8.7°C 24.6°F-4.1°C 40% 9.1 mph WNW14.6 kmh WNW 13.2 mph21.2 kmh 30.18 in1022.0 mb 0.00 in0.0 mm 0.00 in0.0 mm 0.00 in0.0 mm
10:32 AM 47.6°F8.7°C 24.5°F-4.2°C 40% 6.4 mph N10.3 kmh N 12.6 mph20.3 kmh 30.18 in1022.0 mb 0.00 in0.0 mm 0.00 in0.0 mm 0.00 in0.0 mm
10:31 AM 47.6°F8.7°C 24.5°F-4.2°C 40% 4.8 mph NW7.7 kmh NW 10.5 mph16.9 kmh 30.18 in1022.0 mb 0.00 in0.0 mm 0.00 in0.0 mm 0.00 in0.0 mm
10:30 AM 47.6°F8.7°C 24.5°F-4.2°C 40% 5.9 mph N9.5 kmh N 12.6 mph20.3 kmh 30.18 in1022.0 mb 0.00 in0.0 mm 0.00 in0.0 mm 0.00 in0.0 mm
10:28 AM 47.4°F8.6°C 24.3°F-4.3°C 40% 3.2 mph NW5.1 kmh NW 12.6 mph20.3 kmh 30.18 in1022.0 mb 0.00 in0.0 mm 0.00 in0.0 mm 0.00 in0.0 mm
10:27 AM 47.4°F8.6°C 24.3°F-4.3°C 40% 5.4 mph NNE8.7 kmh NNE 12.6 mph20.3 kmh 30.18 in1022.0 mb 0.00 in0.0 mm 0.00 in0.0 mm 0.00 in0.0 mm
10:26 AM 47.4°F8.6°C 24.3°F-4.3°C 40% 9.7 mph NW15.6 kmh NW 12.6 mph20.3 kmh 30.18 in1022.0 mb 0.00 in0.0 mm 0.00 in0.0 mm 0.00 in0.0 mm
10:25 AM 47.2°F8.4°C 24.1°F-4.4°C 40% 6.4 mph NW10.3 kmh NW 12.6 mph20.3 kmh 30.18 in1022.0 mb 0.00 in0.0 mm 0.00 in0.0 mm 0.00 in0.0 mm
10:24 AM 47.0°F8.3°C 24.0°F-4.4°C 40% 4.8 mph NW7.7 kmh NW 12.6 mph20.3 kmh 30.18 in1022.0 mb 0.00 in0.0 mm 0.00 in0.0 mm 0.00 in0.0 mm
10:23 AM 47.0°F8.3°C 24.0°F-4.4°C 40% 10.5 mph N16.9 kmh N 12.6 mph20.3 kmh 30.18 in1022.0 mb 0.00 in0.0 mm 0.00 in0.0 mm 0.00 in0.0 mm
10:21 AM 47.0°F8.3°C 24.0°F-4.4°C 40% 6.4 mph NW10.3 kmh NW 12.6 mph20.3 kmh 30.18 in1022.0 mb 0.00 in0.0 mm 0.00 in0.0 mm 0.00 in0.0 mm
10:20 AM 47.0°F8.3°C 24.0°F-4.4°C 40% 10.5 mph NNW16.9 kmh NNW 15.8 mph25.4 kmh 30.18 in1022.0 mb 0.00 in0.0 mm 0.00 in0.0 mm 0.00 in0.0 mm
10:18 AM 46.8°F8.2°C 23.8°F-4.6°C 40% 6.4 mph SW10.3 kmh SW 15.8 mph25.4 kmh 30.18 in1022.0 mb 0.00 in0.0 mm 0.00 in0.0 mm 0.00 in0.0 mm
10:17 AM 46.7°F8.2°C 23.6°F-4.7°C 40% 10.5 mph NNW16.9 kmh NNW 15.8 mph25.4 kmh 30.18 in1022.0 mb 0.00 in0.0 mm 0.00 in0.0 mm 0.00 in0.0 mm
10:15 AM 46.5°F8.1°C 23.5°F-4.7°C 40% 4.8 mph N7.7 kmh N 15.8 mph25.4 kmh 30.18 in1022.0 mb 0.00 in0.0 mm 0.00 in0.0 mm 0.00 in0.0 mm
10:14 AM 46.5°F8.1°C 23.5°F-4.7°C 40% 7.5 mph NNW12.1 kmh NNW 15.8 mph25.4 kmh 30.18 in1022.0 mb 0.00 in0.0 mm 0.00 in0.0 mm 0.00 in0.0 mm
10:13 AM 46.5°F8.1°C 23.5°F-4.7°C 40% 15.8 mph NW25.4 kmh NW 15.8 mph25.4 kmh 30.18 in1022.0 mb 0.00 in0.0 mm 0.00 in0.0 mm 0.00 in0.0 mm
10:11 AM 46.3°F7.9°C 23.3°F-4.8°C 40% 13.2 mph W21.2 kmh W 13.2 mph21.2 kmh 30.18 in1022.0 mb 0.00 in0.0 mm 0.00 in0.0 mm 0.00 in0.0 mm
10:10 AM 46.3°F7.9°C 23.3°F-4.8°C 40% 7.5 mph N12.1 kmh N 13.2 mph21.2 kmh 30.18 in1022.0 mb 0.00 in0.0 mm 0.00 in0.0 mm 0.00 in0.0 mm
10:08 AM 46.3°F7.9°C 23.3°F-4.8°C 40% 5.9 mph NNW9.5 kmh NNW 16.4 mph26.4 kmh 30.18 in1022.0 mb 0.00 in0.0 mm 0.00 in0.0 mm 0.00 in0.0 mm
10:07 AM 46.3°F7.9°C 23.3°F-4.8°C 40% 8.1 mph NW13.0 kmh NW 16.4 mph26.4 kmh 30.18 in1022.0 mb 0.00 in0.0 mm 0.00 in0.0 mm 0.00 in0.0 mm
08:11 AM 43.2°F6.2°C 21.1°F-6.1°C 41% 4.3 mph NW6.9 kmh NW 10.5 mph16.9 kmh 30.15 in1021.0 mb 0.00 in0.0 mm 0.00 in0.0 mm 0.00 in0.0 mm
08:09 AM 43.2°F6.2°C 21.1°F-6.1°C 41% 3.8 mph NW6.1 kmh NW 10.5 mph16.9 kmh 30.15 in1021.0 mb 0.00 in0.0 mm 0.00 in0.0 mm 0.00 in0.0 mm
08:08 AM 43.2°F6.2°C 21.1°F-6.1°C 41% Calm Calm 10.5 mph16.9 kmh 30.15 in1021.0 mb 0.00 in0.0 mm 0.00 in0.0 mm 0.00 in0.0 mm
08:07 AM 43.2°F6.2°C 21.1°F-6.1°C 41% 6.4 mph NNW10.3 kmh NNW 10.5 mph16.9 kmh 30.15 in1021.0 mb 0.00 in0.0 mm 0.00 in0.0 mm 0.00 in0.0 mm
08:05 AM 43.2°F6.2°C 21.1°F-6.1°C 41% 3.2 mph NNE5.1 kmh NNE 10.5 mph16.9 kmh 30.15 in1021.0 mb 0.00 in0.0 mm 0.00 in0.0 mm 0.00 in0.0 mm
08:04 AM 43.2°F6.2°C 21.1°F-6.1°C 41% 4.8 mph NNW7.7 kmh NNW 9.7 mph15.6 kmh 30.15 in1021.0 mb 0.00 in0.0 mm 0.00 in0.0 mm 0.00 in0.0 mm
08:03 AM 43.2°F6.2°C 21.1°F-6.1°C 41% 4.8 mph NW7.7 kmh NW 9.7 mph15.6 kmh 30.15 in1021.0 mb 0.00 in0.0 mm 0.00 in0.0 mm 0.00 in0.0 mm
08:01 AM 43.2°F6.2°C 21.1°F-6.1°C 41% 6.4 mph NW10.3 kmh NW 9.7 mph15.6 kmh 30.15 in1021.0 mb 0.00 in0.0 mm 0.00 in0.0 mm 0.00 in0.0 mm
08:00 AM 43.2°F6.2°C 21.1°F-6.1°C 41% 4.8 mph NW7.7 kmh NW 9.7 mph15.6 kmh 30.15 in1021.0 mb 0.00 in0.0 mm 0.00 in0.0 mm 0.00 in0.0 mm
07:58 AM 43.2°F6.2°C 21.1°F-6.1°C 41% 4.3 mph NNE6.9 kmh NNE 9.7 mph15.6 kmh 30.15 in1021.0 mb 0.00 in0.0 mm 0.00 in0.0 mm 0.00 in0.0 mm
07:56 AM 43.2°F6.2°C 21.1°F-6.1°C 41% 4.8 mph NW7.7 kmh NW 9.7 mph15.6 kmh 30.15 in1021.0 mb 0.00 in0.0 mm 0.00 in0.0 mm 0.00 in0.0 mm
07:55 AM 43.4°F6.3°C 21.3°F-5.9°C 41% 4.8 mph W7.7 kmh W 9.7 mph15.6 kmh 30.15 in1021.0 mb 0.00 in0.0 mm 0.00 in0.0 mm 0.00 in0.0 mm
07:54 AM 43.4°F6.3°C 21.3°F-5.9°C 41% 6.4 mph NW10.3 kmh NW 9.9 mph15.9 kmh 30.15 in1021.0 mb 0.00 in0.0 mm 0.00 in0.0 mm 0.00 in0.0 mm
07:53 AM 43.4°F6.3°C 21.3°F-5.9°C 41% 9.1 mph NNE14.6 kmh NNE 9.9 mph15.9 kmh 30.15 in1021.0 mb 0.00 in0.0 mm 0.00 in0.0 mm 0.00 in0.0 mm
07:51 AM 43.2°F6.2°C 21.1°F-6.1°C 41% 3.8 mph NNW6.1 kmh NNW 11.5 mph18.5 kmh 30.15 in1021.0 mb 0.00 in0.0 mm 0.00 in0.0 mm 0.00 in0.0 mm
07:50 AM 43.2°F6.2°C 21.1°F-6.1°C 41% 6.4 mph W10.3 kmh W 11.5 mph18.5 kmh 30.15 in1021.0 mb 0.00 in0.0 mm 0.00 in0.0 mm 0.00 in0.0 mm
07:48 AM 43.2°F6.2°C 21.1°F-6.1°C 41% 6.4 mph N10.3 kmh N 13.2 mph21.2 kmh 30.15 in1021.0 mb 0.00 in0.0 mm 0.00 in0.0 mm 0.00 in0.0 mm
07:47 AM 43.2°F6.2°C 21.1°F-6.1°C 41% 6.4 mph 10.3 kmh 13.2 mph21.2 kmh 30.15 in1021.0 mb 0.00 in0.0 mm 0.00 in0.0 mm 0.00 in0.0 mm
07:46 AM 43.2°F6.2°C 21.1°F-6.1°C 41% 7.0 mph NW11.3 kmh NW 13.2 mph21.2 kmh 30.15 in1021.0 mb 0.00 in0.0 mm 0.00 in0.0 mm 0.00 in0.0 mm
07:44 AM 43.2°F6.2°C 21.1°F-6.1°C 41% 11.5 mph W18.5 kmh W 13.2 mph21.2 kmh 30.15 in1021.0 mb 0.00 in0.0 mm 0.00 in0.0 mm 0.00 in0.0 mm
07:43 AM 43.2°F6.2°C 21.1°F-6.1°C 41% 8.6 mph N13.8 kmh N 13.2 mph21.2 kmh 30.15 in1021.0 mb 0.00 in0.0 mm 0.00 in0.0 mm 0.00 in0.0 mm
07:42 AM 43.2°F6.2°C 21.1°F-6.1°C 41% 10.5 mph N16.9 kmh N 10.5 mph16.9 kmh 30.15 in1021.0 mb 0.00 in0.0 mm 0.00 in0.0 mm 0.00 in0.0 mm
07:41 AM 43.2°F6.2°C 21.1°F-6.1°C 41% 4.3 mph N6.9 kmh N 9.9 mph15.9 kmh 30.15 in1021.0 mb 0.00 in0.0 mm 0.00 in0.0 mm 0.00 in0.0 mm
07:40 AM 43.2°F6.2°C 21.1°F-6.1°C 41% 5.9 mph NW9.5 kmh NW 9.9 mph15.9 kmh 30.15 in1021.0 mb 0.00 in0.0 mm 0.00 in0.0 mm 0.00 in0.0 mm
07:39 AM 43.2°F6.2°C 21.1°F-6.1°C 41% 5.9 mph NW9.5 kmh NW 9.9 mph15.9 kmh 30.15 in1021.0 mb 0.00 in0.0 mm 0.00 in0.0 mm 0.00 in0.0 mm
07:37 AM 43.1°F6.2°C 21.0°F-6.1°C 41% 3.2 mph NW5.1 kmh NW 9.9 mph15.9 kmh 30.15 in1021.0 mb 0.00 in0.0 mm 0.00 in0.0 mm 0.00 in0.0 mm
07:36 AM 43.1°F6.2°C 21.0°F-6.1°C 41% 7.5 mph W12.1 kmh W 9.9 mph15.9 kmh 30.15 in1021.0 mb 0.00 in0.0 mm 0.00 in0.0 mm 0.00 in0.0 mm
07:34 AM 43.1°F6.2°C 21.0°F-6.1°C 41% 4.3 mph NNW6.9 kmh NNW 9.9 mph15.9 kmh 30.15 in1021.0 mb 0.00 in0.0 mm 0.00 in0.0 mm 0.00 in0.0 mm
07:33 AM 42.9°F6.1°C 20.8°F-6.2°C 41% 5.9 mph W9.5 kmh W 9.9 mph15.9 kmh 30.15 in1021.0 mb 0.00 in0.0 mm 0.00 in0.0 mm 0.00 in0.0 mm
07:31 AM 42.9°F6.1°C 20.8°F-6.2°C 41% 6.4 mph NNW10.3 kmh NNW 9.7 mph15.6 kmh 30.15 in1021.0 mb 0.00 in0.0 mm 0.00 in0.0 mm 0.00 in0.0 mm
07:30 AM 42.9°F6.1°C 20.8°F-6.2°C 41% 9.7 mph 15.6 kmh 9.9 mph15.9 kmh 30.15 in1021.0 mb 0.00 in0.0 mm 0.00 in0.0 mm 0.00 in0.0 mm
07:28 AM 42.9°F6.1°C 20.8°F-6.2°C 41% 6.4 mph NW10.3 kmh NW 9.9 mph15.9 kmh 30.15 in1021.0 mb 0.00 in0.0 mm 0.00 in0.0 mm 0.00 in0.0 mm
07:27 AM 42.7°F5.9°C 20.7°F-6.3°C 41% 4.8 mph W7.7 kmh W 9.9 mph15.9 kmh 30.15 in1021.0 mb 0.00 in0.0 mm 0.00 in0.0 mm 0.00 in0.0 mm
07:26 AM 42.7°F5.9°C 20.7°F-6.3°C 41% 4.8 mph N7.7 kmh N 9.9 mph15.9 kmh 30.15 in1021.0 mb 0.00 in0.0 mm 0.00 in0.0 mm 0.00 in0.0 mm
07:24 AM 42.7°F5.9°C 20.7°F-6.3°C 41% 4.8 mph NW7.7 kmh NW 9.9 mph15.9 kmh 30.15 in1021.0 mb 0.00 in0.0 mm 0.00 in0.0 mm 0.00 in0.0 mm
07:23 AM 42.5°F5.8°C 20.5°F-6.4°C 41% 6.4 mph NW10.3 kmh NW 9.9 mph15.9 kmh 30.15 in1021.0 mb 0.00 in0.0 mm 0.00 in0.0 mm 0.00 in0.0 mm
07:22 AM 42.5°F5.8°C 20.5°F-6.4°C 41% 3.8 mph NW6.1 kmh NW 9.7 mph15.6 kmh 30.15 in1021.0 mb 0.00 in0.0 mm 0.00 in0.0 mm 0.00 in0.0 mm
07:20 AM 42.5°F5.8°C 20.5°F-6.4°C 41% 4.3 mph NW6.9 kmh NW 9.7 mph15.6 kmh 30.15 in1021.0 mb 0.00 in0.0 mm 0.00 in0.0 mm 0.00 in0.0 mm
07:19 AM 42.5°F5.8°C 20.5°F-6.4°C 41% 4.8 mph NNW7.7 kmh NNW 9.7 mph15.6 kmh 30.15 in1021.0 mb 0.00 in0.0 mm 0.00 in0.0 mm 0.00 in0.0 mm
07:18 AM 42.5°F5.8°C 20.5°F-6.4°C 41% 9.1 mph NW14.6 kmh NW 9.7 mph15.6 kmh 30.15 in1021.0 mb 0.00 in0.0 mm 0.00 in0.0 mm 0.00 in0.0 mm
07:16 AM 42.3°F5.7°C 20.3°F-6.5°C 41% 6.4 mph NW10.3 kmh NW 9.7 mph15.6 kmh 30.15 in1021.0 mb 0.00 in0.0 mm 0.00 in0.0 mm 0.00 in0.0 mm
07:15 AM 42.3°F5.7°C 20.3°F-6.5°C 41% 5.9 mph WNW9.5 kmh WNW 10.5 mph16.9 kmh 30.15 in1021.0 mb 0.00 in0.0 mm 0.00 in0.0 mm 0.00 in0.0 mm
07:13 AM 42.3°F5.7°C 20.3°F-6.5°C 41% 7.5 mph NNW12.1 kmh NNW 10.5 mph16.9 kmh 30.15 in1021.0 mb 0.00 in0.0 mm 0.00 in0.0 mm 0.00 in0.0 mm
07:12 AM 42.3°F5.7°C 20.3°F-6.5°C 41% 7.5 mph NNW12.1 kmh NNW 10.5 mph16.9 kmh 30.15 in1021.0 mb 0.00 in0.0 mm 0.00 in0.0 mm 0.00 in0.0 mm
07:11 AM 42.2°F5.7°C 20.2°F-6.6°C 41% 4.8 mph NW7.7 kmh NW 10.5 mph16.9 kmh 30.15 in1021.0 mb 0.00 in0.0 mm 0.00 in0.0 mm 0.00 in0.0 mm
07:10 AM 42.2°F5.7°C 20.2°F-6.6°C 41% 4.3 mph NW6.9 kmh NW 10.5 mph16.9 kmh 30.15 in1021.0 mb 0.00 in0.0 mm 0.00 in0.0 mm 0.00 in0.0 mm
07:09 AM 42.2°F5.7°C 20.2°F-6.6°C 41% 4.3 mph NNW6.9 kmh NNW 10.5 mph16.9 kmh 30.15 in1021.0 mb 0.00 in0.0 mm 0.00 in0.0 mm 0.00 in0.0 mm
07:07 AM 42.0°F5.6°C 20.0°F-6.7°C 41% 9.7 mph NW15.6 kmh NW 9.9 mph15.9 kmh 30.15 in1021.0 mb 0.00 in0.0 mm 0.00 in0.0 mm 0.00 in0.0 mm
07:06 AM 42.0°F5.6°C 20.0°F-6.7°C 41% 6.4 mph NNW10.3 kmh NNW 9.9 mph15.9 kmh 30.15 in1021.0 mb 0.00 in0.0 mm 0.00 in0.0 mm 0.00 in0.0 mm
07:05 AM 42.0°F5.6°C 20.0°F-6.7°C 41% 2.7 mph NW4.3 kmh NW 9.9 mph15.9 kmh 30.15 in1021.0 mb 0.00 in0.0 mm 0.00 in0.0 mm 0.00 in0.0 mm
07:04 AM 42.0°F5.6°C 20.0°F-6.7°C 41% 5.4 mph NNW8.7 kmh NNW 9.9 mph15.9 kmh 30.15 in1021.0 mb 0.00 in0.0 mm 0.00 in0.0 mm 0.00 in0.0 mm
07:03 AM 42.0°F5.6°C 20.0°F-6.7°C 41% 4.3 mph N6.9 kmh N 9.9 mph15.9 kmh 30.15 in1021.0 mb 0.00 in0.0 mm 0.00 in0.0 mm 0.00 in0.0 mm
07:02 AM 42.0°F5.6°C 20.0°F-6.7°C 41% 5.9 mph NNW9.5 kmh NNW 9.9 mph15.9 kmh 30.15 in1021.0 mb 0.00 in0.0 mm 0.00 in0.0 mm 0.00 in0.0 mm
07:01 AM 42.0°F5.6°C 20.0°F-6.7°C 41% 4.8 mph NW7.7 kmh NW 9.9 mph15.9 kmh 30.15 in1021.0 mb 0.00 in0.0 mm 0.00 in0.0 mm 0.00 in0.0 mm
07:00 AM 42.0°F5.6°C 20.0°F-6.7°C 41% 9.7 mph NW15.6 kmh NW 9.7 mph15.6 kmh 30.15 in1021.0 mb 0.00 in0.0 mm 0.00 in0.0 mm 0.00 in0.0 mm
06:58 AM 42.0°F5.6°C 20.0°F-6.7°C 41% 9.1 mph NNW14.6 kmh NNW 9.1 mph14.6 kmh 30.15 in1021.0 mb 0.00 in0.0 mm 0.00 in0.0 mm 0.00 in0.0 mm
06:57 AM 42.0°F5.6°C 20.0°F-6.7°C 41% 4.3 mph NW6.9 kmh NW 7.5 mph12.1 kmh 30.15 in1021.0 mb 0.00 in0.0 mm 0.00 in0.0 mm 0.00 in0.0 mm
06:56 AM 42.0°F5.6°C 20.0°F-6.7°C 41% 6.4 mph NW10.3 kmh NW 10.5 mph16.9 kmh 30.15 in1021.0 mb 0.00 in0.0 mm 0.00 in0.0 mm 0.00 in0.0 mm
06:55 AM 42.0°F5.6°C 20.0°F-6.7°C 41% 5.4 mph NW8.7 kmh NW 10.5 mph16.9 kmh 30.15 in1021.0 mb 0.00 in0.0 mm 0.00 in0.0 mm 0.00 in0.0 mm
06:54 AM 42.0°F5.6°C 20.0°F-6.7°C 41% 6.4 mph NNW10.3 kmh NNW 10.5 mph16.9 kmh 30.15 in1021.0 mb 0.00 in0.0 mm 0.00 in0.0 mm 0.00 in0.0 mm
06:52 AM 42.0°F5.6°C 20.0°F-6.7°C 41% Calm Calm 10.5 mph16.9 kmh 30.15 in1021.0 mb 0.00 in0.0 mm 0.00 in0.0 mm 0.00 in0.0 mm
06:51 AM 42.0°F5.6°C 20.0°F-6.7°C 41% 4.8 mph NNE7.7 kmh NNE 10.5 mph16.9 kmh 30.15 in1021.0 mb 0.00 in0.0 mm 0.00 in0.0 mm 0.00 in0.0 mm
06:49 AM 42.0°F5.6°C 20.0°F-6.7°C 41% 4.8 mph NW7.7 kmh NW 10.5 mph16.9 kmh 30.15 in1021.0 mb 0.00 in0.0 mm 0.00 in0.0 mm 0.00 in0.0 mm
06:48 AM 42.0°F5.6°C 20.0°F-6.7°C 41% 5.9 mph NNW9.5 kmh NNW 10.5 mph16.9 kmh 30.15 in1021.0 mb 0.00 in0.0 mm 0.00 in0.0 mm 0.00 in0.0 mm
06:47 AM 42.0°F5.6°C 20.0°F-6.7°C 41% 6.4 mph NW10.3 kmh NW 10.5 mph16.9 kmh 30.15 in1021.0 mb 0.00 in0.0 mm 0.00 in0.0 mm 0.00 in0.0 mm
06:45 AM 42.0°F5.6°C 20.0°F-6.7°C 41% 7.0 mph NNW11.3 kmh NNW 10.5 mph16.9 kmh 30.15 in1021.0 mb 0.00 in0.0 mm 0.00 in0.0 mm 0.00 in0.0 mm
06:44 AM 42.0°F5.6°C 20.0°F-6.7°C 41% 4.3 mph NW6.9 kmh NW 8.6 mph13.8 kmh 30.15 in1021.0 mb 0.00 in0.0 mm 0.00 in0.0 mm 0.00 in0.0 mm
06:42 AM 42.0°F5.6°C 20.0°F-6.7°C 41% 3.8 mph NNW6.1 kmh NNW 13.2 mph21.2 kmh 30.15 in1021.0 mb 0.00 in0.0 mm 0.00 in0.0 mm 0.00 in0.0 mm
06:41 AM 42.0°F5.6°C 20.0°F-6.7°C 41% 3.8 mph NNW6.1 kmh NNW 13.2 mph21.2 kmh 30.12 in1020.0 mb 0.00 in0.0 mm 0.00 in0.0 mm 0.00 in0.0 mm
06:39 AM 42.0°F5.6°C 20.0°F-6.7°C 41% 4.3 mph NNW6.9 kmh NNW 13.2 mph21.2 kmh 30.12 in1020.0 mb 0.00 in0.0 mm 0.00 in0.0 mm 0.00 in0.0 mm
06:38 AM 42.0°F5.6°C 20.0°F-6.7°C 41% 5.9 mph WNW9.5 kmh WNW 13.2 mph21.2 kmh 30.12 in1020.0 mb 0.00 in0.0 mm 0.00 in0.0 mm 0.00 in0.0 mm
06:37 AM 42.0°F5.6°C 20.0°F-6.7°C 41% 6.4 mph NNW10.3 kmh NNW 13.2 mph21.2 kmh 30.12 in1020.0 mb 0.00 in0.0 mm 0.00 in0.0 mm 0.00 in0.0 mm
06:36 AM 42.0°F5.6°C 20.0°F-6.7°C 41% 7.5 mph NNW12.1 kmh NNW 13.2 mph21.2 kmh 30.12 in1020.0 mb 0.00 in0.0 mm 0.00 in0.0 mm 0.00 in0.0 mm
06:35 AM 42.0°F5.6°C 20.0°F-6.7°C 41% 8.1 mph N13.0 kmh N 13.2 mph21.2 kmh 30.12 in1020.0 mb 0.00 in0.0 mm 0.00 in0.0 mm 0.00 in0.0 mm
06:34 AM 42.0°F5.6°C 20.0°F-6.7°C 41% 7.5 mph NW12.1 kmh NW 12.1 mph19.5 kmh 30.12 in1020.0 mb 0.00 in0.0 mm 0.00 in0.0 mm 0.00 in0.0 mm
06:33 AM 42.0°F5.6°C 20.0°F-6.7°C 41% 4.8 mph NW7.7 kmh NW 12.1 mph19.5 kmh 30.12 in1020.0 mb 0.00 in0.0 mm 0.00 in0.0 mm 0.00 in0.0 mm
06:31 AM 42.0°F5.6°C 20.0°F-6.7°C 41% 7.0 mph NNW11.3 kmh NNW 11.5 mph18.5 kmh 30.12 in1020.0 mb 0.00 in0.0 mm 0.00 in0.0 mm 0.00 in0.0 mm
06:30 AM 42.0°F5.6°C 20.0°F-6.7°C 41% 5.4 mph NNW8.7 kmh NNW 10.5 mph16.9 kmh 30.12 in1020.0 mb 0.00 in0.0 mm 0.00 in0.0 mm 0.00 in0.0 mm
06:28 AM 41.8°F5.4°C 19.8°F-6.8°C 41% 3.8 mph N6.1 kmh N 10.5 mph16.9 kmh 30.12 in1020.0 mb 0.00 in0.0 mm 0.00 in0.0 mm 0.00 in0.0 mm
06:27 AM 41.8°F5.4°C 19.8°F-6.8°C 41% 10.5 mph N16.9 kmh N 10.5 mph16.9 kmh 30.12 in1020.0 mb 0.00 in0.0 mm 0.00 in0.0 mm 0.00 in0.0 mm
06:25 AM 41.8°F5.4°C 19.8°F-6.8°C 41% 9.1 mph NNW14.6 kmh NNW 9.7 mph15.6 kmh 30.12 in1020.0 mb 0.00 in0.0 mm 0.00 in0.0 mm 0.00 in0.0 mm
06:23 AM 41.8°F5.4°C 19.8°F-6.8°C 41% 8.1 mph N13.0 kmh N 9.7 mph15.6 kmh 30.12 in1020.0 mb 0.00 in0.0 mm 0.00 in0.0 mm 0.00 in0.0 mm
06:21 AM 41.8°F5.4°C 19.8°F-6.8°C 41% 7.0 mph NNW11.3 kmh NNW 9.7 mph15.6 kmh 30.12 in1020.0 mb 0.00 in0.0 mm 0.00 in0.0 mm 0.00 in0.0 mm
06:20 AM 41.8°F5.4°C 19.8°F-6.8°C 41% 3.2 mph 5.1 kmh 9.7 mph15.6 kmh 30.12 in1020.0 mb 0.00 in0.0 mm 0.00 in0.0 mm 0.00 in0.0 mm
06:19 AM 41.8°F5.4°C 19.8°F-6.8°C 41% 5.9 mph NW9.5 kmh NW 10.5 mph16.9 kmh 30.12 in1020.0 mb 0.00 in0.0 mm 0.00 in0.0 mm 0.00 in0.0 mm
06:18 AM 41.8°F5.4°C 19.8°F-6.8°C 41% 5.9 mph NNE9.5 kmh NNE 10.5 mph16.9 kmh 30.12 in1020.0 mb 0.00 in0.0 mm 0.00 in0.0 mm 0.00 in0.0 mm
06:16 AM 41.8°F5.4°C 19.8°F-6.8°C 41% 4.8 mph NW7.7 kmh NW 10.5 mph16.9 kmh 30.12 in1020.0 mb 0.00 in0.0 mm 0.00 in0.0 mm 0.00 in0.0 mm
06:14 AM 41.8°F5.4°C 19.8°F-6.8°C 41% 4.8 mph NNW7.7 kmh NNW 10.5 mph16.9 kmh 30.12 in1020.0 mb 0.00 in0.0 mm 0.00 in0.0 mm 0.00 in0.0 mm
06:13 AM 41.8°F5.4°C 19.8°F-6.8°C 41% 4.3 mph NNW6.9 kmh NNW 10.5 mph16.9 kmh 30.12 in1020.0 mb 0.00 in0.0 mm 0.00 in0.0 mm 0.00 in0.0 mm
06:12 AM 41.8°F5.4°C 20.4°F-6.4°C 42% 10.5 mph NW16.9 kmh NW 10.5 mph16.9 kmh 30.12 in1020.0 mb 0.00 in0.0 mm 0.00 in0.0 mm 0.00 in0.0 mm
06:10 AM 41.8°F5.4°C 20.4°F-6.4°C 42% 4.8 mph NNE7.7 kmh NNE 9.9 mph15.9 kmh 30.12 in1020.0 mb 0.00 in0.0 mm 0.00 in0.0 mm 0.00 in0.0 mm
06:09 AM 41.8°F5.4°C 20.4°F-6.4°C 42% 4.8 mph NW7.7 kmh NW 9.9 mph15.9 kmh 30.12 in1020.0 mb 0.00 in0.0 mm 0.00 in0.0 mm 0.00 in0.0 mm
06:07 AM 42.0°F5.6°C 20.6°F-6.3°C 42% 3.8 mph NW6.1 kmh NW 9.9 mph15.9 kmh 30.12 in1020.0 mb 0.00 in0.0 mm 0.00 in0.0 mm 0.00 in0.0 mm
06:06 AM 42.0°F5.6°C 20.6°F-6.3°C 42% 4.3 mph NNW6.9 kmh NNW 9.9 mph15.9 kmh 30.12 in1020.0 mb 0.00 in0.0 mm 0.00 in0.0 mm 0.00 in0.0 mm
06:05 AM 42.0°F5.6°C 20.6°F-6.3°C 42% 7.5 mph NNW12.1 kmh NNW 9.9 mph15.9 kmh 30.12 in1020.0 mb 0.00 in0.0 mm 0.00 in0.0 mm 0.00 in0.0 mm
06:04 AM 42.0°F5.6°C 20.6°F-6.3°C 42% 4.3 mph NW6.9 kmh NW 10.5 mph16.9 kmh 30.12 in1020.0 mb 0.00 in0.0 mm 0.00 in0.0 mm 0.00 in0.0 mm
06:02 AM 41.8°F5.4°C 20.4°F-6.4°C 42% 4.3 mph NW6.9 kmh NW 10.5 mph16.9 kmh 30.12 in1020.0 mb 0.00 in0.0 mm 0.00 in0.0 mm 0.00 in0.0 mm
06:00 AM 41.8°F5.4°C 20.4°F-6.4°C 42% 6.4 mph NW10.3 kmh NW 10.5 mph16.9 kmh 30.12 in1020.0 mb 0.00 in0.0 mm 0.00 in0.0 mm 0.00 in0.0 mm
05:59 AM 41.6°F5.3°C 20.2°F-6.6°C 42% 3.8 mph NNW6.1 kmh NNW 10.5 mph16.9 kmh 30.12 in1020.0 mb 0.00 in0.0 mm 0.00 in0.0 mm 0.00 in0.0 mm
05:58 AM 41.6°F5.3°C 20.2°F-6.6°C 42% 7.0 mph NW11.3 kmh NW 10.5 mph16.9 kmh 30.12 in1020.0 mb 0.00 in0.0 mm 0.00 in0.0 mm 0.00 in0.0 mm
05:56 AM 41.4°F5.2°C 20.1°F-6.6°C 42% 8.6 mph NW13.8 kmh NW 10.5 mph16.9 kmh 30.12 in1020.0 mb 0.00 in0.0 mm 0.00 in0.0 mm 0.00 in0.0 mm
05:55 AM 41.4°F5.2°C 20.1°F-6.6°C 42% 9.1 mph NW14.6 kmh NW 13.2 mph21.2 kmh 30.12 in1020.0 mb 0.00 in0.0 mm 0.00 in0.0 mm 0.00 in0.0 mm
05:53 AM 41.4°F5.2°C 20.1°F-6.6°C 42% 6.4 mph NW10.3 kmh NW 13.2 mph21.2 kmh 30.12 in1020.0 mb 0.00 in0.0 mm 0.00 in0.0 mm 0.00 in0.0 mm
05:52 AM 41.4°F5.2°C 20.1°F-6.6°C 42% 4.3 mph NW6.9 kmh NW 13.2 mph21.2 kmh 30.12 in1020.0 mb 0.00 in0.0 mm 0.00 in0.0 mm 0.00 in0.0 mm
05:50 AM 41.3°F5.2°C 19.9°F-6.7°C 42% 7.5 mph NW12.1 kmh NW 13.2 mph21.2 kmh 30.12 in1020.0 mb 0.00 in0.0 mm 0.00 in0.0 mm 0.00 in0.0 mm
05:49 AM 41.3°F5.2°C 19.9°F-6.7°C 42% 4.3 mph NNW6.9 kmh NNW 13.2 mph21.2 kmh 30.12 in1020.0 mb 0.00 in0.0 mm 0.00 in0.0 mm 0.00 in0.0 mm
05:48 AM 41.3°F5.2°C 19.9°F-6.7°C 42% 4.3 mph NNW6.9 kmh NNW 13.2 mph21.2 kmh 30.12 in1020.0 mb 0.00 in0.0 mm 0.00 in0.0 mm 0.00 in0.0 mm
05:47 AM 41.3°F5.2°C 19.9°F-6.7°C 42% 3.2 mph NNW5.1 kmh NNW 13.2 mph21.2 kmh 30.12 in1020.0 mb 0.00 in0.0 mm 0.00 in0.0 mm 0.00 in0.0 mm
05:45 AM 41.1°F5.1°C 19.8°F-6.8°C 42% 4.3 mph NW6.9 kmh NW 13.2 mph21.2 kmh 30.12 in1020.0 mb 0.00 in0.0 mm 0.00 in0.0 mm 0.00 in0.0 mm
05:43 AM 41.1°F5.1°C 19.8°F-6.8°C 42% Calm Calm 13.2 mph21.2 kmh 30.12 in1020.0 mb 0.00 in0.0 mm 0.00 in0.0 mm 0.00 in0.0 mm
05:42 AM 41.1°F5.1°C 19.8°F-6.8°C 42% 4.3 mph N6.9 kmh N 13.2 mph21.2 kmh 30.12 in1020.0 mb 0.00 in0.0 mm 0.00 in0.0 mm 0.00 in0.0 mm
05:41 AM 41.1°F5.1°C 19.8°F-6.8°C 42% 4.3 mph NW6.9 kmh NW 9.7 mph15.6 kmh 30.09 in1019.0 mb 0.00 in0.0 mm 0.00 in0.0 mm 0.00 in0.0 mm
05:40 AM 41.1°F5.1°C 19.8°F-6.8°C 42% 3.2 mph WNW5.1 kmh WNW 9.9 mph15.9 kmh 30.09 in1019.0 mb 0.00 in0.0 mm 0.00 in0.0 mm 0.00 in0.0 mm
05:38 AM 41.1°F5.1°C 19.8°F-6.8°C 42% 4.8 mph NNW7.7 kmh NNW 9.9 mph15.9 kmh 30.09 in1019.0 mb 0.00 in0.0 mm 0.00 in0.0 mm 0.00 in0.0 mm
05:37 AM 41.1°F5.1°C 19.8°F-6.8°C 42% 4.8 mph N7.7 kmh N 9.9 mph15.9 kmh 30.09 in1019.0 mb 0.00 in0.0 mm 0.00 in0.0 mm 0.00 in0.0 mm
05:35 AM 41.1°F5.1°C 19.8°F-6.8°C 42% 7.5 mph NNW12.1 kmh NNW 9.9 mph15.9 kmh 30.09 in1019.0 mb 0.00 in0.0 mm 0.00 in0.0 mm 0.00 in0.0 mm
05:34 AM 41.1°F5.1°C 19.8°F-6.8°C 42% 8.6 mph 13.8 kmh 9.9 mph15.9 kmh 30.09 in1019.0 mb 0.00 in0.0 mm 0.00 in0.0 mm 0.00 in0.0 mm
05:32 AM 41.1°F5.1°C 19.8°F-6.8°C 42% 5.9 mph NW9.5 kmh NW 9.9 mph15.9 kmh 30.09 in1019.0 mb 0.00 in0.0 mm 0.00 in0.0 mm 0.00 in0.0 mm
05:31 AM 41.3°F5.2°C 19.9°F-6.7°C 42% 4.3 mph NW6.9 kmh NW 12.6 mph20.3 kmh 30.09 in1019.0 mb 0.00 in0.0 mm 0.00 in0.0 mm 0.00 in0.0 mm
05:29 AM 41.3°F5.2°C 19.9°F-6.7°C 42% 3.2 mph NNW5.1 kmh NNW 12.6 mph20.3 kmh 30.09 in1019.0 mb 0.00 in0.0 mm 0.00 in0.0 mm 0.00 in0.0 mm
05:28 AM 41.3°F5.2°C 19.9°F-6.7°C 42% 3.8 mph NNW6.1 kmh NNW 13.2 mph21.2 kmh 30.09 in1019.0 mb 0.00 in0.0 mm 0.00 in0.0 mm 0.00 in0.0 mm
05:27 AM 41.3°F5.2°C 19.9°F-6.7°C 42% 5.9 mph NNW9.5 kmh NNW 13.2 mph21.2 kmh 30.09 in1019.0 mb 0.00 in0.0 mm 0.00 in0.0 mm 0.00 in0.0 mm
05:25 AM 41.3°F5.2°C 19.9°F-6.7°C 42% 7.0 mph NW11.3 kmh NW 13.2 mph21.2 kmh 30.09 in1019.0 mb 0.00 in0.0 mm 0.00 in0.0 mm 0.00 in0.0 mm
05:24 AM 41.3°F5.2°C 19.9°F-6.7°C 42% 4.3 mph NNW6.9 kmh NNW 13.2 mph21.2 kmh 30.09 in1019.0 mb 0.00 in0.0 mm 0.00 in0.0 mm 0.00 in0.0 mm
05:22 AM 41.3°F5.2°C 19.9°F-6.7°C 42% 7.0 mph NW11.3 kmh NW 13.2 mph21.2 kmh 30.09 in1019.0 mb 0.00 in0.0 mm 0.00 in0.0 mm 0.00 in0.0 mm
05:21 AM 41.4°F5.2°C 20.1°F-6.6°C 42% 6.4 mph NW10.3 kmh NW 8.6 mph13.8 kmh 30.09 in1019.0 mb 0.00 in0.0 mm 0.00 in0.0 mm 0.00 in0.0 mm
05:20 AM 41.4°F5.2°C 20.1°F-6.6°C 42% 4.8 mph NNW7.7 kmh NNW 8.6 mph13.8 kmh 30.09 in1019.0 mb 0.00 in0.0 mm 0.00 in0.0 mm 0.00 in0.0 mm
05:19 AM 41.4°F5.2°C 20.1°F-6.6°C 42% 4.3 mph NNW6.9 kmh NNW 8.6 mph13.8 kmh 30.09 in1019.0 mb 0.00 in0.0 mm 0.00 in0.0 mm 0.00 in0.0 mm
05:17 AM 41.4°F5.2°C 20.1°F-6.6°C 42% 4.8 mph NW7.7 kmh NW 8.6 mph13.8 kmh 30.09 in1019.0 mb 0.00 in0.0 mm 0.00 in0.0 mm 0.00 in0.0 mm
05:15 AM 41.4°F5.2°C 20.1°F-6.6°C 42% 4.8 mph NNW7.7 kmh NNW 8.1 mph13.0 kmh 30.09 in1019.0 mb 0.00 in0.0 mm 0.00 in0.0 mm 0.00 in0.0 mm
05:14 AM 41.4°F5.2°C 20.1°F-6.6°C 42% 5.9 mph NNW9.5 kmh NNW 9.7 mph15.6 kmh 30.09 in1019.0 mb 0.00 in0.0 mm 0.00 in0.0 mm 0.00 in0.0 mm
05:13 AM 41.4°F5.2°C 20.1°F-6.6°C 42% 7.0 mph WNW11.3 kmh WNW 9.9 mph15.9 kmh 30.09 in1019.0 mb 0.00 in0.0 mm 0.00 in0.0 mm 0.00 in0.0 mm
05:11 AM 41.6°F5.3°C 20.2°F-6.6°C 42% 3.8 mph NNW6.1 kmh NNW 9.9 mph15.9 kmh 30.09 in1019.0 mb 0.00 in0.0 mm 0.00 in0.0 mm 0.00 in0.0 mm
05:10 AM 41.6°F5.3°C 20.2°F-6.6°C 42% 4.8 mph NNW7.7 kmh NNW 9.9 mph15.9 kmh 30.09 in1019.0 mb 0.00 in0.0 mm 0.00 in0.0 mm 0.00 in0.0 mm
05:09 AM 41.6°F5.3°C 20.2°F-6.6°C 42% 5.9 mph NW9.5 kmh NW 9.9 mph15.9 kmh 30.09 in1019.0 mb 0.00 in0.0 mm 0.00 in0.0 mm 0.00 in0.0 mm
05:07 AM 41.6°F5.3°C 20.2°F-6.6°C 42% 6.4 mph NW10.3 kmh NW 9.9 mph15.9 kmh 30.09 in1019.0 mb 0.00 in0.0 mm 0.00 in0.0 mm 0.00 in0.0 mm
05:06 AM 41.6°F5.3°C 20.2°F-6.6°C 42% 7.5 mph NW12.1 kmh NW 9.1 mph14.6 kmh 30.09 in1019.0 mb 0.00 in0.0 mm 0.00 in0.0 mm 0.00 in0.0 mm
05:04 AM 41.6°F5.3°C 20.2°F-6.6°C 42% 5.9 mph NNW9.5 kmh NNW 9.7 mph15.6 kmh 30.09 in1019.0 mb 0.00 in0.0 mm 0.00 in0.0 mm 0.00 in0.0 mm
05:03 AM 41.8°F5.4°C 20.4°F-6.4°C 42% 7.5 mph 12.1 kmh 12.1 mph19.5 kmh 30.09 in1019.0 mb 0.00 in0.0 mm 0.00 in0.0 mm 0.00 in0.0 mm
05:02 AM 41.8°F5.4°C 20.4°F-6.4°C 42% 4.3 mph NW6.9 kmh NW 12.1 mph19.5 kmh 30.09 in1019.0 mb 0.00 in0.0 mm 0.00 in0.0 mm 0.00 in0.0 mm
05:00 AM 41.8°F5.4°C 20.4°F-6.4°C 42% 9.1 mph NW14.6 kmh NW 12.1 mph19.5 kmh 30.09 in1019.0 mb 0.00 in0.0 mm 0.00 in0.0 mm 0.00 in0.0 mm
04:59 AM 41.8°F5.4°C 20.4°F-6.4°C 42% 8.1 mph NNW13.0 kmh NNW 12.1 mph19.5 kmh 30.09 in1019.0 mb 0.00 in0.0 mm 0.00 in0.0 mm 0.00 in0.0 mm
04:58 AM 41.8°F5.4°C 20.4°F-6.4°C 42% 7.0 mph NNW11.3 kmh NNW 12.1 mph19.5 kmh 30.09 in1019.0 mb 0.00 in0.0 mm 0.00 in0.0 mm 0.00 in0.0 mm
04:56 AM 41.8°F5.4°C 20.4°F-6.4°C 42% 9.1 mph NW14.6 kmh NW 12.1 mph19.5 kmh 30.09 in1019.0 mb 0.00 in0.0 mm 0.00 in0.0 mm 0.00 in0.0 mm
04:54 AM 41.8°F5.4°C 20.4°F-6.4°C 42% 6.4 mph NW10.3 kmh NW 9.7 mph15.6 kmh 30.09 in1019.0 mb 0.00 in0.0 mm 0.00 in0.0 mm 0.00 in0.0 mm
04:53 AM 42.0°F5.6°C 20.6°F-6.3°C 42% 4.8 mph NW7.7 kmh NW 9.7 mph15.6 kmh 30.09 in1019.0 mb 0.00 in0.0 mm 0.00 in0.0 mm 0.00 in0.0 mm
04:52 AM 42.0°F5.6°C 20.6°F-6.3°C 42% 8.6 mph N13.8 kmh N 9.7 mph15.6 kmh 30.09 in1019.0 mb 0.00 in0.0 mm 0.00 in0.0 mm 0.00 in0.0 mm
04:50 AM 42.0°F5.6°C 20.6°F-6.3°C 42% 7.0 mph WNW11.3 kmh WNW 9.7 mph15.6 kmh 30.09 in1019.0 mb 0.00 in0.0 mm 0.00 in0.0 mm 0.00 in0.0 mm
04:49 AM 42.0°F5.6°C 20.6°F-6.3°C 42% 6.4 mph WSW10.3 kmh WSW 9.7 mph15.6 kmh 30.09 in1019.0 mb 0.00 in0.0 mm 0.00 in0.0 mm 0.00 in0.0 mm
04:47 AM 42.2°F5.7°C 20.7°F-6.3°C 42% 9.7 mph WNW15.6 kmh WNW 9.7 mph15.6 kmh 30.09 in1019.0 mb 0.00 in0.0 mm 0.00 in0.0 mm 0.00 in0.0 mm
04:46 AM 42.2°F5.7°C 20.7°F-6.3°C 42% 6.4 mph NNW10.3 kmh NNW 9.7 mph15.6 kmh 30.09 in1019.0 mb 0.00 in0.0 mm 0.00 in0.0 mm 0.00 in0.0 mm
04:45 AM 42.2°F5.7°C 20.7°F-6.3°C 42% 4.3 mph NNW6.9 kmh NNW 14.8 mph23.8 kmh 30.09 in1019.0 mb 0.00 in0.0 mm 0.00 in0.0 mm 0.00 in0.0 mm
04:43 AM 42.3°F5.7°C 20.9°F-6.2°C 42% 4.8 mph NW7.7 kmh NW 14.8 mph23.8 kmh 30.09 in1019.0 mb 0.00 in0.0 mm 0.00 in0.0 mm 0.00 in0.0 mm
04:42 AM 42.3°F5.7°C 20.9°F-6.2°C 42% 7.5 mph NNW12.1 kmh NNW 14.8 mph23.8 kmh 30.09 in1019.0 mb 0.00 in0.0 mm 0.00 in0.0 mm 0.00 in0.0 mm
04:40 AM 42.3°F5.7°C 20.9°F-6.2°C 42% 5.9 mph NW9.5 kmh NW 14.8 mph23.8 kmh 30.09 in1019.0 mb 0.00 in0.0 mm 0.00 in0.0 mm 0.00 in0.0 mm
04:39 AM 42.3°F5.7°C 20.9°F-6.2°C 42% 9.1 mph NW14.6 kmh NW 14.8 mph23.8 kmh 30.09 in1019.0 mb 0.00 in0.0 mm 0.00 in0.0 mm 0.00 in0.0 mm
04:38 AM 42.3°F5.7°C 20.9°F-6.2°C 42% 7.5 mph WNW12.1 kmh WNW 11.5 mph18.5 kmh 30.09 in1019.0 mb 0.00 in0.0 mm 0.00 in0.0 mm 0.00 in0.0 mm
04:37 AM 42.3°F5.7°C 20.9°F-6.2°C 42% 6.4 mph NNW10.3 kmh NNW 11.5 mph18.5 kmh 30.09 in1019.0 mb 0.00 in0.0 mm 0.00 in0.0 mm 0.00 in0.0 mm
04:35 AM 42.5°F5.8°C 21.1°F-6.1°C 42% 6.4 mph WNW10.3 kmh WNW 11.5 mph18.5 kmh 30.09 in1019.0 mb 0.00 in0.0 mm 0.00 in0.0 mm 0.00 in0.0 mm
04:34 AM 42.5°F5.8°C 21.1°F-6.1°C 42% 9.7 mph NW15.6 kmh NW 11.5 mph18.5 kmh 30.09 in1019.0 mb 0.00 in0.0 mm 0.00 in0.0 mm 0.00 in0.0 mm
04:32 AM 42.5°F5.8°C 21.1°F-6.1°C 42% 11.5 mph NW18.5 kmh NW 11.5 mph18.5 kmh 30.09 in1019.0 mb 0.00 in0.0 mm 0.00 in0.0 mm 0.00 in0.0 mm
04:31 AM 42.5°F5.8°C 21.1°F-6.1°C 42% 3.8 mph NNW6.1 kmh NNW 9.9 mph15.9 kmh 30.09 in1019.0 mb 0.00 in0.0 mm 0.00 in0.0 mm 0.00 in0.0 mm
04:29 AM 42.7°F5.9°C 21.2°F-6.0°C 42% 9.1 mph NNW14.6 kmh NNW 9.9 mph15.9 kmh 30.09 in1019.0 mb 0.00 in0.0 mm 0.00 in0.0 mm 0.00 in0.0 mm
04:28 AM 42.7°F5.9°C 21.2°F-6.0°C 42% 7.0 mph NNW11.3 kmh NNW 10.5 mph16.9 kmh 30.09 in1019.0 mb 0.00 in0.0 mm 0.00 in0.0 mm 0.00 in0.0 mm
04:26 AM 42.7°F5.9°C 21.2°F-6.0°C 42% 4.8 mph NW7.7 kmh NW 10.5 mph16.9 kmh 30.09 in1019.0 mb 0.00 in0.0 mm 0.00 in0.0 mm 0.00 in0.0 mm
04:25 AM 42.9°F6.1°C 21.4°F-5.9°C 42% 7.0 mph 11.3 kmh 12.1 mph19.5 kmh 30.09 in1019.0 mb 0.00 in0.0 mm 0.00 in0.0 mm 0.00 in0.0 mm
04:24 AM 42.9°F6.1°C 21.4°F-5.9°C 42% 7.0 mph W11.3 kmh W 14.8 mph23.8 kmh 30.09 in1019.0 mb 0.00 in0.0 mm 0.00 in0.0 mm 0.00 in0.0 mm
04:23 AM 42.9°F6.1°C 21.4°F-5.9°C 42% 7.0 mph NNW11.3 kmh NNW 14.8 mph23.8 kmh 30.09 in1019.0 mb 0.00 in0.0 mm 0.00 in0.0 mm 0.00 in0.0 mm
04:22 AM 42.9°F6.1°C 21.4°F-5.9°C 42% 7.0 mph NW11.3 kmh NW 14.8 mph23.8 kmh 30.09 in1019.0 mb 0.00 in0.0 mm 0.00 in0.0 mm 0.00 in0.0 mm
04:21 AM 43.1°F6.2°C 21.6°F-5.8°C 42% 10.5 mph WNW16.9 kmh WNW 14.8 mph23.8 kmh 30.09 in1019.0 mb 0.00 in0.0 mm 0.00 in0.0 mm 0.00 in0.0 mm
04:19 AM 43.1°F6.2°C 21.6°F-5.8°C 42% 6.4 mph NW10.3 kmh NW 14.8 mph23.8 kmh 30.09 in1019.0 mb 0.00 in0.0 mm 0.00 in0.0 mm 0.00 in0.0 mm
04:18 AM 43.1°F6.2°C 21.6°F-5.8°C 42% 5.4 mph NNW8.7 kmh NNW 14.8 mph23.8 kmh 30.09 in1019.0 mb 0.00 in0.0 mm 0.00 in0.0 mm 0.00 in0.0 mm
04:17 AM 43.1°F6.2°C 21.6°F-5.8°C 42% 8.1 mph NW13.0 kmh NW 13.7 mph22.0 kmh 30.09 in1019.0 mb 0.00 in0.0 mm 0.00 in0.0 mm 0.00 in0.0 mm
04:15 AM 43.1°F6.2°C 21.6°F-5.8°C 42% 9.7 mph NW15.6 kmh NW 13.7 mph22.0 kmh 30.09 in1019.0 mb 0.00 in0.0 mm 0.00 in0.0 mm 0.00 in0.0 mm
04:14 AM 43.2°F6.2°C 21.7°F-5.7°C 42% 9.9 mph NW15.9 kmh NW 12.6 mph20.3 kmh 30.09 in1019.0 mb 0.00 in0.0 mm 0.00 in0.0 mm 0.00 in0.0 mm
04:13 AM 43.2°F6.2°C 21.7°F-5.7°C 42% 6.4 mph NW10.3 kmh NW 13.2 mph21.2 kmh 30.09 in1019.0 mb 0.00 in0.0 mm 0.00 in0.0 mm 0.00 in0.0 mm
04:12 AM 43.2°F6.2°C 21.7°F-5.7°C 42% 9.9 mph NW15.9 kmh NW 13.2 mph21.2 kmh 30.09 in1019.0 mb 0.00 in0.0 mm 0.00 in0.0 mm 0.00 in0.0 mm
04:10 AM 43.2°F6.2°C 21.7°F-5.7°C 42% 7.5 mph W12.1 kmh W 13.2 mph21.2 kmh 30.09 in1019.0 mb 0.00 in0.0 mm 0.00 in0.0 mm 0.00 in0.0 mm
04:08 AM 43.2°F6.2°C 21.7°F-5.7°C 42% 7.0 mph W11.3 kmh W 13.2 mph21.2 kmh 30.09 in1019.0 mb 0.00 in0.0 mm 0.00 in0.0 mm 0.00 in0.0 mm
04:07 AM 43.2°F6.2°C 21.7°F-5.7°C 42% 7.0 mph W11.3 kmh W 13.2 mph21.2 kmh 30.09 in1019.0 mb 0.00 in0.0 mm 0.00 in0.0 mm 0.00 in0.0 mm
04:05 AM 43.2°F6.2°C 21.7°F-5.7°C 42% 7.5 mph WNW12.1 kmh WNW 9.9 mph15.9 kmh 30.09 in1019.0 mb 0.00 in0.0 mm 0.00 in0.0 mm 0.00 in0.0 mm
04:03 AM 43.4°F6.3°C 21.9°F-5.6°C 42% 7.5 mph NNW12.1 kmh NNW 15.8 mph25.4 kmh 30.09 in1019.0 mb 0.00 in0.0 mm 0.00 in0.0 mm 0.00 in0.0 mm
04:01 AM 43.4°F6.3°C 21.9°F-5.6°C 42% 7.0 mph N11.3 kmh N 15.8 mph25.4 kmh 30.09 in1019.0 mb 0.00 in0.0 mm 0.00 in0.0 mm 0.00 in0.0 mm
04:00 AM 43.4°F6.3°C 21.9°F-5.6°C 42% 6.4 mph WNW10.3 kmh WNW 15.8 mph25.4 kmh 30.09 in1019.0 mb 0.00 in0.0 mm 0.00 in0.0 mm 0.00 in0.0 mm
03:59 AM 43.4°F6.3°C 21.9°F-5.6°C 42% 4.8 mph NNW7.7 kmh NNW 15.8 mph25.4 kmh 30.09 in1019.0 mb 0.00 in0.0 mm 0.00 in0.0 mm 0.00 in0.0 mm
03:58 AM 43.4°F6.3°C 21.9°F-5.6°C 42% 7.5 mph NNW12.1 kmh NNW 15.8 mph25.4 kmh 30.09 in1019.0 mb 0.00 in0.0 mm 0.00 in0.0 mm 0.00 in0.0 mm
03:57 AM 43.4°F6.3°C 21.9°F-5.6°C 42% 6.4 mph N10.3 kmh N 15.8 mph25.4 kmh 30.09 in1019.0 mb 0.00 in0.0 mm 0.00 in0.0 mm 0.00 in0.0 mm
03:56 AM 43.6°F6.4°C 21.5°F-5.8°C 41% 15.8 mph N25.4 kmh N 15.8 mph25.4 kmh 30.09 in1019.0 mb 0.00 in0.0 mm 0.00 in0.0 mm 0.00 in0.0 mm
03:54 AM 43.6°F6.4°C 21.5°F-5.8°C 41% 4.8 mph NW7.7 kmh NW 12.6 mph20.3 kmh 30.09 in1019.0 mb 0.00 in0.0 mm 0.00 in0.0 mm 0.00 in0.0 mm
03:53 AM 43.6°F6.4°C 21.5°F-5.8°C 41% 3.8 mph NNW6.1 kmh NNW 12.6 mph20.3 kmh 30.09 in1019.0 mb 0.00 in0.0 mm 0.00 in0.0 mm 0.00 in0.0 mm
03:52 AM 43.6°F6.4°C 21.5°F-5.8°C 41% 6.4 mph N10.3 kmh N 12.6 mph20.3 kmh 30.09 in1019.0 mb 0.00 in0.0 mm 0.00 in0.0 mm 0.00 in0.0 mm
03:50 AM 43.6°F6.4°C 21.5°F-5.8°C 41% 6.4 mph WNW10.3 kmh WNW 12.6 mph20.3 kmh 30.09 in1019.0 mb 0.00 in0.0 mm 0.00 in0.0 mm 0.00 in0.0 mm
03:49 AM 43.6°F6.4°C 21.5°F-5.8°C 41% 12.6 mph NW20.3 kmh NW 12.6 mph20.3 kmh 30.09 in1019.0 mb 0.00 in0.0 mm 0.00 in0.0 mm 0.00 in0.0 mm
03:47 AM 43.8°F6.6°C 21.6°F-5.8°C 41% 7.5 mph WSW12.1 kmh WSW 9.7 mph15.6 kmh 30.09 in1019.0 mb 0.00 in0.0 mm 0.00 in0.0 mm 0.00 in0.0 mm
03:46 AM 43.8°F6.6°C 21.6°F-5.8°C 41% 3.2 mph WNW5.1 kmh WNW 7.5 mph12.1 kmh 30.09 in1019.0 mb 0.00 in0.0 mm 0.00 in0.0 mm 0.00 in0.0 mm
03:44 AM 43.8°F6.6°C 21.6°F-5.8°C 41% 4.3 mph WNW6.9 kmh WNW 7.5 mph12.1 kmh 30.09 in1019.0 mb 0.00 in0.0 mm 0.00 in0.0 mm 0.00 in0.0 mm
03:42 AM 43.8°F6.6°C 21.6°F-5.8°C 41% 5.9 mph NNW9.5 kmh NNW 9.9 mph15.9 kmh 30.09 in1019.0 mb 0.00 in0.0 mm 0.00 in0.0 mm 0.00 in0.0 mm
03:40 AM 43.8°F6.6°C 21.6°F-5.8°C 41% 7.5 mph NW12.1 kmh NW 9.9 mph15.9 kmh 30.09 in1019.0 mb 0.00 in0.0 mm 0.00 in0.0 mm 0.00 in0.0 mm
03:39 AM 43.8°F6.6°C 21.6°F-5.8°C 41% 6.4 mph N10.3 kmh N 10.5 mph16.9 kmh 30.09 in1019.0 mb 0.00 in0.0 mm 0.00 in0.0 mm 0.00 in0.0 mm
03:37 AM 43.8°F6.6°C 21.6°F-5.8°C 41% 6.4 mph WNW10.3 kmh WNW 10.5 mph16.9 kmh 30.09 in1019.0 mb 0.00 in0.0 mm 0.00 in0.0 mm 0.00 in0.0 mm
03:36 AM 44.0°F6.7°C 21.8°F-5.7°C 41% 4.8 mph W7.7 kmh W 10.5 mph16.9 kmh 30.09 in1019.0 mb 0.00 in0.0 mm 0.00 in0.0 mm 0.00 in0.0 mm
03:35 AM 44.0°F6.7°C 21.8°F-5.7°C 41% 7.0 mph WSW11.3 kmh WSW 10.5 mph16.9 kmh 30.09 in1019.0 mb 0.00 in0.0 mm 0.00 in0.0 mm 0.00 in0.0 mm
03:34 AM 44.0°F6.7°C 21.8°F-5.7°C 41% 7.0 mph NW11.3 kmh NW 10.5 mph16.9 kmh 30.09 in1019.0 mb 0.00 in0.0 mm 0.00 in0.0 mm 0.00 in0.0 mm
03:32 AM 44.0°F6.7°C 21.8°F-5.7°C 41% 10.5 mph NW16.9 kmh NW 10.5 mph16.9 kmh 30.09 in1019.0 mb 0.00 in0.0 mm 0.00 in0.0 mm 0.00 in0.0 mm
03:30 AM 44.0°F6.7°C 21.8°F-5.7°C 41% 7.5 mph NNW12.1 kmh NNW 10.5 mph16.9 kmh 30.09 in1019.0 mb 0.00 in0.0 mm 0.00 in0.0 mm 0.00 in0.0 mm
03:29 AM 44.0°F6.7°C 21.8°F-5.7°C 41% 8.6 mph W13.8 kmh W 10.5 mph16.9 kmh 30.09 in1019.0 mb 0.00 in0.0 mm 0.00 in0.0 mm 0.00 in0.0 mm
03:28 AM 44.0°F6.7°C 21.8°F-5.7°C 41% 7.5 mph W12.1 kmh W 10.5 mph16.9 kmh 30.09 in1019.0 mb 0.00 in0.0 mm 0.00 in0.0 mm 0.00 in0.0 mm
03:27 AM 44.0°F6.7°C 21.8°F-5.7°C 41% 4.8 mph NW7.7 kmh NW 10.5 mph16.9 kmh 30.09 in1019.0 mb 0.00 in0.0 mm 0.00 in0.0 mm 0.00 in0.0 mm
03:25 AM 44.0°F6.7°C 21.8°F-5.7°C 41% 7.0 mph WNW11.3 kmh WNW 11.5 mph18.5 kmh 30.09 in1019.0 mb 0.00 in0.0 mm 0.00 in0.0 mm 0.00 in0.0 mm
03:23 AM 44.0°F6.7°C 21.8°F-5.7°C 41% 4.8 mph WNW7.7 kmh WNW 11.5 mph18.5 kmh 30.09 in1019.0 mb 0.00 in0.0 mm 0.00 in0.0 mm 0.00 in0.0 mm
03:22 AM 44.0°F6.7°C 21.8°F-5.7°C 41% 3.8 mph NW6.1 kmh NW 11.5 mph18.5 kmh 30.09 in1019.0 mb 0.00 in0.0 mm 0.00 in0.0 mm 0.00 in0.0 mm
03:21 AM 44.0°F6.7°C 21.8°F-5.7°C 41% 7.5 mph WNW12.1 kmh WNW 11.5 mph18.5 kmh 30.09 in1019.0 mb 0.00 in0.0 mm 0.00 in0.0 mm 0.00 in0.0 mm
03:20 AM 44.0°F6.7°C 21.8°F-5.7°C 41% 4.8 mph NNW7.7 kmh NNW 11.5 mph18.5 kmh 30.09 in1019.0 mb 0.00 in0.0 mm 0.00 in0.0 mm 0.00 in0.0 mm
03:18 AM 44.1°F6.7°C 22.0°F-5.6°C 41% 3.2 mph NW5.1 kmh NW 7.0 mph11.3 kmh 30.09 in1019.0 mb 0.00 in0.0 mm 0.00 in0.0 mm 0.00 in0.0 mm
03:17 AM 44.1°F6.7°C 22.0°F-5.6°C 41% 4.8 mph NW7.7 kmh NW 7.5 mph12.1 kmh 30.09 in1019.0 mb 0.00 in0.0 mm 0.00 in0.0 mm 0.00 in0.0 mm
03:15 AM 44.1°F6.7°C 22.0°F-5.6°C 41% 3.2 mph NNW5.1 kmh NNW 7.5 mph12.1 kmh 30.09 in1019.0 mb 0.00 in0.0 mm 0.00 in0.0 mm 0.00 in0.0 mm
03:14 AM 44.1°F6.7°C 22.0°F-5.6°C 41% 4.3 mph WNW6.9 kmh WNW 7.5 mph12.1 kmh 30.09 in1019.0 mb 0.00 in0.0 mm 0.00 in0.0 mm 0.00 in0.0 mm
03:12 AM 44.1°F6.7°C 22.0°F-5.6°C 41% 4.8 mph NW7.7 kmh NW 7.5 mph12.1 kmh 30.09 in1019.0 mb 0.00 in0.0 mm 0.00 in0.0 mm 0.00 in0.0 mm
03:11 AM 44.0°F6.7°C 21.8°F-5.7°C 41% 3.8 mph NW6.1 kmh NW 7.5 mph12.1 kmh 30.09 in1019.0 mb 0.00 in0.0 mm 0.00 in0.0 mm 0.00 in0.0 mm
03:10 AM 44.0°F6.7°C 21.8°F-5.7°C 41% 7.5 mph W12.1 kmh W 7.5 mph12.1 kmh 30.09 in1019.0 mb 0.00 in0.0 mm 0.00 in0.0 mm 0.00 in0.0 mm
03:08 AM 44.0°F6.7°C 21.8°F-5.7°C 41% 6.4 mph WNW10.3 kmh WNW 9.1 mph14.6 kmh 30.09 in1019.0 mb 0.00 in0.0 mm 0.00 in0.0 mm 0.00 in0.0 mm
03:07 AM 44.1°F6.7°C 22.0°F-5.6°C 41% 3.8 mph NW6.1 kmh NW 9.1 mph14.6 kmh 30.09 in1019.0 mb 0.00 in0.0 mm 0.00 in0.0 mm 0.00 in0.0 mm
03:05 AM 44.1°F6.7°C 22.0°F-5.6°C 41% 3.2 mph NNW5.1 kmh NNW 9.1 mph14.6 kmh 30.09 in1019.0 mb 0.00 in0.0 mm 0.00 in0.0 mm 0.00 in0.0 mm
03:04 AM 44.1°F6.7°C 22.0°F-5.6°C 41% 4.8 mph NW7.7 kmh NW 9.1 mph14.6 kmh 30.09 in1019.0 mb 0.00 in0.0 mm 0.00 in0.0 mm 0.00 in0.0 mm
03:02 AM 44.1°F6.7°C 22.0°F-5.6°C 41% 4.8 mph NNW7.7 kmh NNW 9.1 mph14.6 kmh 30.09 in1019.0 mb 0.00 in0.0 mm 0.00 in0.0 mm 0.00 in0.0 mm
03:01 AM 44.1°F6.7°C 22.0°F-5.6°C 41% 7.0 mph NW11.3 kmh NW 9.1 mph14.6 kmh 30.09 in1019.0 mb 0.00 in0.0 mm 0.00 in0.0 mm 0.00 in0.0 mm
03:00 AM 44.1°F6.7°C 22.0°F-5.6°C 41% 7.5 mph WSW12.1 kmh WSW 9.1 mph14.6 kmh 30.09 in1019.0 mb 0.00 in0.0 mm 0.00 in0.0 mm 0.00 in0.0 mm
02:59 AM 44.1°F6.7°C 22.0°F-5.6°C 41% 5.9 mph WNW9.5 kmh WNW 9.1 mph14.6 kmh 30.09 in1019.0 mb 0.00 in0.0 mm 0.00 in0.0 mm 0.00 in0.0 mm
02:57 AM 44.1°F6.7°C 22.0°F-5.6°C 41% 7.5 mph NW12.1 kmh NW 9.7 mph15.6 kmh 30.09 in1019.0 mb 0.00 in0.0 mm 0.00 in0.0 mm 0.00 in0.0 mm
02:56 AM 44.1°F6.7°C 22.0°F-5.6°C 41% 6.4 mph W10.3 kmh W 9.7 mph15.6 kmh 30.09 in1019.0 mb 0.00 in0.0 mm 0.00 in0.0 mm 0.00 in0.0 mm
02:54 AM 44.1°F6.7°C 22.0°F-5.6°C 41% 4.3 mph WSW6.9 kmh WSW 9.7 mph15.6 kmh 30.09 in1019.0 mb 0.00 in0.0 mm 0.00 in0.0 mm 0.00 in0.0 mm
02:53 AM 44.1°F6.7°C 22.0°F-5.6°C 41% 3.2 mph WNW5.1 kmh WNW 9.7 mph15.6 kmh 30.09 in1019.0 mb 0.00 in0.0 mm 0.00 in0.0 mm 0.00 in0.0 mm
02:51 AM 44.1°F6.7°C 22.0°F-5.6°C 41% 4.8 mph NNW7.7 kmh NNW 7.5 mph12.1 kmh 30.09 in1019.0 mb 0.00 in0.0 mm 0.00 in0.0 mm 0.00 in0.0 mm
02:50 AM 44.1°F6.7°C 22.0°F-5.6°C 41% 7.0 mph SW11.3 kmh SW 7.5 mph12.1 kmh 30.09 in1019.0 mb 0.00 in0.0 mm 0.00 in0.0 mm 0.00 in0.0 mm
02:49 AM 44.1°F6.7°C 22.0°F-5.6°C 41% 3.8 mph WNW6.1 kmh WNW 9.1 mph14.6 kmh 30.09 in1019.0 mb 0.00 in0.0 mm 0.00 in0.0 mm 0.00 in0.0 mm
02:47 AM 44.1°F6.7°C 22.0°F-5.6°C 41% 4.3 mph W6.9 kmh W 9.7 mph15.6 kmh 30.09 in1019.0 mb 0.00 in0.0 mm 0.00 in0.0 mm 0.00 in0.0 mm
02:46 AM 44.1°F6.7°C 22.0°F-5.6°C 41% 4.8 mph SW7.7 kmh SW 9.7 mph15.6 kmh 30.09 in1019.0 mb 0.00 in0.0 mm 0.00 in0.0 mm 0.00 in0.0 mm
02:44 AM 44.1°F6.7°C 22.0°F-5.6°C 41% 3.8 mph NNW6.1 kmh NNW 9.7 mph15.6 kmh 30.09 in1019.0 mb 0.00 in0.0 mm 0.00 in0.0 mm 0.00 in0.0 mm
02:43 AM 44.1°F6.7°C 22.0°F-5.6°C 41% 4.8 mph WNW7.7 kmh WNW 9.7 mph15.6 kmh 30.09 in1019.0 mb 0.00 in0.0 mm 0.00 in0.0 mm 0.00 in0.0 mm
02:42 AM 44.1°F6.7°C 22.0°F-5.6°C 41% 7.5 mph NNW12.1 kmh NNW 9.7 mph15.6 kmh 30.09 in1019.0 mb 0.00 in0.0 mm 0.00 in0.0 mm 0.00 in0.0 mm
02:40 AM 44.1°F6.7°C 22.0°F-5.6°C 41% 7.5 mph WNW12.1 kmh WNW 9.7 mph15.6 kmh 30.09 in1019.0 mb 0.00 in0.0 mm 0.00 in0.0 mm 0.00 in0.0 mm
02:39 AM 44.1°F6.7°C 22.0°F-5.6°C 41% 7.0 mph WNW11.3 kmh WNW 7.5 mph12.1 kmh 30.09 in1019.0 mb 0.00 in0.0 mm 0.00 in0.0 mm 0.00 in0.0 mm
02:38 AM 44.1°F6.7°C 22.0°F-5.6°C 41% 4.8 mph WNW7.7 kmh WNW 9.9 mph15.9 kmh 30.09 in1019.0 mb 0.00 in0.0 mm 0.00 in0.0 mm 0.00 in0.0 mm
02:37 AM 44.1°F6.7°C 22.0°F-5.6°C 41% 4.3 mph N6.9 kmh N 9.9 mph15.9 kmh 30.09 in1019.0 mb 0.00 in0.0 mm 0.00 in0.0 mm 0.00 in0.0 mm
02:36 AM 44.1°F6.7°C 22.0°F-5.6°C 41% 3.8 mph W6.1 kmh W 9.9 mph15.9 kmh 30.09 in1019.0 mb 0.00 in0.0 mm 0.00 in0.0 mm 0.00 in0.0 mm
02:34 AM 44.1°F6.7°C 22.0°F-5.6°C 41% 7.0 mph NW11.3 kmh NW 12.1 mph19.5 kmh 30.09 in1019.0 mb 0.00 in0.0 mm 0.00 in0.0 mm 0.00 in0.0 mm
02:33 AM 44.1°F6.7°C 22.0°F-5.6°C 41% 7.0 mph WNW11.3 kmh WNW 12.1 mph19.5 kmh 30.09 in1019.0 mb 0.00 in0.0 mm 0.00 in0.0 mm 0.00 in0.0 mm
02:32 AM 44.1°F6.7°C 22.0°F-5.6°C 41% 4.3 mph W6.9 kmh W 12.1 mph19.5 kmh 30.09 in1019.0 mb 0.00 in0.0 mm 0.00 in0.0 mm 0.00 in0.0 mm
02:30 AM 44.0°F6.7°C 21.8°F-5.7°C 41% 6.4 mph NW10.3 kmh NW 12.1 mph19.5 kmh 30.09 in1019.0 mb 0.00 in0.0 mm 0.00 in0.0 mm 0.00 in0.0 mm
02:29 AM 44.0°F6.7°C 21.8°F-5.7°C 41% 5.9 mph WSW9.5 kmh WSW 12.1 mph19.5 kmh 30.09 in1019.0 mb 0.00 in0.0 mm 0.00 in0.0 mm 0.00 in0.0 mm
02:27 AM 44.0°F6.7°C 21.8°F-5.7°C 41% 7.0 mph WNW11.3 kmh WNW 12.1 mph19.5 kmh 30.09 in1019.0 mb 0.00 in0.0 mm 0.00 in0.0 mm 0.00 in0.0 mm
02:26 AM 44.0°F6.7°C 21.8°F-5.7°C 41% 8.6 mph W13.8 kmh W 9.7 mph15.6 kmh 30.09 in1019.0 mb 0.00 in0.0 mm 0.00 in0.0 mm 0.00 in0.0 mm
02:25 AM 44.0°F6.7°C 21.8°F-5.7°C 41% 3.2 mph WNW5.1 kmh WNW 9.7 mph15.6 kmh 30.09 in1019.0 mb 0.00 in0.0 mm 0.00 in0.0 mm 0.00 in0.0 mm
02:23 AM 44.0°F6.7°C 21.8°F-5.7°C 41% 2.7 mph NW4.3 kmh NW 9.7 mph15.6 kmh 30.09 in1019.0 mb 0.00 in0.0 mm 0.00 in0.0 mm 0.00 in0.0 mm
02:22 AM 44.0°F6.7°C 21.8°F-5.7°C 41% 7.0 mph W11.3 kmh W 9.7 mph15.6 kmh 30.09 in1019.0 mb 0.00 in0.0 mm 0.00 in0.0 mm 0.00 in0.0 mm
02:21 AM 44.0°F6.7°C 21.8°F-5.7°C 41% 5.9 mph WNW9.5 kmh WNW 9.1 mph14.6 kmh 30.09 in1019.0 mb 0.00 in0.0 mm 0.00 in0.0 mm 0.00 in0.0 mm
02:19 AM 44.0°F6.7°C 21.8°F-5.7°C 41% 6.4 mph WNW10.3 kmh WNW 9.7 mph15.6 kmh 30.09 in1019.0 mb 0.00 in0.0 mm 0.00 in0.0 mm 0.00 in0.0 mm
02:18 AM 44.0°F6.7°C 21.8°F-5.7°C 41% 5.4 mph W8.7 kmh W 12.1 mph19.5 kmh 30.09 in1019.0 mb 0.00 in0.0 mm 0.00 in0.0 mm 0.00 in0.0 mm
02:16 AM 44.0°F6.7°C 21.8°F-5.7°C 41% 3.8 mph WSW6.1 kmh WSW 12.1 mph19.5 kmh 30.09 in1019.0 mb 0.00 in0.0 mm 0.00 in0.0 mm 0.00 in0.0 mm
02:15 AM 43.8°F6.6°C 21.6°F-5.8°C 41% 4.3 mph NW6.9 kmh NW 12.1 mph19.5 kmh 30.09 in1019.0 mb 0.00 in0.0 mm 0.00 in0.0 mm 0.00 in0.0 mm
02:14 AM 43.8°F6.6°C 21.6°F-5.8°C 41% 5.9 mph WNW9.5 kmh WNW 12.1 mph19.5 kmh 30.09 in1019.0 mb 0.00 in0.0 mm 0.00 in0.0 mm 0.00 in0.0 mm
02:12 AM 43.8°F6.6°C 21.6°F-5.8°C 41% 8.1 mph NW13.0 kmh NW 12.1 mph19.5 kmh 30.09 in1019.0 mb 0.00 in0.0 mm 0.00 in0.0 mm 0.00 in0.0 mm
02:11 AM 43.8°F6.6°C 21.6°F-5.8°C 41% 6.4 mph NW10.3 kmh NW 12.1 mph19.5 kmh 30.09 in1019.0 mb 0.00 in0.0 mm 0.00 in0.0 mm 0.00 in0.0 mm
02:10 AM 43.8°F6.6°C 21.6°F-5.8°C 41% 4.3 mph NW6.9 kmh NW 12.1 mph19.5 kmh 30.06 in1017.9 mb 0.00 in0.0 mm 0.00 in0.0 mm 0.00 in0.0 mm
02:09 AM 43.8°F6.6°C 21.6°F-5.8°C 41% 3.8 mph NW6.1 kmh NW 12.1 mph19.5 kmh 30.06 in1017.9 mb 0.00 in0.0 mm 0.00 in0.0 mm 0.00 in0.0 mm
02:08 AM 43.8°F6.6°C 21.6°F-5.8°C 41% 9.9 mph W15.9 kmh W 12.1 mph19.5 kmh 30.06 in1017.9 mb 0.00 in0.0 mm 0.00 in0.0 mm 0.00 in0.0 mm
02:07 AM 43.6°F6.4°C 21.5°F-5.8°C 41% 4.3 mph WNW6.9 kmh WNW 12.1 mph19.5 kmh 30.06 in1017.9 mb 0.00 in0.0 mm 0.00 in0.0 mm 0.00 in0.0 mm
02:06 AM 43.6°F6.4°C 21.5°F-5.8°C 41% 6.4 mph WNW10.3 kmh WNW 12.1 mph19.5 kmh 30.06 in1017.9 mb 0.00 in0.0 mm 0.00 in0.0 mm 0.00 in0.0 mm
02:04 AM 43.6°F6.4°C 21.5°F-5.8°C 41% 4.8 mph WNW7.7 kmh WNW 9.9 mph15.9 kmh 30.06 in1017.9 mb 0.00 in0.0 mm 0.00 in0.0 mm 0.00 in0.0 mm
02:02 AM 43.6°F6.4°C 21.5°F-5.8°C 41% 3.2 mph NW5.1 kmh NW 12.6 mph20.3 kmh 30.06 in1017.9 mb 0.00 in0.0 mm 0.00 in0.0 mm 0.00 in0.0 mm
02:01 AM 43.6°F6.4°C 21.5°F-5.8°C 41% 4.8 mph W7.7 kmh W 12.6 mph20.3 kmh 30.06 in1017.9 mb 0.00 in0.0 mm 0.00 in0.0 mm 0.00 in0.0 mm
02:00 AM 43.6°F6.4°C 21.5°F-5.8°C 41% 6.4 mph WNW10.3 kmh WNW 12.6 mph20.3 kmh 30.06 in1017.9 mb 0.00 in0.0 mm 0.00 in0.0 mm 0.00 in0.0 mm
01:59 AM 43.6°F6.4°C 21.5°F-5.8°C 41% 6.4 mph WNW10.3 kmh WNW 12.6 mph20.3 kmh 30.06 in1017.9 mb 0.00 in0.0 mm 0.00 in0.0 mm 0.00 in0.0 mm
01:57 AM 43.4°F6.3°C 21.3°F-5.9°C 41% 4.8 mph W7.7 kmh W 12.6 mph20.3 kmh 30.06 in1017.9 mb 0.00 in0.0 mm 0.00 in0.0 mm 0.00 in0.0 mm
01:55 AM 43.4°F6.3°C 21.3°F-5.9°C 41% 7.0 mph WNW11.3 kmh WNW 12.1 mph19.5 kmh 30.06 in1017.9 mb 0.00 in0.0 mm 0.00 in0.0 mm 0.00 in0.0 mm
01:54 AM 43.2°F6.2°C 21.1°F-6.1°C 41% 9.1 mph WSW14.6 kmh WSW 9.9 mph15.9 kmh 30.06 in1017.9 mb 0.00 in0.0 mm 0.00 in0.0 mm 0.00 in0.0 mm
01:53 AM 43.2°F6.2°C 21.1°F-6.1°C 41% 6.4 mph NW10.3 kmh NW 9.7 mph15.6 kmh 30.06 in1017.9 mb 0.00 in0.0 mm 0.00 in0.0 mm 0.00 in0.0 mm
01:52 AM 43.2°F6.2°C 21.1°F-6.1°C 41% 6.4 mph WSW10.3 kmh WSW 9.7 mph15.6 kmh 30.06 in1017.9 mb 0.00 in0.0 mm 0.00 in0.0 mm 0.00 in0.0 mm
01:50 AM 43.2°F6.2°C 21.1°F-6.1°C 41% 6.4 mph NW10.3 kmh NW 9.7 mph15.6 kmh 30.06 in1017.9 mb 0.00 in0.0 mm 0.00 in0.0 mm 0.00 in0.0 mm
01:48 AM 43.2°F6.2°C 21.1°F-6.1°C 41% 5.9 mph NNW9.5 kmh NNW 9.7 mph15.6 kmh 30.06 in1017.9 mb 0.00 in0.0 mm 0.00 in0.0 mm 0.00 in0.0 mm
01:47 AM 43.2°F6.2°C 21.1°F-6.1°C 41% 3.2 mph W5.1 kmh W 9.7 mph15.6 kmh 30.06 in1017.9 mb 0.00 in0.0 mm 0.00 in0.0 mm 0.00 in0.0 mm
01:46 AM 43.2°F6.2°C 21.1°F-6.1°C 41% 4.8 mph W7.7 kmh W 9.7 mph15.6 kmh 30.06 in1017.9 mb 0.00 in0.0 mm 0.00 in0.0 mm 0.00 in0.0 mm
01:45 AM 43.2°F6.2°C 21.1°F-6.1°C 41% 7.0 mph W11.3 kmh W 9.7 mph15.6 kmh 30.06 in1017.9 mb 0.00 in0.0 mm 0.00 in0.0 mm 0.00 in0.0 mm
01:43 AM 43.2°F6.2°C 21.1°F-6.1°C 41% 8.1 mph W13.0 kmh W 9.7 mph15.6 kmh 30.06 in1017.9 mb 0.00 in0.0 mm 0.00 in0.0 mm 0.00 in0.0 mm
01:41 AM 43.2°F6.2°C 21.1°F-6.1°C 41% 9.1 mph NW14.6 kmh NW 9.7 mph15.6 kmh 30.06 in1017.9 mb 0.00 in0.0 mm 0.00 in0.0 mm 0.00 in0.0 mm
01:40 AM 43.1°F6.2°C 21.0°F-6.1°C 41% 3.8 mph W6.1 kmh W 9.7 mph15.6 kmh 30.06 in1017.9 mb 0.00 in0.0 mm 0.00 in0.0 mm 0.00 in0.0 mm
01:39 AM 43.1°F6.2°C 21.0°F-6.1°C 41% 7.5 mph NW12.1 kmh NW 8.6 mph13.8 kmh 30.06 in1017.9 mb 0.00 in0.0 mm 0.00 in0.0 mm 0.00 in0.0 mm
01:38 AM 43.1°F6.2°C 21.0°F-6.1°C 41% 3.8 mph WNW6.1 kmh WNW 9.1 mph14.6 kmh 30.06 in1017.9 mb 0.00 in0.0 mm 0.00 in0.0 mm 0.00 in0.0 mm
01:37 AM 43.1°F6.2°C 21.0°F-6.1°C 41% 3.2 mph WSW5.1 kmh WSW 9.1 mph14.6 kmh 30.06 in1017.9 mb 0.00 in0.0 mm 0.00 in0.0 mm 0.00 in0.0 mm
01:36 AM 43.1°F6.2°C 21.0°F-6.1°C 41% 7.0 mph SW11.3 kmh SW 9.1 mph14.6 kmh 30.06 in1017.9 mb 0.00 in0.0 mm 0.00 in0.0 mm 0.00 in0.0 mm
01:34 AM 43.1°F6.2°C 21.0°F-6.1°C 41% 3.8 mph WNW6.1 kmh WNW 9.1 mph14.6 kmh 30.06 in1017.9 mb 0.00 in0.0 mm 0.00 in0.0 mm 0.00 in0.0 mm
01:33 AM 43.1°F6.2°C 21.0°F-6.1°C 41% 4.8 mph WNW7.7 kmh WNW 9.1 mph14.6 kmh 30.06 in1017.9 mb 0.00 in0.0 mm 0.00 in0.0 mm 0.00 in0.0 mm
01:32 AM 43.1°F6.2°C 21.0°F-6.1°C 41% 8.1 mph WSW13.0 kmh WSW 8.1 mph13.0 kmh 30.06 in1017.9 mb 0.00 in0.0 mm 0.00 in0.0 mm 0.00 in0.0 mm
01:30 AM 43.1°F6.2°C 21.0°F-6.1°C 41% 4.8 mph WSW7.7 kmh WSW 7.5 mph12.1 kmh 30.06 in1017.9 mb 0.00 in0.0 mm 0.00 in0.0 mm 0.00 in0.0 mm
01:29 AM 43.1°F6.2°C 21.0°F-6.1°C 41% 2.7 mph WNW4.3 kmh WNW 7.5 mph12.1 kmh 30.06 in1017.9 mb 0.00 in0.0 mm 0.00 in0.0 mm 0.00 in0.0 mm
01:27 AM 43.1°F6.2°C 21.0°F-6.1°C 41% 4.8 mph NW7.7 kmh NW 7.5 mph12.1 kmh 30.06 in1017.9 mb 0.00 in0.0 mm 0.00 in0.0 mm 0.00 in0.0 mm
01:26 AM 43.1°F6.2°C 21.0°F-6.1°C 41% 4.3 mph NW6.9 kmh NW 7.5 mph12.1 kmh 30.06 in1017.9 mb 0.00 in0.0 mm 0.00 in0.0 mm 0.00 in0.0 mm
01:25 AM 43.1°F6.2°C 21.0°F-6.1°C 41% 3.2 mph SW5.1 kmh SW 7.5 mph12.1 kmh 30.06 in1017.9 mb 0.00 in0.0 mm 0.00 in0.0 mm 0.00 in0.0 mm
01:24 AM 43.1°F6.2°C 21.0°F-6.1°C 41% 3.8 mph WSW6.1 kmh WSW 7.5 mph12.1 kmh 30.06 in1017.9 mb 0.00 in0.0 mm 0.00 in0.0 mm 0.00 in0.0 mm
01:22 AM 42.9°F6.1°C 20.8°F-6.2°C 41% 4.3 mph WSW6.9 kmh WSW 7.5 mph12.1 kmh 30.06 in1017.9 mb 0.00 in0.0 mm 0.00 in0.0 mm 0.00 in0.0 mm
01:21 AM 42.9°F6.1°C 20.8°F-6.2°C 41% 7.5 mph NW12.1 kmh NW 7.5 mph12.1 kmh 30.06 in1017.9 mb 0.00 in0.0 mm 0.00 in0.0 mm 0.00 in0.0 mm
01:19 AM 42.9°F6.1°C 20.8°F-6.2°C 41% 4.8 mph WNW7.7 kmh WNW 7.5 mph12.1 kmh 30.06 in1017.9 mb 0.00 in0.0 mm 0.00 in0.0 mm 0.00 in0.0 mm
01:17 AM 42.7°F5.9°C 20.7°F-6.3°C 41% 7.5 mph SW12.1 kmh SW 7.5 mph12.1 kmh 30.06 in1017.9 mb 0.00 in0.0 mm 0.00 in0.0 mm 0.00 in0.0 mm
01:16 AM 42.7°F5.9°C 20.7°F-6.3°C 41% 7.5 mph W12.1 kmh W 7.5 mph12.1 kmh 30.06 in1017.9 mb 0.00 in0.0 mm 0.00 in0.0 mm 0.00 in0.0 mm
01:15 AM 42.7°F5.9°C 20.7°F-6.3°C 41% 3.2 mph W5.1 kmh W 7.0 mph11.3 kmh 30.06 in1017.9 mb 0.00 in0.0 mm 0.00 in0.0 mm 0.00 in0.0 mm
01:14 AM 42.7°F5.9°C 20.7°F-6.3°C 41% 5.9 mph WNW9.5 kmh WNW 7.5 mph12.1 kmh 30.06 in1017.9 mb 0.00 in0.0 mm 0.00 in0.0 mm 0.00 in0.0 mm
01:12 AM 42.5°F5.8°C 20.5°F-6.4°C 41% 4.3 mph WSW6.9 kmh WSW 9.1 mph14.6 kmh 30.06 in1017.9 mb 0.00 in0.0 mm 0.00 in0.0 mm 0.00 in0.0 mm
01:11 AM 42.5°F5.8°C 20.5°F-6.4°C 41% 7.0 mph WNW11.3 kmh WNW 9.1 mph14.6 kmh 30.06 in1017.9 mb 0.00 in0.0 mm 0.00 in0.0 mm 0.00 in0.0 mm
01:10 AM 42.5°F5.8°C 20.5°F-6.4°C 41% 5.9 mph SW9.5 kmh SW 9.1 mph14.6 kmh 30.06 in1017.9 mb 0.00 in0.0 mm 0.00 in0.0 mm 0.00 in0.0 mm
01:08 AM 42.5°F5.8°C 20.5°F-6.4°C 41% 3.2 mph WNW5.1 kmh WNW 9.1 mph14.6 kmh 30.06 in1017.9 mb 0.00 in0.0 mm 0.00 in0.0 mm 0.00 in0.0 mm
01:07 AM 42.5°F5.8°C 20.5°F-6.4°C 41% 4.8 mph NW7.7 kmh NW 9.1 mph14.6 kmh 30.06 in1017.9 mb 0.00 in0.0 mm 0.00 in0.0 mm 0.00 in0.0 mm
01:05 AM 42.3°F5.7°C 20.3°F-6.5°C 41% 4.3 mph W6.9 kmh W 7.5 mph12.1 kmh 30.06 in1017.9 mb 0.00 in0.0 mm 0.00 in0.0 mm 0.00 in0.0 mm
01:04 AM 42.3°F5.7°C 20.3°F-6.5°C 41% 5.9 mph NNW9.5 kmh NNW 7.5 mph12.1 kmh 30.06 in1017.9 mb 0.00 in0.0 mm 0.00 in0.0 mm 0.00 in0.0 mm
01:03 AM 42.3°F5.7°C 20.3°F-6.5°C 41% 4.3 mph W6.9 kmh W 7.5 mph12.1 kmh 30.06 in1017.9 mb 0.00 in0.0 mm 0.00 in0.0 mm 0.00 in0.0 mm
01:02 AM 42.3°F5.7°C 20.3°F-6.5°C 41% 3.2 mph NW5.1 kmh NW 7.5 mph12.1 kmh 30.06 in1017.9 mb 0.00 in0.0 mm 0.00 in0.0 mm 0.00 in0.0 mm
01:01 AM 42.3°F5.7°C 20.3°F-6.5°C 41% 6.4 mph NW10.3 kmh NW 7.5 mph12.1 kmh 30.06 in1017.9 mb 0.00 in0.0 mm 0.00 in0.0 mm 0.00 in0.0 mm
01:00 AM 42.3°F5.7°C 20.3°F-6.5°C 41% 3.8 mph NW6.1 kmh NW 7.0 mph11.3 kmh 30.06 in1017.9 mb 0.00 in0.0 mm 0.00 in0.0 mm 0.00 in0.0 mm
12:58 AM 42.3°F5.7°C 20.3°F-6.5°C 41% 6.4 mph WNW10.3 kmh WNW 7.0 mph11.3 kmh 30.06 in1017.9 mb 0.00 in0.0 mm 0.00 in0.0 mm 0.00 in0.0 mm
12:57 AM 42.2°F5.7°C 20.2°F-6.6°C 41% 6.4 mph WSW10.3 kmh WSW 6.4 mph10.3 kmh 30.06 in1017.9 mb 0.00 in0.0 mm 0.00 in0.0 mm 0.00 in0.0 mm
12:55 AM 42.2°F5.7°C 20.2°F-6.6°C 41% 4.8 mph NW7.7 kmh NW 5.9 mph9.5 kmh 30.06 in1017.9 mb 0.00 in0.0 mm 0.00 in0.0 mm 0.00 in0.0 mm
12:54 AM 42.2°F5.7°C 20.2°F-6.6°C 41% 3.8 mph W6.1 kmh W 5.9 mph9.5 kmh 30.06 in1017.9 mb 0.00 in0.0 mm 0.00 in0.0 mm 0.00 in0.0 mm
12:53 AM 42.2°F5.7°C 20.2°F-6.6°C 41% 4.3 mph WNW6.9 kmh WNW 4.8 mph7.7 kmh 30.06 in1017.9 mb 0.00 in0.0 mm 0.00 in0.0 mm 0.00 in0.0 mm
12:52 AM 42.2°F5.7°C 20.2°F-6.6°C 41% 4.8 mph SW7.7 kmh SW 4.8 mph7.7 kmh 30.06 in1017.9 mb 0.00 in0.0 mm 0.00 in0.0 mm 0.00 in0.0 mm
12:51 AM 42.2°F5.7°C 20.2°F-6.6°C 41% 3.2 mph WSW5.1 kmh WSW 4.8 mph7.7 kmh 30.06 in1017.9 mb 0.00 in0.0 mm 0.00 in0.0 mm 0.00 in0.0 mm
12:50 AM 42.2°F5.7°C 20.2°F-6.6°C 41% 3.2 mph WSW5.1 kmh WSW 4.8 mph7.7 kmh 30.06 in1017.9 mb 0.00 in0.0 mm 0.00 in0.0 mm 0.00 in0.0 mm
12:49 AM 42.2°F5.7°C 20.2°F-6.6°C 41% 3.2 mph W5.1 kmh W 5.9 mph9.5 kmh 30.06 in1017.9 mb 0.00 in0.0 mm 0.00 in0.0 mm 0.00 in0.0 mm
12:47 AM 42.0°F5.6°C 20.0°F-6.7°C 41% 3.2 mph WNW5.1 kmh WNW 5.9 mph9.5 kmh 30.06 in1017.9 mb 0.00 in0.0 mm 0.00 in0.0 mm 0.00 in0.0 mm
12:46 AM 42.0°F5.6°C 20.0°F-6.7°C 41% 3.2 mph W5.1 kmh W 7.0 mph11.3 kmh 30.06 in1017.9 mb 0.00 in0.0 mm 0.00 in0.0 mm 0.00 in0.0 mm
12:45 AM 42.0°F5.6°C 20.0°F-6.7°C 41% 3.8 mph WNW6.1 kmh WNW 7.0 mph11.3 kmh 30.06 in1017.9 mb 0.00 in0.0 mm 0.00 in0.0 mm 0.00 in0.0 mm
12:44 AM 42.0°F5.6°C 20.0°F-6.7°C 41% 4.3 mph NW6.9 kmh NW 7.0 mph11.3 kmh 30.06 in1017.9 mb 0.00 in0.0 mm 0.00 in0.0 mm 0.00 in0.0 mm
12:43 AM 42.0°F5.6°C 20.0°F-6.7°C 41% 3.2 mph W5.1 kmh W 7.0 mph11.3 kmh 30.06 in1017.9 mb 0.00 in0.0 mm 0.00 in0.0 mm 0.00 in0.0 mm
12:41 AM 42.0°F5.6°C 20.0°F-6.7°C 41% 3.2 mph W5.1 kmh W 10.5 mph16.9 kmh 30.06 in1017.9 mb 0.00 in0.0 mm 0.00 in0.0 mm 0.00 in0.0 mm
12:39 AM 42.0°F5.6°C 20.0°F-6.7°C 41% 5.9 mph WNW9.5 kmh WNW 10.5 mph16.9 kmh 30.06 in1017.9 mb 0.00 in0.0 mm 0.00 in0.0 mm 0.00 in0.0 mm
12:38 AM 42.0°F5.6°C 20.0°F-6.7°C 41% 3.8 mph WSW6.1 kmh WSW 10.5 mph16.9 kmh 30.06 in1017.9 mb 0.00 in0.0 mm 0.00 in0.0 mm 0.00 in0.0 mm
12:36 AM 42.2°F5.7°C 20.2°F-6.6°C 41% 4.8 mph WNW7.7 kmh WNW 10.5 mph16.9 kmh 30.06 in1017.9 mb 0.00 in0.0 mm 0.00 in0.0 mm 0.00 in0.0 mm
12:35 AM 42.2°F5.7°C 20.2°F-6.6°C 41% 4.3 mph WSW6.9 kmh WSW 10.5 mph16.9 kmh 30.06 in1017.9 mb 0.00 in0.0 mm 0.00 in0.0 mm 0.00 in0.0 mm
12:33 AM 42.2°F5.7°C 20.2°F-6.6°C 41% 3.2 mph WNW5.1 kmh WNW 7.5 mph12.1 kmh 30.06 in1017.9 mb 0.00 in0.0 mm 0.00 in0.0 mm 0.00 in0.0 mm
12:32 AM 42.3°F5.7°C 20.3°F-6.5°C 41% 3.8 mph WNW6.1 kmh WNW 7.5 mph12.1 kmh 30.06 in1017.9 mb 0.00 in0.0 mm 0.00 in0.0 mm 0.00 in0.0 mm
12:31 AM 42.3°F5.7°C 20.3°F-6.5°C 41% 7.5 mph SW12.1 kmh SW 7.5 mph12.1 kmh 30.06 in1017.9 mb 0.00 in0.0 mm 0.00 in0.0 mm 0.00 in0.0 mm
12:30 AM 42.3°F5.7°C 20.3°F-6.5°C 41% 3.8 mph NW6.1 kmh NW 7.5 mph12.1 kmh 30.06 in1017.9 mb 0.00 in0.0 mm 0.00 in0.0 mm 0.00 in0.0 mm
12:29 AM 42.3°F5.7°C 20.3°F-6.5°C 41% 4.3 mph WSW6.9 kmh WSW 7.5 mph12.1 kmh 30.06 in1017.9 mb 0.00 in0.0 mm 0.00 in0.0 mm 0.00 in0.0 mm
12:28 AM 42.3°F5.7°C 20.3°F-6.5°C 41% 4.8 mph WNW7.7 kmh WNW 7.5 mph12.1 kmh 30.06 in1017.9 mb 0.00 in0.0 mm 0.00 in0.0 mm 0.00 in0.0 mm
12:27 AM 42.3°F5.7°C 20.3°F-6.5°C 41% 3.2 mph WNW5.1 kmh WNW 7.5 mph12.1 kmh 30.06 in1017.9 mb 0.00 in0.0 mm 0.00 in0.0 mm 0.00 in0.0 mm
12:26 AM 42.3°F5.7°C 20.3°F-6.5°C 41% 3.8 mph WSW6.1 kmh WSW 7.0 mph11.3 kmh 30.06 in1017.9 mb 0.00 in0.0 mm 0.00 in0.0 mm 0.00 in0.0 mm
12:24 AM 42.5°F5.8°C 20.5°F-6.4°C 41% 4.8 mph SW7.7 kmh SW 7.0 mph11.3 kmh 30.06 in1017.9 mb 0.00 in0.0 mm 0.00 in0.0 mm 0.00 in0.0 mm
12:23 AM 42.5°F5.8°C 20.5°F-6.4°C 41% 4.8 mph W7.7 kmh W 7.0 mph11.3 kmh 30.06 in1017.9 mb 0.00 in0.0 mm 0.00 in0.0 mm 0.00 in0.0 mm
12:22 AM 42.5°F5.8°C 20.5°F-6.4°C 41% 3.8 mph WSW6.1 kmh WSW 7.0 mph11.3 kmh 30.06 in1017.9 mb 0.00 in0.0 mm 0.00 in0.0 mm 0.00 in0.0 mm
12:21 AM 42.5°F5.8°C 20.5°F-6.4°C 41% 4.3 mph WNW6.9 kmh WNW 5.9 mph9.5 kmh 30.06 in1017.9 mb 0.00 in0.0 mm 0.00 in0.0 mm 0.00 in0.0 mm
12:19 AM 42.7°F5.9°C 20.7°F-6.3°C 41% 3.8 mph W6.1 kmh W 6.4 mph10.3 kmh 30.06 in1017.9 mb 0.00 in0.0 mm 0.00 in0.0 mm 0.00 in0.0 mm
12:18 AM 42.7°F5.9°C 20.7°F-6.3°C 41% 3.8 mph NW6.1 kmh NW 6.4 mph10.3 kmh 30.06 in1017.9 mb 0.00 in0.0 mm 0.00 in0.0 mm 0.00 in0.0 mm
12:17 AM 42.7°F5.9°C 20.7°F-6.3°C 41% Calm Calm 7.0 mph11.3 kmh 30.06 in1017.9 mb 0.00 in0.0 mm 0.00 in0.0 mm 0.00 in0.0 mm
12:16 AM 42.7°F5.9°C 20.7°F-6.3°C 41% 3.8 mph SW6.1 kmh SW 7.0 mph11.3 kmh 30.06 in1017.9 mb 0.00 in0.0 mm 0.00 in0.0 mm 0.00 in0.0 mm
12:15 AM 42.9°F6.1°C 20.8°F-6.2°C 41% 3.2 mph W5.1 kmh W 7.0 mph11.3 kmh 30.06 in1017.9 mb 0.00 in0.0 mm 0.00 in0.0 mm 0.00 in0.0 mm
12:13 AM 42.9°F6.1°C 20.8°F-6.2°C 41% 3.8 mph WNW6.1 kmh WNW 7.0 mph11.3 kmh 30.06 in1017.9 mb 0.00 in0.0 mm 0.00 in0.0 mm 0.00 in0.0 mm
12:12 AM 42.9°F6.1°C 20.8°F-6.2°C 41% 3.8 mph WSW6.1 kmh WSW 7.0 mph11.3 kmh 30.06 in1017.9 mb 0.00 in0.0 mm 0.00 in0.0 mm 0.00 in0.0 mm
12:10 AM 42.9°F6.1°C 20.8°F-6.2°C 41% 4.3 mph WNW6.9 kmh WNW 8.1 mph13.0 kmh 30.06 in1017.9 mb 0.00 in0.0 mm 0.00 in0.0 mm 0.00 in0.0 mm
12:09 AM 42.9°F6.1°C 20.8°F-6.2°C 41% 6.4 mph W10.3 kmh W 8.1 mph13.0 kmh 30.06 in1017.9 mb 0.00 in0.0 mm 0.00 in0.0 mm 0.00 in0.0 mm
12:07 AM 43.1°F6.2°C 21.0°F-6.1°C 41% 4.3 mph NW6.9 kmh NW 8.1 mph13.0 kmh 30.06 in1017.9 mb 0.00 in0.0 mm 0.00 in0.0 mm 0.00 in0.0 mm
12:06 AM 43.1°F6.2°C 21.0°F-6.1°C 41% 3.8 mph W6.1 kmh W 8.1 mph13.0 kmh 30.06 in1017.9 mb 0.00 in0.0 mm 0.00 in0.0 mm 0.00 in0.0 mm
12:05 AM 43.1°F6.2°C 21.0°F-6.1°C 41% 3.2 mph WSW5.1 kmh WSW 8.1 mph13.0 kmh 30.06 in1017.9 mb 0.00 in0.0 mm 0.00 in0.0 mm 0.00 in0.0 mm
12:03 AM 43.1°F6.2°C 21.0°F-6.1°C 41% 4.3 mph WNW6.9 kmh WNW 8.1 mph13.0 kmh 30.06 in1017.9 mb 0.00 in0.0 mm 0.00 in0.0 mm 0.00 in0.0 mm
12:02 AM 43.1°F6.2°C 21.0°F-6.1°C 41% 3.2 mph NW5.1 kmh NW 7.5 mph12.1 kmh 30.06 in1017.9 mb 0.00 in0.0 mm 0.00 in0.0 mm 0.00 in0.0 mm
12:01 AM 43.1°F6.2°C 21.0°F-6.1°C 41% 4.8 mph NW7.7 kmh NW 7.5 mph12.1 kmh 30.06 in1017.9 mb 0.00 in0.0 mm 0.00 in0.0 mm 0.00 in0.0 mm
12:00 AM 43.1°F6.2°C 21.0°F-6.1°C 41% 3.8 mph W6.1 kmh W 7.5 mph12.1 kmh 30.06 in1017.9 mb 0.00 in0.0 mm 0.00 in0.0 mm 0.00 in0.0 mm